Provisional Data: Nanticoke Creek near Maine, NY


Please select a monitoring station.
Please select start date.
Please select start date.

Toggle Unit: C/F Toggle Unit: C/F
Sample Time Temperature (C) Temperature (F) Specific Conductivity (mS/cm) pH   Turbidity (NTU+) DO (mg/L)
2/4/2021 12:00:00 AM -0.02 31.964 0.164 7.23 3.14 13.57
2/4/2021 12:15:00 AM -0.02 31.964 0.165 7.23 3.13 13.57
2/4/2021 12:30:00 AM -0.02 31.964 0.165 7.22 3.12 13.57
2/4/2021 12:45:00 AM -0.02 31.964 0.164 7.24 3.14 13.57
2/4/2021 1:00:00 AM -0.02 31.964 0.164 7.23 3.15 13.57
2/4/2021 1:15:00 AM -0.02 31.964 0.165 7.22 3.05 13.56
2/4/2021 1:30:00 AM -0.02 31.964 0.165 7.23 3.09 13.56
2/4/2021 1:45:00 AM -0.02 31.964 0.164 7.25 3.19 13.57
2/4/2021 2:00:00 AM -0.02 31.964 0.164 7.24 3.12 13.56
2/4/2021 2:15:00 AM -0.02 31.964 0.164 7.24 3.16 13.56
2/4/2021 2:30:00 AM -0.01 31.982 0.165 7.24 3.1 13.56
2/4/2021 2:45:00 AM -0.02 31.964 0.164 7.24 3.23 13.56
2/4/2021 3:00:00 AM -0.02 31.964 0.164 7.24 3.24 13.57
2/4/2021 3:15:00 AM -0.03 31.946 0.164 7.24 3.21 13.56
2/4/2021 3:30:00 AM -0.03 31.946 0.164 7.24 3.22 13.56
2/4/2021 3:45:00 AM -0.04 31.928 0.163 7.24 3.35 13.56
2/4/2021 4:00:00 AM -0.04 31.928 0.163 7.25 3.3 13.57
2/4/2021 4:15:00 AM -0.04 31.928 0.164 7.24 3.38 13.57
2/4/2021 4:30:00 AM -0.05 31.91 0.163 7.22 3.33 13.57
2/4/2021 4:45:00 AM -0.05 31.91 0.164 7.23 3.32 13.57
2/4/2021 5:00:00 AM -0.05 31.91 0.164 7.24 3.45 13.57
2/4/2021 5:15:00 AM -0.05 31.91 0.165 7.24 3.39 13.56
2/4/2021 5:30:00 AM -0.06 31.892 0.164 7.24 3.27 13.57
2/4/2021 5:45:00 AM -0.06 31.892 0.165 7.25 3.35 13.57
2/4/2021 6:00:00 AM -0.06 31.892 0.165 7.25 3.34 13.57
2/4/2021 6:15:00 AM -0.05 31.91 0.164 7.26 3.2 13.57
2/4/2021 6:30:00 AM -0.05 31.91 0.165 7.24 3.42 13.57
2/4/2021 6:45:00 AM -0.04 31.928 0.164 7.23 3.36 13.58
2/4/2021 7:00:00 AM -0.04 31.928 0.165 7.23 3.32 13.57
2/4/2021 7:15:00 AM -0.03 31.946 0.165 7.23 3.25 13.58
2/4/2021 7:30:00 AM -0.03 31.946 0.164 7.24 3.25 13.58
2/4/2021 7:45:00 AM -0.02 31.964 0.165 7.24 3.31 13.59
2/4/2021 8:00:00 AM -0.02 31.964 0.164 7.23 3.28 13.61
2/4/2021 8:15:00 AM -0.01 31.982 0.164 7.24 3.26 13.64
2/4/2021 8:30:00 AM -0.01 31.982 0.164 7.25 3.77 13.67
2/4/2021 8:45:00 AM 0 32 0.164 7.24 3.27 13.7
2/4/2021 9:00:00 AM 0.01 32.018 0.164 7.25 3.29 13.74
2/4/2021 9:15:00 AM 0.02 32.036 0.165 7.25 3.23 13.76
2/4/2021 9:30:00 AM 0.03 32.054 0.165 7.26 3.17 13.79
2/4/2021 9:45:00 AM 0.05 32.09 0.164 7.27 3.23 13.82
2/4/2021 10:00:00 AM 0.07 32.126 0.164 7.27 3.08 13.85
2/4/2021 10:15:00 AM 0.11 32.198 0.164 7.28 3.22 13.89
2/4/2021 10:30:00 AM 0.15 32.27 0.164 7.28 3.19 13.9
2/4/2021 10:45:00 AM 0.18 32.324 0.164 7.29 3.16 13.91
2/4/2021 11:00:00 AM 0.22 32.396 0.163 7.29 3.2 13.94
2/4/2021 11:15:00 AM 0.26 32.468 0.164 7.29 3.11 13.95
2/4/2021 11:30:00 AM 0.29 32.522 0.164 7.3 3.1 13.95
2/4/2021 11:45:00 AM 0.32 32.576 0.164 7.3 3.13 13.96
2/4/2021 12:00:00 PM 0.35 32.63 0.165 7.3 3.07 13.96
2/4/2021 12:15:00 PM 0.39 32.702 0.165 7.3 3.09 13.96
2/4/2021 12:30:00 PM 0.41 32.738 0.165 7.3 3.09 13.96
2/4/2021 12:45:00 PM 0.44 32.792 0.166 7.31 3 13.96
2/4/2021 1:00:00 PM 0.46 32.828 0.166 7.32 3.04 13.96
2/4/2021 1:15:00 PM 0.48 32.864 0.166 7.31 3 13.96
2/4/2021 1:30:00 PM 0.49 32.882 0.166 7.31 3.02 13.97
2/4/2021 1:45:00 PM 0.5 32.9 0.164 7.32 3.04 13.97
2/4/2021 2:00:00 PM 0.5 32.9 0.166 7.31 3.18 13.97
2/4/2021 2:15:00 PM 0.5 32.9 0.164 7.29 4.26 13.98
2/4/2021 2:30:00 PM 0.5 32.9 0.165 7.28 5.53 13.98
2/4/2021 2:45:00 PM 0.49 32.882 0.162 7.31 3.85 13.99
2/4/2021 3:00:00 PM 0.48 32.864 0.162 7.29 5.03 14
2/4/2021 3:15:00 PM 0.46 32.828 0.162 7.31 3.77 13.99
2/4/2021 3:30:00 PM 0.44 32.792 0.163 7.28 3.45 14
2/4/2021 3:45:00 PM 0.42 32.756 0.162 7.29 3.17 14
2/4/2021 4:00:00 PM 0.38 32.684 0.162 7.27 3.33 14
2/4/2021 4:15:00 PM 0.34 32.612 0.162 7.28 3.55 14
2/4/2021 4:30:00 PM 0.3 32.54 0.163 7.28 3.33 13.99
2/4/2021 4:45:00 PM 0.25 32.45 0.162 7.28 4.98 13.98
2/4/2021 5:00:00 PM 0.21 32.378 0.163 7.28 4.73 13.97
2/4/2021 5:15:00 PM 0.17 32.306 0.162 7.28 3.49 13.95
2/4/2021 5:30:00 PM 0.14 32.252 0.163 7.28 3.49 13.93
2/4/2021 5:45:00 PM 0.12 32.216 0.163 7.28 3.21 13.9
2/4/2021 6:00:00 PM 0.09 32.162 0.163 7.27 3.1 13.87
2/4/2021 6:15:00 PM 0.07 32.126 0.162 7.28 3.21 13.84
2/4/2021 6:30:00 PM 0.06 32.108 0.163 7.26 3.08 13.83
2/4/2021 6:45:00 PM 0.04 32.072 0.161 7.28 3.42 13.81
2/4/2021 7:00:00 PM 0.02 32.036 0.162 7.27 3.08 13.8
2/4/2021 7:15:00 PM 0.01 32.018 0.161 7.26 3.11 13.79
2/4/2021 7:30:00 PM 0 32 0.161 7.27 3.06 13.78
2/4/2021 7:45:00 PM -0.02 31.964 0.161 7.27 3.08 13.77
2/4/2021 8:00:00 PM -0.03 31.946 0.161 7.27 3.35 13.77
2/4/2021 8:15:00 PM -0.04 31.928 0.161 7.26 3.06 13.77
2/4/2021 8:30:00 PM -0.05 31.91 0.161 7.26 3.11 13.76
2/4/2021 8:45:00 PM -0.06 31.892 0.161 7.26 3.2 13.76
2/4/2021 9:00:00 PM -0.06 31.892 0.161 7.25 3.09 13.76
2/4/2021 9:15:00 PM -0.07 31.874 0.161 7.27 3.21 13.76
2/4/2021 9:30:00 PM -0.07 31.874 0.162 7.27 3.18 13.75
2/4/2021 9:45:00 PM -0.07 31.874 0.162 7.27 3.19 13.74
2/4/2021 10:00:00 PM -0.07 31.874 0.162 7.27 3.21 13.74
2/4/2021 10:15:00 PM -0.06 31.892 0.163 7.26 3.14 13.74
2/4/2021 10:30:00 PM -0.06 31.892 0.162 7.29 3.13 13.74
2/4/2021 10:45:00 PM -0.06 31.892 0.163 7.25 3.22 13.73
2/4/2021 11:00:00 PM -0.06 31.892 0.163 7.25 3.13 13.72
2/4/2021 11:15:00 PM -0.05 31.91 0.164 7.24 3.15 13.71
2/4/2021 11:30:00 PM -0.05 31.91 0.164 7.23 3.07 13.7
2/4/2021 11:45:00 PM -0.05 31.91 0.164 7.23 3.18 13.69
2/5/2021 12:00:00 AM -0.05 31.91 0.164 7.22 3.15 13.69
2/5/2021 12:15:00 AM -0.05 31.91 0.164 7.23 3.17 13.68
2/5/2021 12:30:00 AM -0.04 31.928 0.165 7.23 3.02 13.67
2/5/2021 12:45:00 AM -0.04 31.928 0.165 7.25 3.16 13.66
2/5/2021 1:00:00 AM -0.04 31.928 0.166 7.25 3.18 13.65
2/5/2021 1:15:00 AM -0.04 31.928 0.166 7.25 3.18 13.65
2/5/2021 1:30:00 AM -0.03 31.946 0.166 7.24 66.05 13.65
2/5/2021 1:45:00 AM -0.03 31.946 0.167 7.22 7.87 13.63
2/5/2021 2:00:00 AM -0.03 31.946 0.167 7.21 3.96 13.63
2/5/2021 2:15:00 AM -0.03 31.946 0.167 7.22 4.83 13.62
2/5/2021 2:30:00 AM -0.02 31.964 0.167 7.23 4.27 13.61
2/5/2021 2:45:00 AM -0.02 31.964 0.168 7.23 3.43 13.61
2/5/2021 3:00:00 AM -0.02 31.964 0.168 7.21 3.38 13.6
2/5/2021 3:15:00 AM -0.01 31.982 0.169 7.19 93.29 13.59
2/5/2021 3:30:00 AM -0.02 31.964 0.169 7.21 3.32 13.59
2/5/2021 3:45:00 AM -0.02 31.964 0.169 7.19 3.42 13.58
2/5/2021 4:00:00 AM -0.02 31.964 0.17 7.19 3.33 13.57
2/5/2021 4:15:00 AM -0.01 31.982 0.169 7.18 3.36 13.57
2/5/2021 4:30:00 AM -0.01 31.982 0.17 7.19 3.3 13.56
2/5/2021 4:45:00 AM 0 32 0.169 7.19 3.28 13.55
2/5/2021 5:00:00 AM 0 32 0.169 7.19 3.3 13.55
2/5/2021 5:15:00 AM 0.01 32.018 0.17 7.18 3.25 13.54
2/5/2021 5:30:00 AM 0.01 32.018 0.171 7.19 3.25 13.52
2/5/2021 5:45:00 AM 0.01 32.018 0.171 7.18 3.22 13.52
2/5/2021 6:00:00 AM 0.02 32.036 0.172 7.19 3.31 13.52
2/5/2021 6:15:00 AM 0.01 32.018 0.171 7.18 3.35 13.51
2/5/2021 6:30:00 AM 0.01 32.018 0.171 7.19 3.26 13.51
2/5/2021 6:45:00 AM 0.01 32.018 0.17 7.17 3.27 13.5
2/5/2021 7:00:00 AM 0.01 32.018 0.17 7.18 3.26 13.49
2/5/2021 7:15:00 AM 0.01 32.018 0.17 7.17 3.33 13.48
2/5/2021 7:30:00 AM 0.01 32.018 0.169 7.18 3.38 13.48
2/5/2021 7:45:00 AM 0.02 32.036 0.17 7.18 3.42 13.48
2/5/2021 8:00:00 AM 0.03 32.054 0.17 7.18 3.39 13.48
2/5/2021 8:15:00 AM 0.04 32.072 0.169 7.19 3.35 13.5
2/5/2021 8:30:00 AM 0.05 32.09 0.169 7.19 3.3 13.51
2/5/2021 8:45:00 AM 0.07 32.126 0.169 7.19 3.32 13.53
2/5/2021 9:00:00 AM 0.08 32.144 0.168 7.19 3.44 13.56
2/5/2021 9:15:00 AM 0.11 32.198 0.168 7.2 3.33 13.59
2/5/2021 9:30:00 AM 0.14 32.252 0.167 7.21 3.35 13.63
2/5/2021 9:45:00 AM 0.19 32.342 0.166 7.23 3.39 13.67
2/5/2021 10:00:00 AM 0.24 32.432 0.166 7.22 3.4 13.69
2/5/2021 10:15:00 AM 0.28 32.504 0.165 7.24 3.43 13.71
2/5/2021 10:30:00 AM 0.34 32.612 0.166 7.24 3.4 13.73
2/5/2021 10:45:00 AM 0.38 32.684 0.166 7.25 3.56 13.74
2/5/2021 11:00:00 AM 0.44 32.792 0.165 7.25 3.53 13.75
2/5/2021 11:15:00 AM 0.5 32.9 0.165 7.27 3.44 13.76
2/5/2021 11:30:00 AM 0.55 32.99 0.165 7.26 3.33 13.77
2/5/2021 11:45:00 AM 0.62 33.116 0.166 7.26 3.34 13.76
2/5/2021 12:00:00 PM 0.66 33.188 0.166 7.27 3.3 13.77
2/5/2021 12:15:00 PM 0.7 33.26 0.167 7.27 3.28 13.77
2/5/2021 12:30:00 PM 0.75 33.35 0.167 7.28 3.2 13.77
2/5/2021 12:45:00 PM 0.72 33.296 0.167 7.28 3.2 13.78
2/5/2021 1:00:00 PM 0.71 33.278 0.166 7.29 3.18 13.79
2/5/2021 1:15:00 PM 0.73 33.314 0.167 7.29 3.18 13.8
2/5/2021 1:30:00 PM 0.74 33.332 0.167 7.29 3.26 13.8
2/5/2021 1:45:00 PM 0.74 33.332 0.166 7.29 3.16 13.81
2/5/2021 2:00:00 PM 0.78 33.404 0.164 7.3 3.42 13.82
2/5/2021 2:15:00 PM 0.81 33.458 0.167 7.31 3.55 13.82
2/5/2021 2:30:00 PM 0.83 33.494 0.164 7.31 3.14 13.83
2/5/2021 2:45:00 PM 0.78 33.404 0.166 7.31 3.15 13.83
2/5/2021 3:00:00 PM 0.72 33.296 0.165 7.3 3.17 13.83
2/5/2021 3:15:00 PM 0.7 33.26 0.164 7.31 3.14 13.84
2/5/2021 3:30:00 PM 0.69 33.242 0.165 7.31 3.17 13.85
2/5/2021 3:45:00 PM 0.66 33.188 0.164 7.31 3.27 13.85
2/5/2021 4:00:00 PM 0.62 33.116 0.164 7.31 3.26 13.85
2/5/2021 4:15:00 PM 0.58 33.044 0.164 7.32 3.25 13.85
2/5/2021 4:30:00 PM 0.54 32.972 0.164 7.31 3.33 13.86
2/5/2021 4:45:00 PM 0.51 32.918 0.163 7.31 3.33 13.85
2/5/2021 5:00:00 PM 0.47 32.846 0.163 7.31 3.39 13.85
2/5/2021 5:15:00 PM 0.43 32.774 0.164 7.29 3.38 13.82
2/5/2021 5:30:00 PM 0.37 32.666 0.163 7.31 3.36 13.81
2/5/2021 5:45:00 PM 0.34 32.612 0.163 7.29 3.58 13.78
2/5/2021 6:00:00 PM 0.31 32.558 0.163 7.29 3.48 13.76
2/5/2021 6:15:00 PM 0.28 32.504 0.163 7.3 3.65 13.75
2/5/2021 6:30:00 PM 0.26 32.468 0.163 7.3 3.54 13.73
2/5/2021 6:45:00 PM 0.24 32.432 0.164 7.28 3.61 13.71
2/5/2021 7:00:00 PM 0.23 32.414 0.163 7.27 3.55 13.69
2/5/2021 7:15:00 PM 0.22 32.396 0.164 7.27 3.64 13.68
2/5/2021 7:30:00 PM 0.21 32.378 0.163 7.27 3.53 13.67
2/5/2021 7:45:00 PM 0.2 32.36 0.164 7.27 3.47 13.66
2/5/2021 8:00:00 PM 0.19 32.342 0.164 7.27 3.5 13.65
2/5/2021 8:15:00 PM 0.17 32.306 0.164 7.27 3.36 13.65
2/5/2021 8:30:00 PM 0.15 32.27 0.163 7.25 3.46 13.65
2/5/2021 8:45:00 PM 0.14 32.252 0.164 7.25 3.38 13.64
2/5/2021 9:00:00 PM 0.11 32.198 0.164 7.25 3.41 13.64
2/5/2021 9:15:00 PM 0.08 32.144 0.164 7.25 3.34 13.64
2/5/2021 9:30:00 PM 0.06 32.108 0.163 7.24 3.45 13.64
2/5/2021 9:45:00 PM 0.05 32.09 0.163 7.26 3.57 13.64
2/5/2021 10:00:00 PM 0.05 32.09 0.164 7.26 3.31 13.64
2/5/2021 10:15:00 PM 0.02 32.036 0.164 7.25 3.29 13.64
2/5/2021 10:30:00 PM 0.01 32.018 0.165 7.24 3.51 13.64
2/5/2021 10:45:00 PM 0 32 0.164 7.26 3.51 13.65
2/5/2021 11:00:00 PM -0.01 31.982 0.165 7.25 3.31 13.65
2/5/2021 11:15:00 PM -0.01 31.982 0.166 7.24 3.49 13.64
2/5/2021 11:30:00 PM -0.02 31.964 0.166 7.23 3.51 13.64
2/5/2021 11:45:00 PM -0.02 31.964 0.166 7.24 3.61 13.64
2/6/2021 12:00:00 AM -0.02 31.964 0.166 7.24 3.65 13.64
2/6/2021 12:15:00 AM -0.02 31.964 0.166 7.24 3.56 13.65
2/6/2021 12:30:00 AM -0.01 31.982 0.167 7.24 3.61 13.63
2/6/2021 12:45:00 AM -0.03 31.946 0.167 7.23 3.68 13.64
2/6/2021 1:00:00 AM -0.03 31.946 0.168 7.23 3.67 13.63
2/6/2021 1:15:00 AM -0.05 31.91 0.167 7.23 3.68 13.64
2/6/2021 1:30:00 AM -0.08 31.856 0.168 7.23 3.8 13.64
2/6/2021 1:45:00 AM -0.09 31.838 0.168 7.23 3.72 13.65
2/6/2021 2:00:00 AM -0.09 31.838 0.169 7.24 3.8 13.65
2/6/2021 2:15:00 AM -0.09 31.838 0.169 7.23 3.89 13.65
2/6/2021 2:30:00 AM -0.08 31.856 0.169 7.23 3.83 13.66
2/6/2021 2:45:00 AM -0.07 31.874 0.17 7.24 3.82 13.65
2/6/2021 3:00:00 AM -0.06 31.892 0.17 7.23 3.82 13.65
2/6/2021 3:15:00 AM -0.06 31.892 0.17 7.23 3.74 13.65
2/6/2021 3:30:00 AM -0.06 31.892 0.17 7.22 3.63 13.65
2/6/2021 3:45:00 AM -0.05 31.91 0.17 7.23 3.61 13.65
2/6/2021 4:00:00 AM -0.05 31.91 0.171 7.23 3.63 13.65
2/6/2021 4:15:00 AM -0.05 31.91 0.171 7.22 3.94 13.65
2/6/2021 4:30:00 AM -0.05 31.91 0.171 7.23 3.74 13.65
2/6/2021 4:45:00 AM -0.04 31.928 0.171 7.22 3.55 13.65
2/6/2021 5:00:00 AM -0.04 31.928 0.171 7.22 3.62 13.65
2/6/2021 5:15:00 AM -0.04 31.928 0.172 7.22 3.7 13.64
2/6/2021 5:30:00 AM -0.04 31.928 0.172 7.22 3.76 13.64
2/6/2021 5:45:00 AM -0.03 31.946 0.172 7.23 3.6 13.64
2/6/2021 6:00:00 AM -0.04 31.928 0.172 7.23 3.95 13.64
2/6/2021 6:15:00 AM -0.04 31.928 0.172 7.23 3.72 13.64
2/6/2021 6:30:00 AM -0.04 31.928 0.173 7.23 3.73 13.64
2/6/2021 6:45:00 AM -0.04 31.928 0.173 7.23 3.77 13.64
2/6/2021 7:00:00 AM -0.04 31.928 0.174 7.23 3.77 13.64
2/6/2021 7:15:00 AM -0.03 31.946 0.173 7.22 3.8 13.64
2/6/2021 7:30:00 AM -0.02 31.964 0.173 7.21 3.65 13.64
2/6/2021 7:45:00 AM -0.02 31.964 0.173 7.22 3.64 13.65
2/6/2021 8:00:00 AM -0.02 31.964 0.174 7.23 3.73 13.69
2/6/2021 8:15:00 AM 0 32 0.173 7.23 3.68 13.71
2/6/2021 8:30:00 AM 0.01 32.018 0.173 7.24 3.76 13.77
2/6/2021 8:45:00 AM 0.03 32.054 0.172 7.25 3.78 13.81
2/6/2021 9:00:00 AM 0.04 32.072 0.172 7.24 3.65 13.84
2/6/2021 9:15:00 AM 0.04 32.072 0.172 7.26 3.69 13.87
2/6/2021 9:30:00 AM 0.06 32.108 0.172 7.27 3.65 13.91
2/6/2021 9:45:00 AM 0.11 32.198 0.172 7.26 3.59 13.94
2/6/2021 10:00:00 AM 0.16 32.288 0.172 7.27 3.58 13.97
2/6/2021 10:15:00 AM 0.22 32.396 0.171 7.29 3.53 14.01
2/6/2021 10:30:00 AM 0.28 32.504 0.172 7.29 3.59 14.02
2/6/2021 10:45:00 AM 0.34 32.612 0.172 7.3 3.48 14.03
2/6/2021 11:00:00 AM 0.41 32.738 0.171 7.3 3.49 14.04
2/6/2021 11:15:00 AM 0.47 32.846 0.172 7.3 3.46 14.05
2/6/2021 11:30:00 AM 0.53 32.954 0.172 7.3 3.39 14.06
2/6/2021 11:45:00 AM 0.6 33.08 0.172 7.32 3.49 14.06
2/6/2021 12:00:00 PM 0.67 33.206 0.172 7.32 3.47 14.07
2/6/2021 12:15:00 PM 0.75 33.35 0.172 7.32 3.34 14.06
2/6/2021 12:30:00 PM 0.81 33.458 0.172 7.33 3.45 14.07
2/6/2021 12:45:00 PM 0.84 33.512 0.171 7.33 3.33 14.07
2/6/2021 1:00:00 PM 0.91 33.638 0.171 7.34 3.41 14.08
2/6/2021 1:15:00 PM 0.96 33.728 0.171 7.33 3.36 14.08
2/6/2021 1:30:00 PM 0.99 33.782 0.171 7.33 3.5 14.09
2/6/2021 1:45:00 PM 1.02 33.836 0.171 7.34 3.4 14.09
2/6/2021 2:00:00 PM 1.03 33.854 0.17 7.34 3.32 14.09
2/6/2021 2:15:00 PM 1.04 33.872 0.17 7.34 3.47 14.09
2/6/2021 2:30:00 PM 1.03 33.854 0.17 7.34 3.29 14.11
2/6/2021 2:45:00 PM 1.03 33.854 0.171 7.34 3.32 14.11
2/6/2021 3:00:00 PM 1.02 33.836 0.171 7.34 3.38 14.1
2/6/2021 3:15:00 PM 0.99 33.782 0.171 7.35 3.49 14.11
2/6/2021 3:30:00 PM 0.96 33.728 0.171 7.35 3.42 14.1
2/6/2021 3:45:00 PM 0.92 33.656 0.171 7.35 3.69 14.1
2/6/2021 4:00:00 PM 0.86 33.548 0.171 7.35 3.84 14.09
2/6/2021 4:15:00 PM 0.77 33.386 0.17 7.34 3.91 14.1
2/6/2021 4:30:00 PM 0.7 33.26 0.171 7.35 3.96 14.1
2/6/2021 4:45:00 PM 0.61 33.098 0.17 7.33 3.97 14.1
2/6/2021 5:00:00 PM 0.54 32.972 0.17 7.32 4.17 14.09
2/6/2021 5:15:00 PM 0.48 32.864 0.17 7.32 4.51 14.07
2/6/2021 5:30:00 PM 0.43 32.774 0.17 7.32 4.38 14.04
2/6/2021 5:45:00 PM 0.37 32.666 0.17 7.31 4.33 14.02
2/6/2021 6:00:00 PM 0.33 32.594 0.17 7.31 4.49 13.99
2/6/2021 6:15:00 PM 0.29 32.522 0.17 7.3 4.61 13.96
2/6/2021 6:30:00 PM 0.25 32.45 0.17 7.29 4.63 13.93
2/6/2021 6:45:00 PM 0.21 32.378 0.17 7.29 4.57 13.92
2/6/2021 7:00:00 PM 0.17 32.306 0.17 7.29 4.35 13.9
2/6/2021 7:15:00 PM 0.13 32.234 0.171 7.27 4.28 13.89
2/6/2021 7:30:00 PM 0.09 32.162 0.17 7.27 4.18 13.87
2/6/2021 7:45:00 PM 0.05 32.09 0.17 7.27 3.93 13.87
2/6/2021 8:00:00 PM 0.02 32.036 0.171 7.27 3.83 13.86
2/6/2021 8:15:00 PM -0.02 31.964 0.171 7.26 3.84 13.87
2/6/2021 8:30:00 PM -0.05 31.91 0.171 7.26 3.84 13.86
2/6/2021 8:45:00 PM -0.09 31.838 0.171 7.26 3.78 13.86
2/6/2021 9:00:00 PM -0.11 31.802 0.172 7.25 3.98 13.87
2/6/2021 9:15:00 PM -0.13 31.766 0.172 7.29 3.82 13.88
2/6/2021 9:30:00 PM -0.1 31.82 0.173 7.32 3.62 13.87
2/6/2021 9:45:00 PM -0.09 31.838 0.172 7.32 3.79 13.88
2/6/2021 10:00:00 PM -0.1 31.82 0.173 7.33 3.99 14.07
2/6/2021 10:15:00 PM -0.09 31.838 0.174 7.32 4.21 14.21
2/6/2021 10:30:00 PM -0.09 31.838 0.175 7.32 4.11 14.2
2/6/2021 10:45:00 PM -0.08 31.856 0.176 7.32 3.66 14.2
2/6/2021 11:00:00 PM -0.08 31.856 0.177 7.31 4.18 13.94
2/6/2021 11:15:00 PM -0.08 31.856 0.176 7.31 3.76 13.84
2/6/2021 11:30:00 PM -0.07 31.874 0.179 7.29 3.73 13.83
2/6/2021 11:45:00 PM -0.07 31.874 0.179 7.29 3.93 13.82
2/7/2021 12:00:00 AM -0.07 31.874 0.179 7.29 4.03 13.82
2/7/2021 12:15:00 AM -0.07 31.874 0.18 7.29 3.89 13.82
2/7/2021 12:30:00 AM -0.07 31.874 0.181 7.28 5.33 13.81
2/7/2021 12:45:00 AM -0.07 31.874 0.182 7.27 3.59 13.8
2/7/2021 1:00:00 AM -0.07 31.874 0.182 7.28 4.04 13.81
2/7/2021 1:15:00 AM -0.06 31.892 0.184 7.28 3.98 13.79
2/7/2021 1:30:00 AM -0.06 31.892 0.185 7.28 4.1 13.79
2/7/2021 1:45:00 AM -0.06 31.892 0.185 7.28 3.83 13.8
2/7/2021 2:00:00 AM -0.06 31.892 0.188 7.27 3.8 13.78
2/7/2021 2:15:00 AM -0.06 31.892 0.189 7.28 4 13.78
2/7/2021 2:30:00 AM -0.05 31.91 0.19 7.27 3.95 13.77
2/7/2021 2:45:00 AM -0.05 31.91 0.191 7.28 3.83 13.76
2/7/2021 3:00:00 AM -0.05 31.91 0.192 7.28 3.86 13.75
2/7/2021 3:15:00 AM -0.05 31.91 0.193 7.27 3.95 13.74
2/7/2021 3:30:00 AM -0.04 31.928 0.194 7.27 4.44 13.73
2/7/2021 3:45:00 AM -0.05 31.91 0.195 7.27 3.93 13.73
2/7/2021 4:00:00 AM -0.04 31.928 0.196 7.27 4.17 13.72
2/7/2021 4:15:00 AM -0.04 31.928 0.197 7.25 3.91 13.7
2/7/2021 4:30:00 AM -0.04 31.928 0.198 7.26 3.96 13.7
2/7/2021 4:45:00 AM -0.03 31.946 0.199 7.26 3.66 13.69
2/7/2021 5:00:00 AM -0.03 31.946 0.2 7.24 3.52 13.67
2/7/2021 5:15:00 AM -0.03 31.946 0.2 7.26 3.46 13.69
2/7/2021 5:30:00 AM -0.02 31.964 0.202 7.25 3.65 13.65
2/7/2021 5:45:00 AM -0.01 31.982 0.203 7.25 3.47 13.64
2/7/2021 6:00:00 AM -0.01 31.982 0.204 7.24 3.71 13.62
2/7/2021 6:15:00 AM -0.01 31.982 0.205 7.25 4.03 13.63
2/7/2021 6:30:00 AM -0.01 31.982 0.205 7.25 3.7 13.61
2/7/2021 6:45:00 AM -0.01 31.982 0.206 7.25 3.76 13.61
2/7/2021 7:00:00 AM -0.02 31.964 0.207 7.24 3.73 13.63
2/7/2021 7:15:00 AM -0.02 31.964 0.207 7.25 3.45 13.62
2/7/2021 7:30:00 AM -0.02 31.964 0.208 7.25 3.42 13.61
2/7/2021 7:45:00 AM -0.01 31.982 0.209 7.25 3.3 13.61
2/7/2021 8:00:00 AM 0 32 0.21 7.23 3.43 13.6
2/7/2021 8:15:00 AM -0.01 31.982 0.209 7.24 3.95 13.64
2/7/2021 8:30:00 AM -0.01 31.982 0.209 7.26 3.43 13.67
2/7/2021 8:45:00 AM 0 32 0.209 7.25 3.25 13.72
2/7/2021 9:00:00 AM 0 32 0.209 7.27 3.4 13.77
2/7/2021 9:15:00 AM 0.01 32.018 0.208 7.28 3.19 13.8
2/7/2021 9:30:00 AM 0.01 32.018 0.208 7.29 3.46 13.85
2/7/2021 9:45:00 AM 0.01 32.018 0.206 7.29 3.32 13.89
2/7/2021 10:00:00 AM 0 32 0.205 7.28 3.35 13.92
2/7/2021 10:15:00 AM 0 32 0.204 7.29 3.38 13.95
2/7/2021 10:30:00 AM 0.01 32.018 0.202 7.3 3.4 13.96
2/7/2021 10:45:00 AM 0.03 32.054 0.2 7.29 3.47 13.98
2/7/2021 11:00:00 AM 0.04 32.072 0.198 7.29 3.51 14.01
2/7/2021 11:15:00 AM 0.04 32.072 0.194 7.28 3.49 14.03
2/7/2021 11:30:00 AM 0.05 32.09 0.191 7.24 3.46 14.05
2/7/2021 11:45:00 AM 0.04 32.072 0.189 7.24 3.56 14.06
2/7/2021 12:00:00 PM 0.03 32.054 0.186 7.23 3.62 14.07
2/7/2021 12:15:00 PM 0.02 32.036 0.185 7.25 3.64 14.07
2/7/2021 12:30:00 PM 0.02 32.036 0.184 7.22 3.49 14.06
2/7/2021 12:45:00 PM 0.01 32.018 0.185 7.25 3.68 14.05
2/7/2021 1:00:00 PM 0.01 32.018 0.187 7.24 3.68 14.05
2/7/2021 1:15:00 PM 0.01 32.018 0.188 7.25 3.72 14.04
2/7/2021 1:30:00 PM 0 32 0.189 7.25 3.75 14.04
2/7/2021 1:45:00 PM 0 32 0.189 7.27 3.79 14.04
2/7/2021 2:00:00 PM -0.01 31.982 0.191 7.29 3.86 14.06
2/7/2021 2:15:00 PM -0.01 31.982 0.19 7.3 3.8 14.07
2/7/2021 2:30:00 PM 0 32 0.19 7.31 3.93 14.1
2/7/2021 2:45:00 PM 0 32 0.19 7.32 3.83 14.12
2/7/2021 3:00:00 PM 0.01 32.018 0.19 7.32 3.97 14.13
2/7/2021 3:15:00 PM 0.02 32.036 0.189 7.33 3.96 14.15
2/7/2021 3:30:00 PM 0.03 32.054 0.189 7.33 3.78 14.15
2/7/2021 3:45:00 PM 0.02 32.036 0.189 7.32 3.7 14.16
2/7/2021 4:00:00 PM 0.02 32.036 0.187 7.31 3.77 14.15
2/7/2021 4:15:00 PM 0 32 0.187 7.32 3.69 14.17
2/7/2021 4:30:00 PM 0 32 0.186 7.32 3.73 14.18
2/7/2021 4:45:00 PM 0 32 0.185 7.34 3.85 14.16
2/7/2021 5:00:00 PM -0.01 31.982 0.184 7.3 3.97 14.16
2/7/2021 5:15:00 PM -0.02 31.964 0.185 7.28 3.72 14.14
2/7/2021 5:30:00 PM -0.04 31.928 0.182 7.29 3.59 14.12
2/7/2021 5:45:00 PM -0.05 31.91 0.181 7.28 3.86 14.09
2/7/2021 6:00:00 PM -0.05 31.91 0.184 7.28 3.66 14.04
2/7/2021 6:15:00 PM -0.06 31.892 0.182 7.27 3.61 14.03
2/7/2021 6:30:00 PM -0.06 31.892 0.181 7.26 3.51 14.02
2/7/2021 6:45:00 PM -0.07 31.874 0.181 7.27 3.66 13.99
2/7/2021 7:00:00 PM -0.06 31.892 0.181 7.27 3.56 13.98
2/7/2021 7:15:00 PM -0.07 31.874 0.18 7.27 3.76 13.97
2/7/2021 7:30:00 PM -0.07 31.874 0.18 7.26 3.5 13.96
2/7/2021 7:45:00 PM -0.06 31.892 0.18 7.27 3.42 13.95
2/7/2021 8:00:00 PM -0.07 31.874 0.18 7.27 3.28 13.95
2/7/2021 8:15:00 PM -0.06 31.892 0.18 7.27 3.32 13.94
2/7/2021 8:30:00 PM -0.06 31.892 0.18 7.27 3.45 13.92
2/7/2021 8:45:00 PM -0.05 31.91 0.181 7.27 3.3 13.91
2/7/2021 9:00:00 PM -0.05 31.91 0.181 7.27 3.33 13.9
2/7/2021 9:15:00 PM -0.05 31.91 0.182 7.27 3.49 13.89
2/7/2021 9:30:00 PM -0.06 31.892 0.182 7.28 3.32 13.9
2/7/2021 9:45:00 PM -0.06 31.892 0.182 7.29 3.27 13.9
2/7/2021 10:00:00 PM -0.05 31.91 0.183 7.29 3.18 13.89
2/7/2021 10:15:00 PM -0.06 31.892 0.183 7.29 3.11 13.89
2/7/2021 10:30:00 PM -0.06 31.892 0.184 7.29 3.27 13.88
2/7/2021 10:45:00 PM -0.05 31.91 0.184 7.29 3.54 13.87
2/7/2021 11:00:00 PM -0.06 31.892 0.185 7.29 3.35 13.87
2/7/2021 11:15:00 PM -0.05 31.91 0.186 7.28 3.41 13.85
2/7/2021 11:30:00 PM -0.05 31.91 0.186 7.28 3.28 13.85
2/7/2021 11:45:00 PM -0.05 31.91 0.186 7.29 3.17 13.85
2/8/2021 12:00:00 AM -0.05 31.91 0.187 7.28 3.32 13.83
2/8/2021 12:15:00 AM -0.04 31.928 0.188 7.28 3.45 13.83
2/8/2021 12:30:00 AM -0.04 31.928 0.188 7.28 3.32 13.82
2/8/2021 12:45:00 AM -0.04 31.928 0.188 7.28 3.33 13.82
2/8/2021 1:00:00 AM -0.04 31.928 0.188 7.27 3.31 13.8
2/8/2021 1:15:00 AM -0.04 31.928 0.189 7.27 3.28 13.8
2/8/2021 1:30:00 AM -0.03 31.946 0.189 7.28 3.34 13.79
2/8/2021 1:45:00 AM -0.04 31.928 0.189 7.27 3.47 13.8
2/8/2021 2:00:00 AM -0.03 31.946 0.19 7.27 3.47 13.78
2/8/2021 2:15:00 AM -0.03 31.946 0.19 7.26 3.28 13.77
2/8/2021 2:30:00 AM -0.02 31.964 0.191 7.26 3.4 13.74
2/8/2021 2:45:00 AM -0.02 31.964 0.191 7.26 3.28 13.76
2/8/2021 3:00:00 AM -0.02 31.964 0.192 7.25 3.43 13.76
2/8/2021 3:15:00 AM -0.02 31.964 0.192 7.25 3.29 13.76
2/8/2021 3:30:00 AM -0.01 31.982 0.193 7.25 3.13 13.74
2/8/2021 3:45:00 AM -0.01 31.982 0.193 7.25 3.13 13.74
2/8/2021 4:00:00 AM -0.01 31.982 0.193 7.25 3.19 13.74
2/8/2021 4:15:00 AM 0 32 0.194 7.24 3.11 13.73
2/8/2021 4:30:00 AM 0 32 0.194 7.23 3.19 13.71
2/8/2021 4:45:00 AM -0.01 31.982 0.194 7.24 3.25 13.73
2/8/2021 5:00:00 AM 0 32 0.194 7.23 3.28 13.71
2/8/2021 5:15:00 AM 0.01 32.018 0.194 7.22 3.55 13.72
2/8/2021 5:30:00 AM 0.01 32.018 0.195 7.23 3.26 13.72
2/8/2021 5:45:00 AM 0.01 32.018 0.195 7.22 3.32 13.7
2/8/2021 6:00:00 AM 0.02 32.036 0.195 7.21 3.26 13.69
2/8/2021 6:15:00 AM 0.01 32.018 0.195 7.22 3.4 13.71
2/8/2021 6:30:00 AM 0.01 32.018 0.194 7.22 3.49 13.71
2/8/2021 6:45:00 AM 0.01 32.018 0.195 7.22 3.49 13.71
2/8/2021 7:00:00 AM 0.01 32.018 0.195 7.21 3.11 13.71
2/8/2021 7:15:00 AM 0.02 32.036 0.195 7.21 3.14 13.7
2/8/2021 7:30:00 AM 0.01 32.018 0.194 7.21 3.22 13.74
2/8/2021 7:45:00 AM 0 32 0.194 7.22 3.1 13.78
2/8/2021 8:00:00 AM 0.01 32.018 0.194 7.22 3.2 13.79
2/8/2021 8:15:00 AM 0.01 32.018 0.194 7.22 3.05 13.82
2/8/2021 8:30:00 AM 0.02 32.036 0.194 7.21 3.13 13.87
2/8/2021 8:45:00 AM 0.01 32.018 0.194 7.23 3.06 13.93
2/8/2021 9:00:00 AM 0.02 32.036 0.194 7.23 2.98 14
2/8/2021 9:15:00 AM 0.02 32.036 0.194 7.24 2.94 14.04
2/8/2021 9:30:00 AM 0.03 32.054 0.194 7.25 2.94 14.06
2/8/2021 9:45:00 AM 0.03 32.054 0.194 7.25 3 14.1
2/8/2021 10:00:00 AM 0.04 32.072 0.194 7.26 2.97 14.12
2/8/2021 10:15:00 AM 0.04 32.072 0.194 7.26 3.1 14.15
2/8/2021 10:30:00 AM 0.05 32.09 0.193 7.28 3.03 14.18
2/8/2021 10:45:00 AM 0.12 32.216 0.194 7.27 3.06 14.16
2/8/2021 11:00:00 AM 0.13 32.234 0.195 7.26 3.12 14.16
2/8/2021 11:15:00 AM 0.17 32.306 0.195 7.26 3.14 14.18
2/8/2021 11:30:00 AM 0.13 32.234 0.194 7.28 3.23 14.2
2/8/2021 11:45:00 AM 0.15 32.27 0.194 7.28 3.21 14.22
2/8/2021 12:00:00 PM 0.11 32.198 0.193 7.29 3.4 14.25
2/8/2021 12:15:00 PM 0.12 32.216 0.193 7.3 3.34 14.26
2/8/2021 12:30:00 PM 0.11 32.198 0.192 7.3 3.46 14.26
2/8/2021 12:45:00 PM 0.11 32.198 0.193 7.31 3.62 14.27
2/8/2021 1:00:00 PM 0.1 32.18 0.193 7.31 3.26 14.28
2/8/2021 1:15:00 PM 0.09 32.162 0.193 7.32 3.61 14.29
2/8/2021 1:30:00 PM 0.07 32.126 0.194 7.31 3.56 14.32
2/8/2021 1:45:00 PM 0.06 32.108 0.194 7.28 3.8 14.34
2/8/2021 2:00:00 PM 0.07 32.126 0.194 7.28 3.6 14.35
2/8/2021 2:15:00 PM 0.07 32.126 0.195 7.28 3.5 14.37
2/8/2021 2:30:00 PM 0.06 32.108 0.195 7.32 3.62 14.38
2/8/2021 2:45:00 PM 0.06 32.108 0.195 7.31 3.84 14.4
2/8/2021 3:00:00 PM 0.06 32.108 0.195 7.33 3.65 14.41
2/8/2021 3:15:00 PM 0.06 32.108 0.196 7.34 3.81 14.42
2/8/2021 3:30:00 PM 0.07 32.126 0.196 7.34 3.79 14.41
2/8/2021 3:45:00 PM 0.05 32.09 0.195 7.35 3.79 14.42
2/8/2021 4:00:00 PM 0.05 32.09 0.195 7.35 4.16 14.41
2/8/2021 4:15:00 PM 0.05 32.09 0.194 7.36 3.67 14.41
2/8/2021 4:30:00 PM 0.03 32.054 0.194 7.36 3.39 14.4
2/8/2021 4:45:00 PM 0.01 32.018 0.192 7.36 3.56 14.4
2/8/2021 5:00:00 PM 0 32 0.192 7.35 3.48 14.38
2/8/2021 5:15:00 PM -0.01 31.982 0.191 7.35 3.49 14.37
2/8/2021 5:30:00 PM -0.03 31.946 0.189 7.36 3.79 14.36
2/8/2021 5:45:00 PM -0.02 31.964 0.19 7.35 3.29 14.31
2/8/2021 6:00:00 PM -0.04 31.928 0.189 7.34 3.49 14.29
2/8/2021 6:15:00 PM -0.04 31.928 0.189 7.34 3.46 14.26
2/8/2021 6:30:00 PM -0.05 31.91 0.189 7.34 3.37 14.24
2/8/2021 6:45:00 PM -0.05 31.91 0.188 7.33 3.23 14.21
2/8/2021 7:00:00 PM -0.05 31.91 0.188 7.32 3.81 14.18
2/8/2021 7:15:00 PM -0.05 31.91 0.188 7.31 3.63 14.16
2/8/2021 7:30:00 PM -0.04 31.928 0.188 7.31 3.39 14.13
2/8/2021 7:45:00 PM -0.04 31.928 0.188 7.3 3.3 14.12
2/8/2021 8:00:00 PM -0.04 31.928 0.188 7.3 3.46 14.1
2/8/2021 8:15:00 PM -0.04 31.928 0.187 7.3 3.25 14.09
2/8/2021 8:30:00 PM -0.04 31.928 0.187 7.29 3.21 14.07
2/8/2021 8:45:00 PM -0.04 31.928 0.187 7.29 3.22 14.05
2/8/2021 9:00:00 PM -0.04 31.928 0.187 7.28 3.34 14.04
2/8/2021 9:15:00 PM -0.04 31.928 0.187 7.29 3.41 14.03
2/8/2021 9:30:00 PM -0.04 31.928 0.187 7.28 3.51 14.01
2/8/2021 9:45:00 PM -0.03 31.946 0.186 7.28 3.17 14
2/8/2021 10:00:00 PM -0.03 31.946 0.186 7.28 3.12 13.98
2/8/2021 10:15:00 PM -0.03 31.946 0.186 7.28 3.14 13.98
2/8/2021 10:30:00 PM -0.04 31.928 0.185 7.28 3.17 13.97
2/8/2021 10:45:00 PM -0.03 31.946 0.186 7.27 3.21 13.96
2/8/2021 11:00:00 PM -0.04 31.928 0.186 7.28 4.17 13.96
2/8/2021 11:15:00 PM -0.04 31.928 0.185 7.28 3.56 13.95
2/8/2021 11:30:00 PM -0.04 31.928 0.185 7.27 3.56 13.95
2/8/2021 11:45:00 PM -0.04 31.928 0.184 7.28 3.57 13.93
2/9/2021 12:00:00 AM -0.04 31.928 0.184 7.27 3.49 13.91
2/9/2021 12:15:00 AM -0.04 31.928 0.184 7.27 3.49 13.91
2/9/2021 12:30:00 AM -0.04 31.928 0.184 7.27 3.37 13.89
2/9/2021 12:45:00 AM -0.04 31.928 0.184 7.27 3.45 13.88
2/9/2021 1:00:00 AM -0.04 31.928 0.185 7.26 3.15 13.87
2/9/2021 1:15:00 AM -0.03 31.946 0.186 7.26 3.21 13.86
2/9/2021 1:30:00 AM -0.03 31.946 0.186 7.26 3.27 13.84
2/9/2021 1:45:00 AM -0.03 31.946 0.186 7.26 3.43 13.81
2/9/2021 2:00:00 AM -0.03 31.946 0.186 7.26 3.57 13.8
2/9/2021 2:15:00 AM -0.03 31.946 0.186 7.25 3.5 13.8
2/9/2021 2:30:00 AM -0.03 31.946 0.186 7.25 3.61 13.79
2/9/2021 2:45:00 AM -0.03 31.946 0.186 7.26 3.64 13.78
2/9/2021 3:00:00 AM -0.03 31.946 0.186 7.25 3.53 13.78
2/9/2021 3:15:00 AM -0.03 31.946 0.187 7.25 3.75 13.76
2/9/2021 3:30:00 AM -0.03 31.946 0.187 7.25 3.6 13.76
2/9/2021 3:45:00 AM -0.03 31.946 0.187 7.25 3.47 13.75
2/9/2021 4:00:00 AM -0.03 31.946 0.187 7.25 3.41 13.74
2/9/2021 4:15:00 AM -0.02 31.964 0.187 7.25 3.83 13.73
2/9/2021 4:30:00 AM -0.03 31.946 0.187 7.25 3.63 13.73
2/9/2021 4:45:00 AM -0.03 31.946 0.187 7.25 3.89 13.72
2/9/2021 5:00:00 AM -0.03 31.946 0.187 7.24 3.58 13.71
2/9/2021 5:15:00 AM -0.02 31.964 0.187 7.25 3.62 13.71
2/9/2021 5:30:00 AM -0.03 31.946 0.187 7.24 3.38 13.71
2/9/2021 5:45:00 AM -0.02 31.964 0.187 7.24 3.35 13.7
2/9/2021 6:00:00 AM -0.02 31.964 0.187 7.24 3.23 13.69
2/9/2021 6:15:00 AM -0.02 31.964 0.187 7.24 3.18 13.68
2/9/2021 6:30:00 AM -0.02 31.964 0.187 7.23 3.02 13.67
2/9/2021 6:45:00 AM -0.02 31.964 0.187 7.23 3.07 13.66
2/9/2021 7:00:00 AM -0.02 31.964 0.187 7.23 3.09 13.65
2/9/2021 7:15:00 AM -0.02 31.964 0.186 7.23 3.08 13.66
2/9/2021 7:30:00 AM -0.02 31.964 0.186 7.23 3.26 13.65
2/9/2021 7:45:00 AM -0.02 31.964 0.186 7.24 3.02 13.66
2/9/2021 8:00:00 AM -0.01 31.982 0.186 7.24 3.04 13.65
2/9/2021 8:15:00 AM -0.02 31.964 0.186 7.23 2.95 13.69
2/9/2021 8:30:00 AM -0.01 31.982 0.186 7.23 2.89 13.69
2/9/2021 8:45:00 AM -0.01 31.982 0.186 7.24 3.03 13.71
2/9/2021 9:00:00 AM -0.01 31.982 0.186 7.23 3.03 13.73
2/9/2021 9:15:00 AM -0.01 31.982 0.186 7.25 3.04 13.76
2/9/2021 9:30:00 AM 0 32 0.186 7.25 2.99 13.76
2/9/2021 9:45:00 AM -0.01 31.982 0.186 7.25 3.04 13.8
2/9/2021 10:00:00 AM 0 32 0.186 7.25 3 13.83
2/9/2021 10:15:00 AM 0 32 0.185 7.26 3.03 13.85
2/9/2021 10:30:00 AM -0.01 31.982 0.186 7.26 2.98 13.86
2/9/2021 10:45:00 AM -0.01 31.982 0.185 7.27 3.04 13.89
2/9/2021 11:00:00 AM 0 32 0.186 7.27 3.02 13.9
2/9/2021 11:15:00 AM 0.01 32.018 0.185 7.28 2.97 13.94
2/9/2021 11:30:00 AM 0.03 32.054 0.186 7.28 2.97 13.96
2/9/2021 11:45:00 AM 0.04 32.072 0.186 7.28 2.91 13.97
2/9/2021 12:00:00 PM 0.06 32.108 0.186 7.29 3.04 13.99
2/9/2021 12:15:00 PM 0.06 32.108 0.186 7.29 3.02 13.99
2/9/2021 12:30:00 PM 0.06 32.108 0.186 7.29 2.95 14.01
2/9/2021 12:45:00 PM 0.07 32.126 0.186 7.3 3.08 14
2/9/2021 1:00:00 PM 0.06 32.108 0.185 7.3 3.14 14.03
2/9/2021 1:15:00 PM 0.07 32.126 0.185 7.31 3.15 14.04
2/9/2021 1:30:00 PM 0.08 32.144 0.186 7.31 3.14 14.06
2/9/2021 1:45:00 PM 0.08 32.144 0.186 7.31 3.07 14.07
2/9/2021 2:00:00 PM 0.08 32.144 0.187 7.31 2.94 14.07
2/9/2021 2:15:00 PM 0.08 32.144 0.188 7.32 3.01 14.08
2/9/2021 2:30:00 PM 0.09 32.162 0.188 7.32 3.17 14.1
2/9/2021 2:45:00 PM 0.09 32.162 0.189 7.32 3.17 14.11
2/9/2021 3:00:00 PM 0.1 32.18 0.189 7.32 2.96 14.1
2/9/2021 3:15:00 PM 0.09 32.162 0.189 7.33 3.03 14.12
2/9/2021 3:30:00 PM 0.08 32.144 0.186 7.34 3.05 14.15
2/9/2021 3:45:00 PM 0.07 32.126 0.186 7.34 3.32 14.16
2/9/2021 4:00:00 PM 0.07 32.126 0.187 7.35 3.62 14.15
2/9/2021 4:15:00 PM 0.07 32.126 0.187 7.34 2.98 14.16
2/9/2021 4:30:00 PM 0.05 32.09 0.187 7.35 3.2 14.16
2/9/2021 4:45:00 PM 0.05 32.09 0.187 7.35 3.3 14.14
2/9/2021 5:00:00 PM 0.04 32.072 0.187 7.35 3.18 14.13
2/9/2021 5:15:00 PM 0.03 32.054 0.186 7.35 3.01 14.11
2/9/2021 5:30:00 PM 0.02 32.036 0.187 7.35 2.93 14.09
2/9/2021 5:45:00 PM 0.01 32.018 0.187 7.34 3.02 14.07
2/9/2021 6:00:00 PM 0.01 32.018 0.187 7.34 3.22 14.04
2/9/2021 6:15:00 PM 0 32 0.186 7.33 3.14 14
2/9/2021 6:30:00 PM 0 32 0.186 7.32 3.75 13.97
2/9/2021 6:45:00 PM -0.01 31.982 0.185 7.31 3.44 13.96
2/9/2021 7:00:00 PM 0 32 0.185 7.32 3.45 13.95
2/9/2021 7:15:00 PM -0.01 31.982 0.185 7.31 3.23 13.93
2/9/2021 7:30:00 PM -0.01 31.982 0.185 7.31 3.37 13.91
2/9/2021 7:45:00 PM 0 32 0.185 7.3 3.5 13.89
2/9/2021 8:00:00 PM -0.01 31.982 0.184 7.31 3.47 13.89
2/9/2021 8:15:00 PM -0.01 31.982 0.184 7.31 3.25 13.87
2/9/2021 8:30:00 PM -0.01 31.982 0.184 7.3 3.35 13.87
2/9/2021 8:45:00 PM 0 32 0.184 7.3 3.23 13.85
2/9/2021 9:00:00 PM -0.01 31.982 0.184 7.3 3.55 13.84
2/9/2021 9:15:00 PM -0.01 31.982 0.183 7.3 3.13 13.84
2/9/2021 9:30:00 PM -0.01 31.982 0.183 7.3 3.33 13.83
2/9/2021 9:45:00 PM -0.01 31.982 0.184 7.3 3.34 13.82
2/9/2021 10:00:00 PM -0.01 31.982 0.183 7.3 3.37 13.82
2/9/2021 10:15:00 PM -0.01 31.982 0.183 7.3 3.51 13.81
2/9/2021 10:30:00 PM -0.01 31.982 0.183 7.29 3.09 13.8
2/9/2021 10:45:00 PM -0.01 31.982 0.183 7.29 3.12 13.79
2/9/2021 11:00:00 PM -0.01 31.982 0.183 7.29 3.26 13.79
2/9/2021 11:15:00 PM 0 32 0.183 7.29 3.32 13.76
2/9/2021 11:30:00 PM -0.01 31.982 0.183 7.28 3.19 13.77
2/9/2021 11:45:00 PM -0.01 31.982 0.183 7.29 2.88 13.76
2/10/2021 12:00:00 AM -0.01 31.982 0.183 7.29 3 13.75
2/10/2021 12:15:00 AM -0.02 31.964 0.183 7.27 4.17 13.74
2/10/2021 12:30:00 AM -0.01 31.982 0.183 7.27 3.31 13.73
2/10/2021 12:45:00 AM -0.02 31.964 0.183 7.28 3.15 13.74
2/10/2021 1:00:00 AM -0.02 31.964 0.183 7.28 3.12 13.74
2/10/2021 1:15:00 AM -0.02 31.964 0.182 7.28 3.1 13.73
2/10/2021 1:30:00 AM -0.02 31.964 0.183 7.28 2.91 13.73
2/10/2021 1:45:00 AM -0.02 31.964 0.183 7.28 3.16 13.72
2/10/2021 2:00:00 AM -0.02 31.964 0.183 7.27 2.95 13.71
2/10/2021 2:15:00 AM -0.02 31.964 0.183 7.28 2.92 13.72
2/10/2021 2:30:00 AM -0.01 31.982 0.183 7.27 3.09 13.71
2/10/2021 2:45:00 AM -0.02 31.964 0.182 7.27 2.97 13.7
2/10/2021 3:00:00 AM -0.01 31.982 0.183 7.27 2.88 13.69
2/10/2021 3:15:00 AM -0.02 31.964 0.183 7.27 2.88 13.71
2/10/2021 3:30:00 AM -0.03 31.946 0.183 7.26 2.94 13.7
2/10/2021 3:45:00 AM -0.03 31.946 0.183 7.27 3.15 13.7
2/10/2021 4:00:00 AM -0.03 31.946 0.183 7.27 3.11 13.71
2/10/2021 4:15:00 AM -0.03 31.946 0.183 7.26 3.08 13.71
2/10/2021 4:30:00 AM -0.03 31.946 0.183 7.27 3.2 13.71
2/10/2021 4:45:00 AM -0.04 31.928 0.183 7.27 3.4 13.71
2/10/2021 5:00:00 AM -0.03 31.946 0.184 7.26 3.29 13.7
2/10/2021 5:15:00 AM -0.04 31.928 0.184 7.26 3.27 13.71
2/10/2021 5:30:00 AM -0.04 31.928 0.184 7.25 3.17 13.71
2/10/2021 5:45:00 AM -0.03 31.946 0.184 7.26 3.06 13.7
2/10/2021 6:00:00 AM -0.04 31.928 0.184 7.26 3.09 13.71
2/10/2021 6:15:00 AM -0.04 31.928 0.185 7.26 3.07 13.72
2/10/2021 6:30:00 AM -0.04 31.928 0.185 7.26 3.12 13.72
2/10/2021 6:45:00 AM -0.04 31.928 0.185 7.26 3.26 13.72
2/10/2021 7:00:00 AM -0.05 31.91 0.185 7.26 3.25 13.72
2/10/2021 7:15:00 AM -0.04 31.928 0.186 7.25 3.27 13.71
2/10/2021 7:30:00 AM -0.05 31.91 0.186 7.26 3.06 13.73
2/10/2021 7:45:00 AM -0.04 31.928 0.186 7.25 2.99 13.74
2/10/2021 8:00:00 AM -0.04 31.928 0.186 7.26 2.94 13.79
2/10/2021 8:15:00 AM -0.03 31.946 0.186 7.27 2.94 13.81
2/10/2021 8:30:00 AM -0.03 31.946 0.186 7.26 2.92 13.86
2/10/2021 8:45:00 AM -0.02 31.964 0.186 7.28 2.88 13.91
2/10/2021 9:00:00 AM -0.01 31.982 0.185 7.28 2.98 13.96
2/10/2021 9:15:00 AM 0 32 0.185 7.29 2.97 13.98
2/10/2021 9:30:00 AM 0.02 32.036 0.185 7.29 3.2 14.01
2/10/2021 9:45:00 AM 0.04 32.072 0.185 7.3 3.39 14.04
2/10/2021 10:00:00 AM 0.07 32.126 0.185 7.3 3.15 14.06
2/10/2021 10:15:00 AM 0.09 32.162 0.185 7.3 3.03 14.1
2/10/2021 10:30:00 AM 0.12 32.216 0.184 7.31 3.18 14.13
2/10/2021 10:45:00 AM 0.14 32.252 0.184 7.32 3.05 14.15
2/10/2021 11:00:00 AM 0.15 32.27 0.184 7.32 3.05 14.17
2/10/2021 11:15:00 AM 0.18 32.324 0.183 7.33 2.99 14.19
2/10/2021 11:30:00 AM 0.2 32.36 0.184 7.33 2.97 14.2
2/10/2021 11:45:00 AM 0.23 32.414 0.184 7.33 3.01 14.23
2/10/2021 12:00:00 PM 0.25 32.45 0.183 7.33 2.93 14.24
2/10/2021 12:15:00 PM 0.26 32.468 0.183 7.34 2.92 14.25
2/10/2021 12:30:00 PM 0.29 32.522 0.184 7.34 2.91 14.25
2/10/2021 12:45:00 PM 0.31 32.558 0.184 7.34 2.98 14.26
2/10/2021 1:00:00 PM 0.31 32.558 0.184 7.35 2.96 14.29
2/10/2021 1:15:00 PM 0.32 32.576 0.184 7.35 2.82 14.29
2/10/2021 1:30:00 PM 0.31 32.558 0.184 7.34 2.85 14.3
2/10/2021 1:45:00 PM 0.3 32.54 0.183 7.34 2.81 14.32
2/10/2021 2:00:00 PM 0.3 32.54 0.183 7.34 2.89 14.33
2/10/2021 2:15:00 PM 0.28 32.504 0.182 7.34 2.88 14.34
2/10/2021 2:30:00 PM 0.27 32.486 0.182 7.33 3.16 14.36
2/10/2021 2:45:00 PM 0.26 32.468 0.181 7.34 2.86 14.36
2/10/2021 3:00:00 PM 0.23 32.414 0.181 7.34 2.92 14.38
2/10/2021 3:15:00 PM 0.22 32.396 0.181 7.35 2.9 14.38
2/10/2021 3:30:00 PM 0.21 32.378 0.18 7.36 2.85 14.39
2/10/2021 3:45:00 PM 0.2 32.36 0.18 7.37 2.94 14.39
2/10/2021 4:00:00 PM 0.17 32.306 0.179 7.37 2.8 14.41
2/10/2021 4:15:00 PM 0.16 32.288 0.179 7.36 2.84 14.41
2/10/2021 4:30:00 PM 0.14 32.252 0.179 7.36 2.98 14.4
2/10/2021 4:45:00 PM 0.12 32.216 0.178 7.34 3 14.39
2/10/2021 5:00:00 PM 0.1 32.18 0.178 7.35 3 14.37
2/10/2021 5:15:00 PM 0.08 32.144 0.178 7.34 2.93 14.34
2/10/2021 5:30:00 PM 0.07 32.126 0.178 7.35 2.85 14.32
2/10/2021 5:45:00 PM 0.05 32.09 0.178 7.34 2.89 14.29
2/10/2021 6:00:00 PM 0.04 32.072 0.179 7.33 2.97 14.24
2/10/2021 6:15:00 PM 0.03 32.054 0.18 7.33 2.87 14.2
2/10/2021 6:30:00 PM 0.02 32.036 0.18 7.33 2.89 14.17
2/10/2021 6:45:00 PM 0.02 32.036 0.181 7.31 2.93 14.13
2/10/2021 7:00:00 PM 0.02 32.036 0.181 7.32 3 14.12
2/10/2021 7:15:00 PM 0.01 32.018 0.182 7.32 3.14 14.09
2/10/2021 7:30:00 PM 0.01 32.018 0.182 7.31 3.21 14.07
2/10/2021 7:45:00 PM 0 32 0.182 7.31 3.28 14.05
2/10/2021 8:00:00 PM 0 32 0.182 7.31 3.13 14.03
2/10/2021 8:15:00 PM 0 32 0.181 7.32 3.18 14.03
2/10/2021 8:30:00 PM 0 32 0.182 7.3 3.25 14.01
2/10/2021 8:45:00 PM 0 32 0.182 7.3 2.95 14
2/10/2021 9:00:00 PM -0.01 31.982 0.181 7.3 3.21 13.99
2/10/2021 9:15:00 PM -0.01 31.982 0.181 7.3 3.31 13.99
2/10/2021 9:30:00 PM -0.01 31.982 0.181 7.3 3.17 13.97
2/10/2021 9:45:00 PM -0.01 31.982 0.181 7.3 3.02 13.96
2/10/2021 10:00:00 PM -0.01 31.982 0.181 7.3 2.99 13.95
2/10/2021 10:15:00 PM -0.01 31.982 0.181 7.3 3.21 13.95
2/10/2021 10:30:00 PM -0.01 31.982 0.181 7.3 3.13 13.94
2/10/2021 10:45:00 PM -0.01 31.982 0.181 7.29 3.16 13.93
2/10/2021 11:00:00 PM -0.01 31.982 0.181 7.29 3.04 13.9
2/10/2021 11:15:00 PM -0.01 31.982 0.181 7.28 3.03 13.9
2/10/2021 11:30:00 PM -0.01 31.982 0.182 7.27 3.26 13.88
2/10/2021 11:45:00 PM -0.02 31.964 0.181 7.28 3.22 13.89
2/11/2021 12:00:00 AM -0.02 31.964 0.181 7.28 3.08 13.88
2/11/2021 12:15:00 AM -0.02 31.964 0.181 7.28 3.19 13.86
2/11/2021 12:30:00 AM -0.02 31.964 0.181 7.28 3.12 13.86
2/11/2021 12:45:00 AM -0.02 31.964 0.182 7.27 3.26 13.85
2/11/2021 1:00:00 AM -0.02 31.964 0.181 7.28 3.2 13.84
2/11/2021 1:15:00 AM -0.03 31.946 0.181 7.27 3.26 13.84
2/11/2021 1:30:00 AM -0.03 31.946 0.182 7.27 3.19 13.83
2/11/2021 1:45:00 AM -0.03 31.946 0.181 7.27 3.13 13.82
2/11/2021 2:00:00 AM -0.02 31.964 0.182 7.27 3.11 13.8
2/11/2021 2:15:00 AM -0.03 31.946 0.182 7.27 3.23 13.8
2/11/2021 2:30:00 AM -0.03 31.946 0.182 7.27 4.73 13.8
2/11/2021 2:45:00 AM -0.02 31.964 0.184 7.26 3.2 13.77
2/11/2021 3:00:00 AM -0.03 31.946 0.182 7.27 3.14 13.79
2/11/2021 3:15:00 AM -0.03 31.946 0.183 7.26 3.18 13.78
2/11/2021 3:30:00 AM -0.03 31.946 0.183 7.26 3.1 13.77
2/11/2021 3:45:00 AM -0.03 31.946 0.183 7.26 3.07 13.76
2/11/2021 4:00:00 AM -0.03 31.946 0.183 7.27 3.06 13.78
2/11/2021 4:15:00 AM -0.03 31.946 0.183 7.26 3.12 13.77
2/11/2021 4:30:00 AM -0.03 31.946 0.184 7.27 3 13.76
2/11/2021 4:45:00 AM -0.03 31.946 0.184 7.27 3.02 13.76
2/11/2021 5:00:00 AM -0.03 31.946 0.184 7.27 3.07 13.77
2/11/2021 5:15:00 AM -0.03 31.946 0.185 7.27 3 13.77
2/11/2021 5:30:00 AM -0.03 31.946 0.185 7.27 3.01 13.76
2/11/2021 5:45:00 AM -0.03 31.946 0.186 7.26 3.09 13.75
2/11/2021 6:00:00 AM -0.03 31.946 0.185 7.26 3.08 13.76
2/11/2021 6:15:00 AM -0.03 31.946 0.185 7.27 3.04 13.76
2/11/2021 6:30:00 AM -0.03 31.946 0.185 7.27 3.13 13.76
2/11/2021 6:45:00 AM -0.03 31.946 0.185 7.27 3.06 13.75
2/11/2021 7:00:00 AM -0.03 31.946 0.185 7.26 3.12 13.76
2/11/2021 7:15:00 AM -0.03 31.946 0.186 7.27 3.06 13.76
2/11/2021 7:30:00 AM -0.03 31.946 0.185 7.27 3 13.75
2/11/2021 7:45:00 AM -0.02 31.964 0.186 7.27 3.06 13.76
2/11/2021 8:00:00 AM -0.03 31.946 0.185 7.27 3.03 13.8
2/11/2021 8:15:00 AM -0.02 31.964 0.185 7.28 3.08 13.81
2/11/2021 8:30:00 AM -0.01 31.982 0.184 7.28 3.09 13.85
2/11/2021 8:45:00 AM -0.01 31.982 0.184 7.29 3.09 13.89
2/11/2021 9:00:00 AM 0 32 0.186 7.28 2.94 13.92
2/11/2021 9:15:00 AM 0.01 32.018 0.186 7.29 2.98 13.95
2/11/2021 9:30:00 AM 0.02 32.036 0.186 7.29 3.05 13.98
2/11/2021 9:45:00 AM 0.03 32.054 0.185 7.3 3.05 14.02
2/11/2021 10:00:00 AM 0.03 32.054 0.185 7.3 3.04 14.03
2/11/2021 10:15:00 AM 0.04 32.072 0.185 7.31 2.98 14.06
2/11/2021 10:30:00 AM 0.05 32.09 0.183 7.31 3.02 14.1
2/11/2021 10:45:00 AM 0.07 32.126 0.184 7.31 3 14.12
2/11/2021 11:00:00 AM 0.09 32.162 0.184 7.31 3.05 14.14
2/11/2021 11:15:00 AM 0.12 32.216 0.184 7.32 3.05 14.17
2/11/2021 11:30:00 AM 0.14 32.252 0.183 7.33 2.96 14.18
2/11/2021 11:45:00 AM 0.18 32.324 0.183 7.34 3.01 14.21
2/11/2021 12:00:00 PM 0.2 32.36 0.182 7.34 3.04 14.23
2/11/2021 12:15:00 PM 0.25 32.45 0.182 7.35 2.95 14.25
2/11/2021 12:30:00 PM 0.26 32.468 0.182 7.36 2.93 14.26
2/11/2021 12:45:00 PM 0.28 32.504 0.183 7.36 2.95 14.26
2/11/2021 1:00:00 PM 0.26 32.468 0.182 7.36 3 14.27
2/11/2021 1:15:00 PM 0.26 32.468 0.182 7.36 2.96 14.29
2/11/2021 1:30:00 PM 0.26 32.468 0.182 7.36 2.94 14.29
2/11/2021 1:45:00 PM 0.24 32.432 0.181 7.37 2.92 14.31
2/11/2021 2:00:00 PM 0.23 32.414 0.182 7.36 2.92 14.31
2/11/2021 2:15:00 PM 0.21 32.378 0.181 7.36 2.94 14.33
2/11/2021 2:30:00 PM 0.22 32.396 0.181 7.36 2.89 14.34
2/11/2021 2:45:00 PM 0.27 32.486 0.181 7.38 2.87 14.36
2/11/2021 3:00:00 PM 0.33 32.594 0.181 7.39 2.89 14.36
2/11/2021 3:15:00 PM 0.34 32.612 0.181 7.4 2.88 14.36
2/11/2021 3:30:00 PM 0.29 32.522 0.18 7.4 2.86 14.36
2/11/2021 3:45:00 PM 0.24 32.432 0.18 7.39 2.86 14.37
2/11/2021 4:00:00 PM 0.22 32.396 0.181 7.37 2.82 14.38
2/11/2021 4:15:00 PM 0.21 32.378 0.181 7.39 2.96 14.39
2/11/2021 4:30:00 PM 0.19 32.342 0.18 7.39 2.76 14.39
2/11/2021 4:45:00 PM 0.17 32.306 0.18 7.38 2.78 14.39
2/11/2021 5:00:00 PM 0.14 32.252 0.181 7.37 2.74 14.38
2/11/2021 5:15:00 PM 0.12 32.216 0.18 7.37 2.8 14.37
2/11/2021 5:30:00 PM 0.09 32.162 0.181 7.38 2.75 14.33
2/11/2021 5:45:00 PM 0.08 32.144 0.181 7.39 2.72 14.29
2/11/2021 6:00:00 PM 0.06 32.108 0.181 7.4 2.72 14.25
2/11/2021 6:15:00 PM 0.04 32.072 0.181 7.39 2.75 14.22
2/11/2021 6:30:00 PM 0.02 32.036 0.181 7.38 2.79 14.19
2/11/2021 6:45:00 PM 0.01 32.018 0.181 7.37 2.83 14.16
2/11/2021 7:00:00 PM 0 32 0.181 7.35 2.83 14.14
2/11/2021 7:15:00 PM -0.01 31.982 0.181 7.35 2.78 14.13
2/11/2021 7:30:00 PM -0.02 31.964 0.181 7.34 2.79 14.11
2/11/2021 7:45:00 PM -0.03 31.946 0.181 7.33 2.8 14.09
2/11/2021 8:00:00 PM -0.04 31.928 0.18 7.31 2.82 14.08
2/11/2021 8:15:00 PM -0.05 31.91 0.181 7.32 2.84 14.07
2/11/2021 8:30:00 PM -0.05 31.91 0.181 7.32 2.76 14.06
2/11/2021 8:45:00 PM -0.06 31.892 0.181 7.31 3.02 14.05
2/11/2021 9:00:00 PM -0.06 31.892 0.181 7.31 2.96 14.05
2/11/2021 9:15:00 PM -0.06 31.892 0.182 7.31 2.91 14.02
2/11/2021 9:30:00 PM -0.06 31.892 0.181 7.32 2.91 14.01
2/11/2021 9:45:00 PM -0.06 31.892 0.182 7.33 2.89 14.01
2/11/2021 10:00:00 PM -0.06 31.892 0.182 7.33 2.82 14.01
2/11/2021 10:15:00 PM -0.06 31.892 0.182 7.33 3.01 13.99
2/11/2021 10:30:00 PM -0.06 31.892 0.183 7.33 2.97 14.01
2/11/2021 10:45:00 PM -0.06 31.892 0.183 7.34 2.83 14
2/11/2021 11:00:00 PM -0.06 31.892 0.184 7.33 3.02 13.99
2/11/2021 11:15:00 PM -0.06 31.892 0.183 7.31 2.87 13.98
2/11/2021 11:30:00 PM -0.06 31.892 0.184 7.32 2.86 13.98
2/11/2021 11:45:00 PM -0.06 31.892 0.184 7.32 3.07 13.97
2/12/2021 12:00:00 AM -0.05 31.91 0.184 7.32 3.27 13.95
2/12/2021 12:15:00 AM -0.05 31.91 0.185 7.3 3.24 13.94
2/12/2021 12:30:00 AM -0.04 31.928 0.185 7.31 3.25 13.93
2/12/2021 12:45:00 AM -0.04 31.928 0.185 7.3 3.17 13.92
2/12/2021 1:00:00 AM -0.04 31.928 0.186 7.3 3.14 13.9
2/12/2021 1:15:00 AM -0.04 31.928 0.186 7.3 2.93 13.91
2/12/2021 1:30:00 AM -0.03 31.946 0.187 7.29 3.21 13.88
2/12/2021 1:45:00 AM -0.04 31.928 0.187 7.29 3.3 13.9
2/12/2021 2:00:00 AM -0.02 31.964 0.188 7.29 3.24 13.88
2/12/2021 2:15:00 AM -0.03 31.946 0.188 7.28 3 13.87
2/12/2021 2:30:00 AM -0.02 31.964 0.189 7.28 3.1 13.86
2/12/2021 2:45:00 AM -0.02 31.964 0.189 7.28 2.95 13.85
2/12/2021 3:00:00 AM -0.02 31.964 0.189 7.27 2.87 13.84
2/12/2021 3:15:00 AM -0.01 31.982 0.191 7.26 2.88 13.82
2/12/2021 3:30:00 AM -0.01 31.982 0.19 7.26 3.15 13.81
2/12/2021 3:45:00 AM 0 32 0.192 7.26 3.13 13.78
2/12/2021 4:00:00 AM -0.01 31.982 0.191 7.24 3.23 13.8
2/12/2021 4:15:00 AM -0.01 31.982 0.192 7.25 3.36 13.79
2/12/2021 4:30:00 AM 0 32 0.193 7.25 3.29 13.77
2/12/2021 4:45:00 AM 0 32 0.194 7.24 3.46 13.76
2/12/2021 5:00:00 AM 0.02 32.036 0.194 7.23 3.61 13.71
2/12/2021 5:15:00 AM 0.02 32.036 0.196 7.23 3.71 13.69
2/12/2021 5:30:00 AM 0.01 32.018 0.196 7.23 3.85 13.73
2/12/2021 5:45:00 AM 0.01 32.018 0.196 7.23 3.52 13.7
2/12/2021 6:00:00 AM 0.01 32.018 0.196 7.22 3.68 13.69
2/12/2021 6:15:00 AM 0.02 32.036 0.198 7.22 3.69 13.68
2/12/2021 6:30:00 AM 0.02 32.036 0.198 7.21 3.71 13.64
2/12/2021 6:45:00 AM 0.02 32.036 0.198 7.22 3.62 13.66
2/12/2021 7:00:00 AM 0.02 32.036 0.199 7.22 3.64 13.65
2/12/2021 7:15:00 AM 0.02 32.036 0.199 7.21 3.29 13.65
2/12/2021 7:30:00 AM 0.01 32.018 0.199 7.23 3.22 13.67
2/12/2021 7:45:00 AM 0.01 32.018 0.2 7.22 3.38 13.66
2/12/2021 8:00:00 AM 0.01 32.018 0.2 7.21 3.51 13.68
2/12/2021 8:15:00 AM 0.02 32.036 0.201 7.23 3.39 13.7
2/12/2021 8:30:00 AM 0.02 32.036 0.2 7.23 3.25 13.75
2/12/2021 8:45:00 AM 0.03 32.054 0.201 7.23 3.34 13.8
2/12/2021 9:00:00 AM 0.03 32.054 0.201 7.25 3.36 13.85
2/12/2021 9:15:00 AM 0.04 32.072 0.201 7.25 3.25 13.92
2/12/2021 9:30:00 AM 0.05 32.09 0.201 7.26 3.26 13.96
2/12/2021 9:45:00 AM 0.04 32.072 0.199 7.27 3.32 14.03
2/12/2021 10:00:00 AM 0.05 32.09 0.199 7.28 3.19 14.08
2/12/2021 10:15:00 AM 0.09 32.162 0.199 7.28 3.81 14.1
2/12/2021 10:30:00 AM 0.08 32.144 0.199 7.3 3.23 14.13
2/12/2021 10:45:00 AM 0.09 32.162 0.198 7.3 3.32 14.15
2/12/2021 11:00:00 AM 0.1 32.18 0.197 7.31 3.34 14.19
2/12/2021 11:15:00 AM 0.1 32.18 0.196 7.33 3.17 14.24
2/12/2021 11:30:00 AM 0.09 32.162 0.195 7.33 3.12 14.28
2/12/2021 11:45:00 AM 0.09 32.162 0.193 7.35 3.35 14.31
2/12/2021 12:00:00 PM 0.08 32.144 0.192 7.35 3.43 14.32
2/12/2021 12:15:00 PM 0.05 32.09 0.189 7.35 3.31 14.35
2/12/2021 12:30:00 PM 0.05 32.09 0.187 7.35 3.72 14.36
2/12/2021 12:45:00 PM 0.04 32.072 0.185 7.35 3.48 14.37
2/12/2021 1:00:00 PM 0.02 32.036 0.184 7.35 3.38 14.39
2/12/2021 1:15:00 PM 0.02 32.036 0.183 7.36 3.33 14.39
2/12/2021 1:30:00 PM 0.02 32.036 0.182 7.35 3.46 14.4
2/12/2021 1:45:00 PM 0.02 32.036 0.181 7.36 3.52 14.41
2/12/2021 2:00:00 PM 0.01 32.018 0.181 7.36 3.61 14.41
2/12/2021 2:15:00 PM 0.01 32.018 0.181 7.36 3.48 14.42
2/12/2021 2:30:00 PM 0.01 32.018 0.181 7.34 3.36 14.44
2/12/2021 2:45:00 PM 0 32 0.182 7.36 3.3 14.45
2/12/2021 3:00:00 PM 0 32 0.183 7.35 3.26 14.46
2/12/2021 3:15:00 PM 0 32 0.184 7.36 3.33 14.46
2/12/2021 3:30:00 PM 0 32 0.185 7.34 3.32 14.47
2/12/2021 3:45:00 PM 0 32 0.186 7.35 3.28 14.46
2/12/2021 4:00:00 PM 0 32 0.186 7.34 3.26 14.46
2/12/2021 4:15:00 PM 0 32 0.186 7.33 3.35 14.47
2/12/2021 4:30:00 PM 0 32 0.186 7.33 3.24 14.46
2/12/2021 4:45:00 PM 0 32 0.186 7.33 3.3 14.47
2/12/2021 5:00:00 PM -0.01 31.982 0.186 7.31 3.35 14.46
2/12/2021 5:15:00 PM -0.01 31.982 0.186 7.32 3.19 14.45
2/12/2021 5:30:00 PM -0.01 31.982 0.186 7.32 3.22 14.43
2/12/2021 5:45:00 PM -0.02 31.964 0.186 7.32 2.94 14.4
2/12/2021 6:00:00 PM -0.02 31.964 0.187 7.32 3.2 14.36
2/12/2021 6:15:00 PM -0.02 31.964 0.188 7.31 3.18 14.32
2/12/2021 6:30:00 PM -0.03 31.946 0.188 7.32 3.16 14.29
2/12/2021 6:45:00 PM -0.03 31.946 0.188 7.31 3.06 14.26
2/12/2021 7:00:00 PM -0.03 31.946 0.189 7.3 3.12 14.23
2/12/2021 7:15:00 PM -0.03 31.946 0.189 7.31 2.94 14.2
2/12/2021 7:30:00 PM -0.04 31.928 0.189 7.3 2.91 14.18
2/12/2021 7:45:00 PM -0.03 31.946 0.189 7.3 2.99 14.15
2/12/2021 8:00:00 PM -0.03 31.946 0.189 7.3 2.99 14.13
2/12/2021 8:15:00 PM -0.03 31.946 0.189 7.29 3.02 14.11
2/12/2021 8:30:00 PM -0.03 31.946 0.189 7.27 3 14.09
2/12/2021 8:45:00 PM -0.03 31.946 0.188 7.28 3.21 14.08
2/12/2021 9:00:00 PM -0.03 31.946 0.188 7.27 3.16 14.06
2/12/2021 9:15:00 PM -0.03 31.946 0.188 7.26 3.09 14.04
2/12/2021 9:30:00 PM -0.04 31.928 0.187 7.27 3.12 14.03
2/12/2021 9:45:00 PM -0.03 31.946 0.187 7.24 3.03 14.02
2/12/2021 10:00:00 PM -0.03 31.946 0.187 7.26 3.16 14
2/12/2021 10:15:00 PM -0.04 31.928 0.186 7.25 2.99 14
2/12/2021 10:30:00 PM -0.03 31.946 0.187 7.26 3.08 13.98
2/12/2021 10:45:00 PM -0.03 31.946 0.186 7.26 3.11 13.97
2/12/2021 11:00:00 PM -0.04 31.928 0.186 7.26 3.05 13.96
2/12/2021 11:15:00 PM -0.03 31.946 0.186 7.24 2.99 13.94
2/12/2021 11:30:00 PM -0.03 31.946 0.186 7.22 3.14 13.93
2/12/2021 11:45:00 PM -0.03 31.946 0.186 7.23 3.06 13.92
2/13/2021 12:00:00 AM -0.04 31.928 0.185 7.24 3.01 13.92
2/13/2021 12:15:00 AM -0.04 31.928 0.186 7.24 3.04 13.9
2/13/2021 12:30:00 AM -0.04 31.928 0.185 7.23 3.03 13.89
2/13/2021 12:45:00 AM -0.05 31.91 0.185 7.22 2.91 13.88
2/13/2021 1:00:00 AM -0.04 31.928 0.186 7.22 3.05 13.85
2/13/2021 1:15:00 AM -0.04 31.928 0.186 7.23 3.5 13.86
2/13/2021 1:30:00 AM -0.04 31.928 0.186 7.23 3.47 13.85
2/13/2021 1:45:00 AM -0.04 31.928 0.186 7.24 3.34 13.84
2/13/2021 2:00:00 AM -0.04 31.928 0.187 7.23 3.41 13.83
2/13/2021 2:15:00 AM -0.03 31.946 0.187 7.24 3.29 13.82
2/13/2021 2:30:00 AM -0.04 31.928 0.187 7.24 3.19 13.82
2/13/2021 2:45:00 AM -0.04 31.928 0.188 7.24 3.23 13.81
2/13/2021 3:00:00 AM -0.04 31.928 0.188 7.23 3.41 13.8
2/13/2021 3:15:00 AM -0.04 31.928 0.188 7.23 3.52 13.8
2/13/2021 3:30:00 AM -0.04 31.928 0.188 7.23 3.48 13.79
2/13/2021 3:45:00 AM -0.04 31.928 0.188 7.22 3.56 13.79
2/13/2021 4:00:00 AM -0.04 31.928 0.189 7.23 3.55 13.78
2/13/2021 4:15:00 AM -0.04 31.928 0.189 7.22 3.45 13.78
2/13/2021 4:30:00 AM -0.04 31.928 0.189 7.23 3.54 13.79
2/13/2021 4:45:00 AM -0.03 31.946 0.189 7.22 3.56 13.76
2/13/2021 5:00:00 AM -0.04 31.928 0.189 7.23 3.33 13.76
2/13/2021 5:15:00 AM -0.04 31.928 0.189 7.23 3.66 13.77
2/13/2021 5:30:00 AM -0.04 31.928 0.189 7.24 3.6 13.76
2/13/2021 5:45:00 AM -0.03 31.946 0.19 7.24 3.39 13.76
2/13/2021 6:00:00 AM -0.04 31.928 0.19 7.24 3.86 13.75
2/13/2021 6:15:00 AM -0.03 31.946 0.19 7.24 3.96 13.75
2/13/2021 6:30:00 AM -0.04 31.928 0.19 7.24 3.86 13.75
2/13/2021 6:45:00 AM -0.04 31.928 0.189 7.24 3.78 13.76
2/13/2021 7:00:00 AM -0.03 31.946 0.189 7.25 3.77 13.74
2/13/2021 7:15:00 AM -0.03 31.946 0.19 7.24 3.52 13.73
2/13/2021 7:30:00 AM -0.03 31.946 0.19 7.23 3.32 13.75
2/13/2021 7:45:00 AM -0.03 31.946 0.19 7.25 3.72 13.77
2/13/2021 8:00:00 AM -0.02 31.964 0.189 7.25 3.61 13.83
2/13/2021 8:15:00 AM 0 32 0.19 7.25 3.5 13.85
2/13/2021 8:30:00 AM 0 32 0.189 7.26 3.82 13.93
2/13/2021 8:45:00 AM 0.01 32.018 0.188 7.27 3.7 13.99
2/13/2021 9:00:00 AM 0.02 32.036 0.188 7.27 3.5 14.03
2/13/2021 9:15:00 AM 0.02 32.036 0.188 7.28 3.74 14.08
2/13/2021 9:30:00 AM 0.04 32.072 0.188 7.28 3.54 14.12
2/13/2021 9:45:00 AM 0.05 32.09 0.187 7.28 3.26 14.16
2/13/2021 10:00:00 AM 0.09 32.162 0.187 7.26 3.35 14.19
2/13/2021 10:15:00 AM 0.11 32.198 0.187 7.28 3.37 14.24
2/13/2021 10:30:00 AM 0.14 32.252 0.186 7.28 3.47 14.27
2/13/2021 10:45:00 AM 0.18 32.324 0.186 7.28 3.43 14.29
2/13/2021 11:00:00 AM 0.21 32.378 0.186 7.28 3.38 14.3
2/13/2021 11:15:00 AM 0.24 32.432 0.185 7.28 3.27 14.32
2/13/2021 11:30:00 AM 0.27 32.486 0.185 7.29 3.23 14.33
2/13/2021 11:45:00 AM 0.28 32.504 0.184 7.29 3.17 14.36
2/13/2021 12:00:00 PM 0.3 32.54 0.184 7.3 3.14 14.36
2/13/2021 12:15:00 PM 0.33 32.594 0.183 7.3 3.07 14.36
2/13/2021 12:30:00 PM 0.36 32.648 0.183 7.3 3.1 14.36
2/13/2021 12:45:00 PM 0.37 32.666 0.183 7.31 3.01 14.38
2/13/2021 1:00:00 PM 0.4 32.72 0.182 7.32 3.03 14.38
2/13/2021 1:15:00 PM 0.4 32.72 0.182 7.34 3.01 14.39
2/13/2021 1:30:00 PM 0.41 32.738 0.182 7.36 2.99 14.39
2/13/2021 1:45:00 PM 0.38 32.684 0.182 7.37 2.98 14.4
2/13/2021 2:00:00 PM 0.36 32.648 0.182 7.33 3.01 14.4
2/13/2021 2:15:00 PM 0.33 32.594 0.183 7.31 3.14 14.42
2/13/2021 2:30:00 PM 0.3 32.54 0.183 7.32 3.04 14.43
2/13/2021 2:45:00 PM 0.29 32.522 0.184 7.32 3.28 14.44
2/13/2021 3:00:00 PM 0.26 32.468 0.184 7.33 3.08 14.46
2/13/2021 3:15:00 PM 0.25 32.45 0.184 7.34 3.11 14.47
2/13/2021 3:30:00 PM 0.23 32.414 0.184 7.34 2.97 14.49
2/13/2021 3:45:00 PM 0.22 32.396 0.184 7.34 3.15 14.48
2/13/2021 4:00:00 PM 0.19 32.342 0.183 7.35 3.76 14.5
2/13/2021 4:15:00 PM 0.18 32.324 0.183 7.35 3.05 14.49
2/13/2021 4:30:00 PM 0.15 32.27 0.182 7.35 3.03 14.48
2/13/2021 4:45:00 PM 0.13 32.234 0.182 7.34 3.19 14.48
2/13/2021 5:00:00 PM 0.11 32.198 0.182 7.34 3.03 14.44
2/13/2021 5:15:00 PM 0.1 32.18 0.182 7.34 2.95 14.42
2/13/2021 5:30:00 PM 0.08 32.144 0.182 7.34 3.05 14.39
2/13/2021 5:45:00 PM 0.07 32.126 0.183 7.34 3.01 14.35
2/13/2021 6:00:00 PM 0.06 32.108 0.183 7.33 2.94 14.3
2/13/2021 6:15:00 PM 0.05 32.09 0.183 7.32 2.98 14.26
2/13/2021 6:30:00 PM 0.04 32.072 0.183 7.32 3.02 14.2
2/13/2021 6:45:00 PM 0.04 32.072 0.184 7.32 3.02 14.17
2/13/2021 7:00:00 PM 0.03 32.054 0.184 7.31 3.08 14.15
2/13/2021 7:15:00 PM 0.03 32.054 0.184 7.29 3.17 14.11
2/13/2021 7:30:00 PM 0.03 32.054 0.184 7.31 3.5 14.06
2/13/2021 7:45:00 PM 0.03 32.054 0.184 7.3 3.13 14.05
2/13/2021 8:00:00 PM 0.03 32.054 0.184 7.29 3.14 14.02
2/13/2021 8:15:00 PM 0.03 32.054 0.184 7.29 3.11 14
2/13/2021 8:30:00 PM 0.02 32.036 0.183 7.29 3.49 14.01
2/13/2021 8:45:00 PM 0.02 32.036 0.184 7.29 3.13 13.98
2/13/2021 9:00:00 PM 0.02 32.036 0.183 7.28 3.36 13.97
2/13/2021 9:15:00 PM 0.02 32.036 0.183 7.28 3.4 13.95
2/13/2021 9:30:00 PM 0.01 32.018 0.183 7.28 3.31 13.94
2/13/2021 9:45:00 PM 0.01 32.018 0.183 7.28 3.24 13.93
2/13/2021 10:00:00 PM 0.01 32.018 0.183 7.28 3.35 13.92
2/13/2021 10:15:00 PM 0.01 32.018 0.182 7.27 3.89 13.91
2/13/2021 10:30:00 PM 0.01 32.018 0.183 7.27 3.35 13.89
2/13/2021 10:45:00 PM 0.01 32.018 0.182 7.28 3.34 13.88
2/13/2021 11:00:00 PM 0.01 32.018 0.183 7.27 3.27 13.86
2/13/2021 11:15:00 PM 0.01 32.018 0.182 7.27 3.4 13.84
2/13/2021 11:30:00 PM 0 32 0.182 7.27 3.15 13.85
2/13/2021 11:45:00 PM 0.01 32.018 0.182 7.26 3.07 13.82
2/14/2021 12:00:00 AM 0 32 0.182 7.27 3.09 13.82
2/14/2021 12:15:00 AM 0 32 0.182 7.26 3.05 13.82
2/14/2021 12:30:00 AM 0 32 0.182 7.26 3.37 13.8
2/14/2021 12:45:00 AM 0.01 32.018 0.183 7.25 3.22 13.78
2/14/2021 1:00:00 AM 0 32 0.182 7.25 3.24 13.78
2/14/2021 1:15:00 AM 0 32 0.182 7.26 3.49 13.77
2/14/2021 1:30:00 AM 0 32 0.182 7.25 3.63 13.77
2/14/2021 1:45:00 AM 0 32 0.182 7.25 3.69 13.76
2/14/2021 2:00:00 AM 0.01 32.018 0.182 7.24 3.49 13.74
2/14/2021 2:15:00 AM 0 32 0.182 7.25 3.49 13.74
2/14/2021 2:30:00 AM 0 32 0.183 7.24 3.5 13.75
2/14/2021 2:45:00 AM 0 32 0.182 7.25 3.61 13.74
2/14/2021 3:00:00 AM 0 32 0.183 7.24 3.41 13.71
2/14/2021 3:15:00 AM 0 32 0.183 7.25 3.31 13.73
2/14/2021 3:30:00 AM 0 32 0.182 7.23 3.24 13.72
2/14/2021 3:45:00 AM 0 32 0.182 7.24 3.37 13.72
2/14/2021 4:00:00 AM 0 32 0.183 7.23 3.47 13.72
2/14/2021 4:15:00 AM 0 32 0.182 7.23 3.64 13.72
2/14/2021 4:30:00 AM 0 32 0.183 7.23 3.51 13.71
2/14/2021 4:45:00 AM 0 32 0.183 7.23 3.32 13.71
2/14/2021 5:00:00 AM 0 32 0.183 7.23 3.4 13.71
2/14/2021 5:15:00 AM 0 32 0.183 7.23 3.4 13.7
2/14/2021 5:30:00 AM 0 32 0.183 7.22 3.33 13.69
2/14/2021 5:45:00 AM 0 32 0.183 7.24 3.32 13.7
2/14/2021 6:00:00 AM 0 32 0.183 7.23 3.42 13.7
2/14/2021 6:15:00 AM -0.01 31.982 0.183 7.23 3.43 13.7
2/14/2021 6:30:00 AM -0.01 31.982 0.183 7.23 3.3 13.71
2/14/2021 6:45:00 AM 0 32 0.183 7.23 3.36 13.71
2/14/2021 7:00:00 AM -0.01 31.982 0.183 7.22 3.24 13.71
2/14/2021 7:15:00 AM 0 32 0.183 7.23 3.26 13.7
2/14/2021 7:30:00 AM 0 32 0.183 7.23 3.25 13.72
2/14/2021 7:45:00 AM 0 32 0.183 7.22 3.25 13.72
2/14/2021 8:00:00 AM 0.01 32.018 0.183 7.23 3.17 13.74
2/14/2021 8:15:00 AM 0.01 32.018 0.183 7.24 3.09 13.79
2/14/2021 8:30:00 AM 0.02 32.036 0.183 7.23 3.08 13.84
2/14/2021 8:45:00 AM 0.03 32.054 0.183 7.25 3.07 13.87
2/14/2021 9:00:00 AM 0.04 32.072 0.183 7.25 3.05 13.93
2/14/2021 9:15:00 AM 0.05 32.09 0.183 7.27 3.07 13.97
2/14/2021 9:30:00 AM 0.06 32.108 0.182 7.27 2.98 14.01
2/14/2021 9:45:00 AM 0.07 32.126 0.182 7.28 2.98 14.04
2/14/2021 10:00:00 AM 0.08 32.144 0.182 7.28 3.13 14.07
2/14/2021 10:15:00 AM 0.09 32.162 0.183 7.28 2.97 14.1
2/14/2021 10:30:00 AM 0.09 32.162 0.182 7.28 2.93 14.13
2/14/2021 10:45:00 AM 0.09 32.162 0.182 7.29 3.07 14.15
2/14/2021 11:00:00 AM 0.09 32.162 0.182 7.28 2.89 14.18
2/14/2021 11:15:00 AM 0.09 32.162 0.181 7.3 2.96 14.21
2/14/2021 11:30:00 AM 0.11 32.198 0.182 7.29 2.86 14.21
2/14/2021 11:45:00 AM 0.11 32.198 0.182 7.29 2.87 14.26
2/14/2021 12:00:00 PM 0.13 32.234 0.181 7.31 2.83 14.29
2/14/2021 12:15:00 PM 0.14 32.252 0.181 7.31 2.93 14.31
2/14/2021 12:30:00 PM 0.15 32.27 0.181 7.32 2.82 14.33
2/14/2021 12:45:00 PM 0.18 32.324 0.181 7.31 2.88 14.34
2/14/2021 1:00:00 PM 0.19 32.342 0.181 7.33 2.89 14.37
2/14/2021 1:15:00 PM 0.2 32.36 0.181 7.34 2.89 14.39
2/14/2021 1:30:00 PM 0.2 32.36 0.181 7.34 2.99 14.4
2/14/2021 1:45:00 PM 0.22 32.396 0.181 7.34 2.91 14.42
2/14/2021 2:00:00 PM 0.22 32.396 0.18 7.35 2.85 14.43
2/14/2021 2:15:00 PM 0.23 32.414 0.181 7.35 2.89 14.44
2/14/2021 2:30:00 PM 0.23 32.414 0.18 7.35 2.99 14.46
2/14/2021 2:45:00 PM 0.24 32.432 0.181 7.36 2.97 14.47
2/14/2021 3:00:00 PM 0.24 32.432 0.18 7.37 3.06 14.49
2/14/2021 3:15:00 PM 0.24 32.432 0.18 7.36 3.1 14.5
2/14/2021 3:30:00 PM 0.23 32.414 0.18 7.37 3.08 14.51
2/14/2021 3:45:00 PM 0.22 32.396 0.18 7.37 3.07 14.52
2/14/2021 4:00:00 PM 0.21 32.378 0.18 7.37 3.1 14.53
2/14/2021 4:15:00 PM 0.2 32.36 0.18 7.37 3.13 14.53
2/14/2021 4:30:00 PM 0.19 32.342 0.181 7.37 3.1 14.54
2/14/2021 4:45:00 PM 0.18 32.324 0.181 7.37 3.33 14.53
2/14/2021 5:00:00 PM 0.15 32.27 0.181 7.37 3.6 14.54
2/14/2021 5:15:00 PM 0.13 32.234 0.181 7.38 3.22 14.53
2/14/2021 5:30:00 PM 0.11 32.198 0.18 7.37 3.06 14.5
2/14/2021 5:45:00 PM 0.09 32.162 0.181 7.37 3.19 14.46
2/14/2021 6:00:00 PM 0.07 32.126 0.181 7.36 3.1 14.42
2/14/2021 6:15:00 PM 0.06 32.108 0.181 7.36 3.07 14.37
2/14/2021 6:30:00 PM 0.04 32.072 0.181 7.34 2.91 14.34
2/14/2021 6:45:00 PM 0.03 32.054 0.181 7.34 2.94 14.31
2/14/2021 7:00:00 PM 0.02 32.036 0.181 7.33 3.04 14.28
2/14/2021 7:15:00 PM 0.02 32.036 0.181 7.33 2.92 14.25
2/14/2021 7:30:00 PM 0.01 32.018 0.181 7.32 2.89 14.22
2/14/2021 7:45:00 PM 0.01 32.018 0.181 7.32 2.89 14.2
2/14/2021 8:00:00 PM 0 32 0.18 7.32 2.9 14.18
2/14/2021 8:15:00 PM 0 32 0.18 7.32 2.97 14.16
2/14/2021 8:30:00 PM 0 32 0.18 7.3 3.6 14.14
2/14/2021 8:45:00 PM 0 32 0.181 7.31 3.2 14.12
2/14/2021 9:00:00 PM -0.01 31.982 0.181 7.3 3.2 14.11
2/14/2021 9:15:00 PM -0.02 31.964 0.18 7.3 3.01 14.11
2/14/2021 9:30:00 PM -0.01 31.982 0.181 7.3 3.21 14.09
2/14/2021 9:45:00 PM -0.02 31.964 0.181 7.29 3.41 14.07
2/14/2021 10:00:00 PM -0.02 31.964 0.181 7.28 3.24 14.07
2/14/2021 10:15:00 PM -0.02 31.964 0.181 7.29 3.29 14.06
2/14/2021 10:30:00 PM -0.02 31.964 0.18 7.28 3.19 14.05
2/14/2021 10:45:00 PM -0.02 31.964 0.181 7.28 3.59 14.04
2/14/2021 11:00:00 PM -0.02 31.964 0.18 7.28 3 14.03
2/14/2021 11:15:00 PM -0.02 31.964 0.181 7.27 2.9 14.01
2/14/2021 11:30:00 PM -0.02 31.964 0.18 7.26 2.96 14.01
2/14/2021 11:45:00 PM -0.02 31.964 0.181 7.27 3 13.99
2/15/2021 12:00:00 AM -0.02 31.964 0.181 7.26 3.01 13.97
2/15/2021 12:15:00 AM -0.02 31.964 0.181 7.26 3 13.97
2/15/2021 12:30:00 AM -0.03 31.946 0.18 7.26 3.06 13.96
2/15/2021 12:45:00 AM -0.03 31.946 0.181 7.26 3.14 13.95
2/15/2021 1:00:00 AM -0.03 31.946 0.181 7.25 3.32 13.94
2/15/2021 1:15:00 AM -0.04 31.928 0.181 7.25 3.28 13.94
2/15/2021 1:30:00 AM -0.05 31.91 0.181 7.26 3.08 13.93
2/15/2021 1:45:00 AM -0.05 31.91 0.181 7.24 3.07 13.93
2/15/2021 2:00:00 AM -0.04 31.928 0.181 7.25 3.04 13.92
2/15/2021 2:15:00 AM -0.04 31.928 0.181 7.24 3.01 13.91
2/15/2021 2:30:00 AM -0.04 31.928 0.181 7.25 3.92 13.9
2/15/2021 2:45:00 AM -0.03 31.946 0.182 7.25 3.24 13.89
2/15/2021 3:00:00 AM -0.03 31.946 0.182 7.24 3.62 13.89
2/15/2021 3:15:00 AM -0.03 31.946 0.182 7.24 3.33 13.89
2/15/2021 3:30:00 AM -0.02 31.964 0.182 7.24 3.4 13.88
2/15/2021 3:45:00 AM -0.02 31.964 0.182 7.24 3.05 13.86
2/15/2021 4:00:00 AM -0.02 31.964 0.182 7.24 3.01 13.87
2/15/2021 4:15:00 AM -0.02 31.964 0.182 7.24 3.08 13.86
2/15/2021 4:30:00 AM -0.02 31.964 0.182 7.24 3.19 13.85
2/15/2021 4:45:00 AM -0.02 31.964 0.182 7.24 3.35 13.85
2/15/2021 5:00:00 AM -0.02 31.964 0.182 7.23 3.4 13.84
2/15/2021 5:15:00 AM -0.02 31.964 0.182 7.24 3.32 13.84
2/15/2021 5:30:00 AM -0.02 31.964 0.182 7.23 3.42 13.83
2/15/2021 5:45:00 AM -0.01 31.982 0.183 7.22 3.33 13.82
2/15/2021 6:00:00 AM -0.01 31.982 0.182 7.23 3.45 13.82
2/15/2021 6:15:00 AM -0.01 31.982 0.183 7.22 3.37 13.82
2/15/2021 6:30:00 AM -0.01 31.982 0.182 7.23 3.25 13.82
2/15/2021 6:45:00 AM -0.01 31.982 0.182 7.23 3.23 13.81
2/15/2021 7:00:00 AM -0.01 31.982 0.183 7.23 3.23 13.81
2/15/2021 7:15:00 AM -0.01 31.982 0.183 7.22 3.29 13.81
2/15/2021 7:30:00 AM -0.01 31.982 0.183 7.23 3.22 13.81
2/15/2021 7:45:00 AM -0.01 31.982 0.183 7.22 3.11 13.83
2/15/2021 8:00:00 AM -0.01 31.982 0.183 7.23 2.98 13.84
2/15/2021 8:15:00 AM 0 32 0.183 7.23 2.96 13.86
2/15/2021 8:30:00 AM 0 32 0.183 7.24 2.94 13.9
2/15/2021 8:45:00 AM 0.01 32.018 0.183 7.24 3.02 13.95
2/15/2021 9:00:00 AM 0.02 32.036 0.183 7.26 2.93 14
2/15/2021 9:15:00 AM 0.03 32.054 0.183 7.26 2.98 14.05
2/15/2021 9:30:00 AM 0.03 32.054 0.182 7.27 2.98 14.1
2/15/2021 9:45:00 AM 0.06 32.108 0.182 7.28 3.01 14.15
2/15/2021 10:00:00 AM 0.08 32.144 0.183 7.29 2.99 14.18
2/15/2021 10:15:00 AM 0.1 32.18 0.182 7.29 2.92 14.22
2/15/2021 10:30:00 AM 0.14 32.252 0.183 7.3 3.01 14.25
2/15/2021 10:45:00 AM 0.16 32.288 0.183 7.31 3.02 14.27
2/15/2021 11:00:00 AM 0.16 32.288 0.183 7.31 3.05 14.29
2/15/2021 11:15:00 AM 0.17 32.306 0.184 7.32 3.07 14.3
2/15/2021 11:30:00 AM 0.17 32.306 0.183 7.32 3.16 14.33
2/15/2021 11:45:00 AM 0.16 32.288 0.183 7.33 3.1 14.34
2/15/2021 12:00:00 PM 0.15 32.27 0.183 7.33 3.1 14.35
2/15/2021 12:15:00 PM 0.13 32.234 0.183 7.33 3.1 14.36
2/15/2021 12:30:00 PM 0.12 32.216 0.182 7.33 3.06 14.37
2/15/2021 12:45:00 PM 0.1 32.18 0.184 7.33 3.06 14.37
2/15/2021 1:00:00 PM 0.09 32.162 0.184 7.33 3.04 14.38
2/15/2021 1:15:00 PM 0.07 32.126 0.183 7.34 3 14.4
2/15/2021 1:30:00 PM 0.09 32.162 0.183 7.35 2.95 14.4
2/15/2021 1:45:00 PM 0.1 32.18 0.182 7.35 2.99 14.41
2/15/2021 2:00:00 PM 0.13 32.234 0.182 7.35 2.91 14.42
2/15/2021 2:15:00 PM 0.15 32.27 0.182 7.36 2.9 14.42
2/15/2021 2:30:00 PM 0.17 32.306 0.184 7.36 2.77 14.43
2/15/2021 2:45:00 PM 0.17 32.306 0.184 7.37 2.8 14.43
2/15/2021 3:00:00 PM 0.17 32.306 0.185 7.37 2.88 14.43
2/15/2021 3:15:00 PM 0.16 32.288 0.183 7.37 2.86 14.44
2/15/2021 3:30:00 PM 0.16 32.288 0.185 7.37 2.83 14.43
2/15/2021 3:45:00 PM 0.15 32.27 0.183 7.37 2.82 14.44
2/15/2021 4:00:00 PM 0.15 32.27 0.183 7.36 2.81 14.44
2/15/2021 4:15:00 PM 0.14 32.252 0.183 7.38 2.77 14.42
2/15/2021 4:30:00 PM 0.12 32.216 0.182 7.37 2.73 14.41
2/15/2021 4:45:00 PM 0.11 32.198 0.182 7.37 2.88 14.38
2/15/2021 5:00:00 PM 0.1 32.18 0.183 7.36 2.81 14.35
2/15/2021 5:15:00 PM 0.08 32.144 0.182 7.36 2.83 14.33
2/15/2021 5:30:00 PM 0.08 32.144 0.182 7.36 2.78 14.31
2/15/2021 5:45:00 PM 0.07 32.126 0.181 7.36 2.76 14.28
2/15/2021 6:00:00 PM 0.06 32.108 0.182 7.35 2.95 14.24
2/15/2021 6:15:00 PM 0.06 32.108 0.183 7.34 3.02 14.2
2/15/2021 6:30:00 PM 0.05 32.09 0.183 7.33 3.02 14.16
2/15/2021 6:45:00 PM 0.05 32.09 0.183 7.33 3.04 14.14
2/15/2021 7:00:00 PM 0.04 32.072 0.183 7.33 2.9 14.12
2/15/2021 7:15:00 PM 0.04 32.072 0.184 7.32 2.87 14.08
2/15/2021 7:30:00 PM 0.04 32.072 0.183 7.31 2.85 14.07
2/15/2021 7:45:00 PM 0.04 32.072 0.182 7.32 2.83 14.06
2/15/2021 8:00:00 PM 0.03 32.054 0.183 7.31 2.87 14.04
2/15/2021 8:15:00 PM 0.04 32.072 0.183 7.31 3.12 14.01
2/15/2021 8:30:00 PM 0.03 32.054 0.183 7.3 3.05 13.99
2/15/2021 8:45:00 PM 0.03 32.054 0.183 7.3 3.12 13.98
2/15/2021 9:00:00 PM 0.03 32.054 0.182 7.3 3 13.96
2/15/2021 9:15:00 PM 0.03 32.054 0.182 7.3 3.07 13.95
2/15/2021 9:30:00 PM 0.02 32.036 0.182 7.3 2.95 13.94
2/15/2021 9:45:00 PM 0.02 32.036 0.183 7.29 3.08 13.91
2/15/2021 10:00:00 PM 0.02 32.036 0.182 7.3 3 13.89
2/15/2021 10:15:00 PM 0.01 32.018 0.183 7.29 2.89 13.87
2/15/2021 10:30:00 PM 0 32 0.184 7.33 2.78 13.86
2/15/2021 10:45:00 PM -0.01 31.982 0.183 7.32 2.87 13.84
2/15/2021 11:00:00 PM -0.02 31.964 0.182 7.31 2.91 13.84
2/15/2021 11:15:00 PM -0.01 31.982 0.183 7.31 3.06 13.81
2/15/2021 11:30:00 PM -0.01 31.982 0.183 7.31 3.28 13.77
2/15/2021 11:45:00 PM -0.01 31.982 0.182 7.34 3.18 13.76
2/16/2021 12:00:00 AM -0.02 31.964 0.183 7.34 3.22 13.75
2/16/2021 12:15:00 AM -0.02 31.964 0.182 7.34 2.83 13.73
2/16/2021 12:30:00 AM -0.02 31.964 0.182 7.34 3.18 13.72
2/16/2021 12:45:00 AM -0.02 31.964 0.182 7.32 3.02 13.71
2/16/2021 1:00:00 AM -0.02 31.964 0.182 7.34 3.07 13.7
2/16/2021 1:15:00 AM -0.02 31.964 0.182 7.33 2.94 13.67
2/16/2021 1:30:00 AM -0.02 31.964 0.181 7.33 3.03 13.67
2/16/2021 1:45:00 AM -0.02 31.964 0.181 7.33 2.9 13.67
2/16/2021 2:00:00 AM -0.02 31.964 0.181 7.33 2.84 13.66
2/16/2021 2:15:00 AM -0.01 31.982 0.181 7.32 2.9 13.64
2/16/2021 2:30:00 AM -0.02 31.964 0.181 7.32 3.12 13.64
2/16/2021 2:45:00 AM -0.02 31.964 0.181 7.3 3.05 13.63
2/16/2021 3:00:00 AM -0.01 31.982 0.181 7.29 3.12 13.63
2/16/2021 3:15:00 AM -0.01 31.982 0.184 7.26 3.01 13.61
2/16/2021 3:30:00 AM -0.01 31.982 0.186 7.25 2.92 13.6
2/16/2021 3:45:00 AM -0.01 31.982 0.187 7.25 2.9 13.61
2/16/2021 4:00:00 AM 0 32 0.188 7.25 2.93 13.58
2/16/2021 4:15:00 AM 0 32 0.189 7.25 2.94 13.57
2/16/2021 4:30:00 AM 0 32 0.189 7.25 2.93 13.57
2/16/2021 4:45:00 AM 0.01 32.018 0.191 7.27 2.88 13.55
2/16/2021 5:00:00 AM 0.01 32.018 0.19 7.29 2.81 13.52
2/16/2021 5:15:00 AM 0 32 0.19 7.3 2.87 13.55
2/16/2021 5:30:00 AM 0.01 32.018 0.19 7.28 2.94 13.53
2/16/2021 5:45:00 AM 0.01 32.018 0.189 7.24 2.87 13.54
2/16/2021 6:00:00 AM 0 32 0.187 7.24 2.88 13.54
2/16/2021 6:15:00 AM 0.01 32.018 0.188 7.22 2.93 13.53
2/16/2021 6:30:00 AM 0.01 32.018 0.188 7.21 2.92 13.52
2/16/2021 6:45:00 AM 0.01 32.018 0.187 7.23 3.04 13.52
2/16/2021 7:00:00 AM 0.01 32.018 0.186 7.22 2.96 13.51
2/16/2021 7:15:00 AM 0.02 32.036 0.186 7.22 2.98 13.5
2/16/2021 7:30:00 AM 0.01 32.018 0.186 7.22 2.99 13.51
2/16/2021 7:45:00 AM 0.02 32.036 0.186 7.22 3.04 13.54
2/16/2021 8:00:00 AM 0.03 32.054 0.186 7.23 2.96 13.59
2/16/2021 8:15:00 AM 0.05 32.09 0.186 7.24 3.01 13.64
2/16/2021 8:30:00 AM 0.06 32.108 0.186 7.25 3.06 13.68
2/16/2021 8:45:00 AM 0.07 32.126 0.185 7.25 3.03 13.72
2/16/2021 9:00:00 AM 0.1 32.18 0.186 7.24 2.94 13.75
2/16/2021 9:15:00 AM 0.13 32.234 0.184 7.26 2.99 13.8
2/16/2021 9:30:00 AM 0.13 32.234 0.184 7.26 3.04 13.84
2/16/2021 9:45:00 AM 0.14 32.252 0.185 7.27 3.11 13.86
2/16/2021 10:00:00 AM 0.14 32.252 0.185 7.27 3.08 13.88
2/16/2021 10:15:00 AM 0.15 32.27 0.185 7.28 3.16 13.91
2/16/2021 10:30:00 AM 0.19 32.342 0.187 7.27 3.19 13.94
2/16/2021 10:45:00 AM 0.22 32.396 0.188 7.29 3.21 13.96
2/16/2021 11:00:00 AM 0.24 32.432 0.191 7.29 3.23 13.98
2/16/2021 11:15:00 AM 0.25 32.45 0.191 7.29 3.32 14
2/16/2021 11:30:00 AM 0.27 32.486 0.193 7.29 3.47 14.01
2/16/2021 11:45:00 AM 0.28 32.504 0.193 7.3 3.4 14.02
2/16/2021 12:00:00 PM 0.28 32.504 0.193 7.3 3.52 14.03
2/16/2021 12:15:00 PM 0.27 32.486 0.193 7.32 3.62 14.04
2/16/2021 12:30:00 PM 0.27 32.486 0.193 7.3 3.59 14.05
2/16/2021 12:45:00 PM 0.27 32.486 0.193 7.31 3.68 14.07
2/16/2021 1:00:00 PM 0.27 32.486 0.192 7.31 3.99 14.08
2/16/2021 1:15:00 PM 0.25 32.45 0.192 7.32 4.02 14.09
2/16/2021 1:30:00 PM 0.24 32.432 0.192 7.32 4.23 14.1
2/16/2021 1:45:00 PM 0.22 32.396 0.192 7.33 4.25 14.1
2/16/2021 2:00:00 PM 0.19 32.342 0.191 7.32 4.59 14.11
2/16/2021 2:15:00 PM 0.13 32.234 0.191 7.32 4.51 14.11
2/16/2021 2:30:00 PM 0.1 32.18 0.19 7.33 4.68 14.11
2/16/2021 2:45:00 PM 0.1 32.18 0.19 7.33 4.57 14.12
2/16/2021 3:00:00 PM 0.09 32.162 0.19 7.32 4.53 14.11
2/16/2021 3:15:00 PM 0.09 32.162 0.19 7.33 4.69 14.1
2/16/2021 3:30:00 PM 0.08 32.144 0.189 7.33 4.8 14.11
2/16/2021 3:45:00 PM 0.07 32.126 0.19 7.32 4.83 14.1
2/16/2021 4:00:00 PM 0.06 32.108 0.19 7.31 6.55 14.09
2/16/2021 4:15:00 PM 0.05 32.09 0.19 7.3 4.88 14.09
2/16/2021 4:30:00 PM 0.03 32.054 0.191 7.31 4.92 14.09
2/16/2021 4:45:00 PM 0.02 32.036 0.191 7.3 4.91 14.08
2/16/2021 5:00:00 PM 0.01 32.018 0.192 7.29 5.55 14.06
2/16/2021 5:15:00 PM -0.01 31.982 0.194 7.29 5.22 14.04
2/16/2021 5:30:00 PM -0.02 31.964 0.196 7.29 5.59 14.02
2/16/2021 5:45:00 PM -0.03 31.946 0.198 7.28 5.83 14
2/16/2021 6:00:00 PM -0.04 31.928 0.201 7.27 5.92 13.98
2/16/2021 6:15:00 PM -0.04 31.928 0.203 7.25 6.08 13.96
2/16/2021 6:30:00 PM -0.05 31.91 0.206 7.25 6.32 13.95
2/16/2021 6:45:00 PM -0.05 31.91 0.21 7.25 6.64 13.93
2/16/2021 7:00:00 PM -0.05 31.91 0.213 7.24 6.92 13.93
2/16/2021 7:15:00 PM -0.06 31.892 0.217 7.24 6.79 13.91
2/16/2021 7:30:00 PM -0.06 31.892 0.221 7.23 7.14 13.9
2/16/2021 7:45:00 PM -0.07 31.874 0.224 7.23 7.42 13.89
2/16/2021 8:00:00 PM -0.07 31.874 0.227 7.23 7.4 13.89
2/16/2021 8:15:00 PM -0.08 31.856 0.23 7.22 7.17 13.88
2/16/2021 8:30:00 PM -0.07 31.874 0.232 7.22 7.41 13.87
2/16/2021 8:45:00 PM -0.07 31.874 0.233 7.22 7.64 13.87
2/16/2021 9:00:00 PM -0.07 31.874 0.235 7.21 7.71 13.86
2/16/2021 9:15:00 PM -0.07 31.874 0.236 7.21 7.58 13.86
2/16/2021 9:30:00 PM -0.07 31.874 0.237 7.2 7.75 13.87
2/16/2021 9:45:00 PM -0.07 31.874 0.238 7.19 7.9 13.87
2/16/2021 10:00:00 PM -0.07 31.874 0.239 7.19 7.85 13.86
2/16/2021 10:15:00 PM -0.07 31.874 0.24 7.19 7.85 13.86
2/16/2021 10:30:00 PM -0.07 31.874 0.24 7.19 7.62 13.86
2/16/2021 10:45:00 PM -0.07 31.874 0.241 7.2 7.6 13.86
2/16/2021 11:00:00 PM -0.08 31.856 0.241 7.2 7.61 13.86
2/16/2021 11:15:00 PM -0.08 31.856 0.241 7.21 7.71 13.86
2/16/2021 11:30:00 PM -0.08 31.856 0.241 7.2 7.26 13.87
2/16/2021 11:45:00 PM -0.07 31.874 0.241 7.24 6.98 13.87
2/17/2021 12:00:00 AM -0.07 31.874 0.241 7.27 6.45 13.88
2/17/2021 12:15:00 AM -0.08 31.856 0.242 7.24 6.81 13.88
2/17/2021 12:30:00 AM -0.08 31.856 0.242 7.25 6.67 13.89
2/17/2021 12:45:00 AM -0.08 31.856 0.243 7.27 6.94 13.89
2/17/2021 1:00:00 AM -0.07 31.874 0.244 7.28 7.28 13.9
2/17/2021 1:15:00 AM -0.07 31.874 0.245 7.28 8.4 13.9
2/17/2021 1:30:00 AM -0.07 31.874 0.246 7.28 7.86 13.9
2/17/2021 1:45:00 AM -0.07 31.874 0.247 7.28 7.34 13.9
2/17/2021 2:00:00 AM -0.08 31.856 0.247 7.28 6.65 13.91
2/17/2021 2:15:00 AM -0.07 31.874 0.247 7.28 7.4 13.92
2/17/2021 2:30:00 AM -0.07 31.874 0.248 7.27 7.99 13.92
2/17/2021 2:45:00 AM -0.07 31.874 0.248 7.27 7.68 13.91
2/17/2021 3:00:00 AM -0.07 31.874 0.249 7.27 7.39 13.93
2/17/2021 3:15:00 AM -0.07 31.874 0.249 7.27 7.05 13.93
2/17/2021 3:30:00 AM -0.07 31.874 0.249 7.25 8.13 13.93
2/17/2021 3:45:00 AM -0.07 31.874 0.249 7.26 6.7 13.93
2/17/2021 4:00:00 AM -0.07 31.874 0.249 7.26 6.97 13.93
2/17/2021 4:15:00 AM -0.07 31.874 0.249 7.26 6.65 13.93
2/17/2021 4:30:00 AM -0.07 31.874 0.249 7.25 7.62 13.93
2/17/2021 4:45:00 AM -0.07 31.874 0.249 7.25 7.09 13.93
2/17/2021 5:00:00 AM -0.07 31.874 0.249 7.24 7.08 13.93
2/17/2021 5:15:00 AM -0.07 31.874 0.25 7.25 8.31 13.93
2/17/2021 5:30:00 AM -0.07 31.874 0.25 7.24 7.4 13.93
2/17/2021 5:45:00 AM -0.07 31.874 0.25 7.24 6.63 13.94
2/17/2021 6:00:00 AM -0.07 31.874 0.25 7.24 6.56 13.94
2/17/2021 6:15:00 AM -0.07 31.874 0.249 7.23 7.14 13.94
2/17/2021 6:30:00 AM -0.07 31.874 0.249 7.23 7.31 13.94
2/17/2021 6:45:00 AM -0.07 31.874 0.249 7.24 7.39 13.95
2/17/2021 7:00:00 AM -0.07 31.874 0.249 7.22 6.57 13.96
2/17/2021 7:15:00 AM -0.07 31.874 0.249 7.23 6.46 13.97
2/17/2021 7:30:00 AM -0.07 31.874 0.249 7.23 6.63 13.99
2/17/2021 7:45:00 AM -0.07 31.874 0.249 7.23 6.01 14.02
2/17/2021 8:00:00 AM -0.07 31.874 0.249 7.23 5.99 14.04
2/17/2021 8:15:00 AM -0.06 31.892 0.249 7.24 6.81 14.08
2/17/2021 8:30:00 AM -0.06 31.892 0.249 7.24 6.63 14.1
2/17/2021 8:45:00 AM -0.06 31.892 0.248 7.24 5.55 14.14
2/17/2021 9:00:00 AM -0.05 31.91 0.248 7.25 6.3 14.17
2/17/2021 9:15:00 AM -0.05 31.91 0.247 7.25 6.22 14.21
2/17/2021 9:30:00 AM -0.05 31.91 0.247 7.25 6.14 14.23
2/17/2021 9:45:00 AM -0.04 31.928 0.247 7.25 5.87 14.25
2/17/2021 10:00:00 AM -0.03 31.946 0.246 7.27 5.3 14.28
2/17/2021 10:15:00 AM -0.03 31.946 0.245 7.26 5.83 14.31
2/17/2021 10:30:00 AM -0.01 31.982 0.244 7.18 5.63 14.32
2/17/2021 10:45:00 AM 0 32 0.244 7.17 5.74 14.34
2/17/2021 11:00:00 AM 0.02 32.036 0.243 7.17 5.54 14.36
2/17/2021 11:15:00 AM 0.04 32.072 0.242 7.17 5.59 14.37
2/17/2021 11:30:00 AM 0.04 32.072 0.241 7.16 5.57 14.39
2/17/2021 11:45:00 AM 0.05 32.09 0.24 7.18 5.9 14.41
2/17/2021 12:00:00 PM 0.04 32.072 0.239 7.17 5.99 14.42
2/17/2021 12:15:00 PM 0.05 32.09 0.237 7.17 6.32 14.43
2/17/2021 12:30:00 PM 0.05 32.09 0.236 7.18 6.56 14.45
2/17/2021 12:45:00 PM 0.08 32.144 0.234 7.18 6.6 14.46
2/17/2021 1:00:00 PM 0.08 32.144 0.232 7.19 7.06 14.48
2/17/2021 1:15:00 PM 0.07 32.126 0.23 7.19 8.07 14.48
2/17/2021 1:30:00 PM 0.06 32.108 0.229 7.19 7.03 14.49
2/17/2021 1:45:00 PM 0.07 32.126 0.229 7.24 6.66 14.5
2/17/2021 2:00:00 PM 0.1 32.18 0.228 7.29 6.24 14.5
2/17/2021 2:15:00 PM 0.12 32.216 0.228 7.28 6.45 14.5
2/17/2021 2:30:00 PM 0.12 32.216 0.228 7.29 6.16 14.49
2/17/2021 2:45:00 PM 0.12 32.216 0.227 7.29 6.34 14.49
2/17/2021 3:00:00 PM 0.12 32.216 0.228 7.29 6.49 14.48
2/17/2021 3:15:00 PM 0.11 32.198 0.228 7.29 6.4 14.48
2/17/2021 3:30:00 PM 0.1 32.18 0.228 7.28 6 14.48
2/17/2021 3:45:00 PM 0.09 32.162 0.228 7.3 6.16 14.49
2/17/2021 4:00:00 PM 0.07 32.126 0.228 7.29 6.16 14.48
2/17/2021 4:15:00 PM 0.03 32.054 0.227 7.3 6.12 14.48
2/17/2021 4:30:00 PM 0.02 32.036 0.226 7.31 6.14 14.47
2/17/2021 4:45:00 PM -0.01 31.982 0.225 7.3 6.04 14.46
2/17/2021 5:00:00 PM -0.02 31.964 0.224 7.3 5.86 14.45
2/17/2021 5:15:00 PM -0.04 31.928 0.223 7.3 5.69 14.44
2/17/2021 5:30:00 PM -0.05 31.91 0.222 7.3 5.71 14.42
2/17/2021 5:45:00 PM -0.06 31.892 0.221 7.27 5.74 14.39
2/17/2021 6:00:00 PM -0.07 31.874 0.219 7.25 5.44 14.36
2/17/2021 6:15:00 PM -0.08 31.856 0.219 7.2 5.27 14.34
2/17/2021 6:30:00 PM -0.08 31.856 0.218 7.2 5.29 14.32
2/17/2021 6:45:00 PM -0.08 31.856 0.217 7.2 5.23 14.3
2/17/2021 7:00:00 PM -0.08 31.856 0.216 7.2 5.07 14.28
2/17/2021 7:15:00 PM -0.08 31.856 0.216 7.19 5.04 14.27
2/17/2021 7:30:00 PM -0.08 31.856 0.215 7.19 5.08 14.25
2/17/2021 7:45:00 PM -0.08 31.856 0.215 7.19 5.13 14.25
2/17/2021 8:00:00 PM -0.08 31.856 0.214 7.19 5.19 14.23
2/17/2021 8:15:00 PM -0.07 31.874 0.213 7.18 5.53 14.22
2/17/2021 8:30:00 PM -0.07 31.874 0.213 7.19 6.87 14.21
2/17/2021 8:45:00 PM -0.07 31.874 0.213 7.19 7.37 14.19
2/17/2021 9:00:00 PM -0.07 31.874 0.213 7.19 6.67 14.18
2/17/2021 9:15:00 PM -0.07 31.874 0.213 7.19 6.59 14.18
2/17/2021 9:30:00 PM -0.07 31.874 0.212 7.18 6.47 14.16
2/17/2021 9:45:00 PM -0.07 31.874 0.212 7.17 6.03 14.16
2/17/2021 10:00:00 PM -0.07 31.874 0.212 7.18 5.9 14.14
2/17/2021 10:15:00 PM -0.07 31.874 0.212 7.17 5.58 14.14
2/17/2021 10:30:00 PM -0.07 31.874 0.212 7.17 5.65 14.13
2/17/2021 10:45:00 PM -0.06 31.892 0.211 7.17 5.12 14.12
2/17/2021 11:00:00 PM -0.07 31.874 0.211 7.16 4.8 14.12
2/17/2021 11:15:00 PM -0.07 31.874 0.21 7.16 4.76 14.11
2/17/2021 11:30:00 PM -0.06 31.892 0.21 7.16 4.77 14.1
2/17/2021 11:45:00 PM -0.06 31.892 0.21 7.16 4.62 14.1
2/18/2021 12:00:00 AM -0.06 31.892 0.21 7.15 4.53 14.09
2/18/2021 12:15:00 AM -0.06 31.892 0.209 7.15 4.44 14.08
2/18/2021 12:30:00 AM -0.06 31.892 0.209 7.15 4.44 14.08
2/18/2021 12:45:00 AM -0.06 31.892 0.208 7.15 4.53 14.07
2/18/2021 1:00:00 AM -0.06 31.892 0.208 7.15 4.6 14.06
2/18/2021 1:15:00 AM -0.06 31.892 0.208 7.14 4.63 14.06
2/18/2021 1:30:00 AM -0.06 31.892 0.207 7.14 4.53 14.05
2/18/2021 1:45:00 AM -0.06 31.892 0.206 7.14 4.64 14.05
2/18/2021 2:00:00 AM -0.06 31.892 0.206 7.14 4.56 14.04
2/18/2021 2:15:00 AM -0.06 31.892 0.205 7.15 4.45 14.04
2/18/2021 2:30:00 AM -0.06 31.892 0.204 7.14 4.46 14.04
2/18/2021 2:45:00 AM -0.06 31.892 0.204 7.14 4.45 14.04
2/18/2021 3:00:00 AM -0.06 31.892 0.203 7.14 4.49 14.04
2/18/2021 3:15:00 AM -0.06 31.892 0.202 7.13 4.56 14.03
2/18/2021 3:30:00 AM -0.06 31.892 0.201 7.13 4.43 14.04
2/18/2021 3:45:00 AM -0.06 31.892 0.2 7.13 4.59 14.03
2/18/2021 4:00:00 AM -0.06 31.892 0.199 7.13 4.5 14.04
2/18/2021 4:15:00 AM -0.06 31.892 0.199 7.13 4.44 14.03
2/18/2021 4:30:00 AM -0.06 31.892 0.198 7.13 4.42 14.03
2/18/2021 4:45:00 AM -0.06 31.892 0.198 7.13 4.41 14.03
2/18/2021 5:00:00 AM -0.06 31.892 0.197 7.12 4.42 14.03
2/18/2021 5:15:00 AM -0.06 31.892 0.197 7.12 4.35 14.02
2/18/2021 5:30:00 AM -0.06 31.892 0.196 7.12 4.49 14.02
2/18/2021 5:45:00 AM -0.06 31.892 0.196 7.12 4.38 14.02
2/18/2021 6:00:00 AM -0.06 31.892 0.196 7.12 4.28 14.01
2/18/2021 6:15:00 AM -0.06 31.892 0.196 7.12 4.4 14.01
2/18/2021 6:30:00 AM -0.06 31.892 0.196 7.12 4.32 14.01
2/18/2021 6:45:00 AM -0.06 31.892 0.196 7.12 4.31 14.01
2/18/2021 7:00:00 AM -0.06 31.892 0.197 7.12 4.18 14.01
2/18/2021 7:15:00 AM -0.06 31.892 0.197 7.12 4.19 14.01
2/18/2021 7:30:00 AM -0.06 31.892 0.197 7.11 4.29 14.02
2/18/2021 7:45:00 AM -0.05 31.91 0.197 7.13 4.23 14.04
2/18/2021 8:00:00 AM -0.05 31.91 0.197 7.13 4.13 14.07
2/18/2021 8:15:00 AM -0.04 31.928 0.197 7.14 4.18 14.11
2/18/2021 8:30:00 AM -0.04 31.928 0.197 7.13 4.09 14.13
2/18/2021 8:45:00 AM -0.03 31.946 0.197 7.15 3.97 14.16
2/18/2021 9:00:00 AM -0.03 31.946 0.197 7.16 4 14.19
2/18/2021 9:15:00 AM -0.03 31.946 0.198 7.16 4.05 14.19
2/18/2021 9:30:00 AM -0.03 31.946 0.197 7.15 4.06 14.21
2/18/2021 9:45:00 AM -0.03 31.946 0.197 7.17 4.17 14.23
2/18/2021 10:00:00 AM -0.03 31.946 0.197 7.17 4.12 14.25
2/18/2021 10:15:00 AM -0.02 31.964 0.196 7.16 4.13 14.27
2/18/2021 10:30:00 AM -0.02 31.964 0.197 7.18 4.2 14.29
2/18/2021 10:45:00 AM -0.02 31.964 0.197 7.18 4.05 14.3
2/18/2021 11:00:00 AM -0.02 31.964 0.197 7.18 4.03 14.31
2/18/2021 11:15:00 AM -0.01 31.982 0.196 7.19 3.92 14.33
2/18/2021 11:30:00 AM -0.01 31.982 0.196 7.18 3.91 14.35
2/18/2021 11:45:00 AM -0.01 31.982 0.195 7.2 3.87 14.37
2/18/2021 12:00:00 PM -0.01 31.982 0.195 7.2 3.88 14.39
2/18/2021 12:15:00 PM 0 32 0.196 7.19 3.89 14.4
2/18/2021 12:30:00 PM 0 32 0.195 7.21 3.79 14.42
2/18/2021 12:45:00 PM 0.01 32.018 0.195 7.21 3.72 14.43
2/18/2021 1:00:00 PM 0.01 32.018 0.195 7.21 3.72 14.45
2/18/2021 1:15:00 PM 0.02 32.036 0.195 7.21 3.86 14.45
2/18/2021 1:30:00 PM 0.03 32.054 0.195 7.23 3.74 14.46
2/18/2021 1:45:00 PM 0.03 32.054 0.195 7.22 3.72 14.47
2/18/2021 2:00:00 PM 0.03 32.054 0.195 7.23 3.71 14.48
2/18/2021 2:15:00 PM 0.04 32.072 0.195 7.23 3.72 14.48
2/18/2021 2:30:00 PM 0.04 32.072 0.195 7.24 3.63 14.49
2/18/2021 2:45:00 PM 0.05 32.09 0.195 7.25 3.68 14.49
2/18/2021 3:00:00 PM 0.05 32.09 0.195 7.24 3.68 14.49
2/18/2021 3:15:00 PM 0.05 32.09 0.195 7.25 3.6 14.49
2/18/2021 3:30:00 PM 0.05 32.09 0.196 7.25 3.56 14.49
2/18/2021 3:45:00 PM 0.04 32.072 0.196 7.25 3.68 14.48
2/18/2021 4:00:00 PM 0.02 32.036 0.197 7.25 3.63 14.47
2/18/2021 4:15:00 PM 0.01 32.018 0.196 7.25 3.63 14.45
2/18/2021 4:30:00 PM 0.01 32.018 0.197 7.24 3.59 14.44
2/18/2021 4:45:00 PM 0.01 32.018 0.197 7.24 3.96 14.43
2/18/2021 5:00:00 PM 0 32 0.196 7.24 3.64 14.4
2/18/2021 5:15:00 PM 0 32 0.196 7.23 3.52 14.37
2/18/2021 5:30:00 PM -0.01 31.982 0.196 7.23 3.55 14.35
2/18/2021 5:45:00 PM -0.01 31.982 0.195 7.23 3.52 14.32
2/18/2021 6:00:00 PM -0.02 31.964 0.194 7.21 3.48 14.3
2/18/2021 6:15:00 PM -0.02 31.964 0.194 7.2 3.57 14.27
2/18/2021 6:30:00 PM -0.02 31.964 0.193 7.21 3.5 14.25
2/18/2021 6:45:00 PM -0.02 31.964 0.193 7.21 3.39 14.22
2/18/2021 7:00:00 PM -0.03 31.946 0.193 7.2 3.46 14.2
2/18/2021 7:15:00 PM -0.03 31.946 0.192 7.2 3.49 14.18
2/18/2021 7:30:00 PM -0.03 31.946 0.192 7.18 3.45 14.16
2/18/2021 7:45:00 PM -0.03 31.946 0.192 7.19 3.48 14.15
2/18/2021 8:00:00 PM -0.03 31.946 0.192 7.19 3.52 14.13
2/18/2021 8:15:00 PM -0.04 31.928 0.192 7.19 3.5 14.12
2/18/2021 8:30:00 PM -0.04 31.928 0.192 7.18 3.46 14.1
2/18/2021 8:45:00 PM -0.04 31.928 0.192 7.19 3.57 14.08
2/18/2021 9:00:00 PM -0.04 31.928 0.192 7.17 3.57 14.07
2/18/2021 9:15:00 PM -0.05 31.91 0.192 7.18 3.44 14.06
2/18/2021 9:30:00 PM -0.04 31.928 0.192 7.18 3.37 14.04
2/18/2021 9:45:00 PM -0.05 31.91 0.192 7.17 3.39 14.03
2/18/2021 10:00:00 PM -0.04 31.928 0.192 7.17 3.35 14.02
2/18/2021 10:15:00 PM -0.04 31.928 0.192 7.17 3.44 14.01
2/18/2021 10:30:00 PM -0.04 31.928 0.192 7.17 3.41 14
2/18/2021 10:45:00 PM -0.04 31.928 0.191 7.17 3.45 13.99
2/18/2021 11:00:00 PM -0.04 31.928 0.191 7.17 3.58 13.98
2/18/2021 11:15:00 PM -0.04 31.928 0.191 7.17 3.45 13.98
2/18/2021 11:30:00 PM -0.04 31.928 0.191 7.16 3.96 13.97
2/18/2021 11:45:00 PM -0.04 31.928 0.191 7.17 3.6 13.96
2/19/2021 12:00:00 AM -0.05 31.91 0.191 7.17 3.57 13.96
2/19/2021 12:15:00 AM -0.05 31.91 0.191 7.16 3.58 13.95
2/19/2021 12:30:00 AM -0.05 31.91 0.191 7.16 3.55 13.95
2/19/2021 12:45:00 AM -0.05 31.91 0.191 7.15 3.59 13.94
2/19/2021 1:00:00 AM -0.05 31.91 0.191 7.15 3.56 13.93
2/19/2021 1:15:00 AM -0.05 31.91 0.191 7.15 3.78 13.92
2/19/2021 1:30:00 AM -0.05 31.91 0.191 7.15 3.57 13.91
2/19/2021 1:45:00 AM -0.05 31.91 0.191 7.16 3.55 13.91
2/19/2021 2:00:00 AM -0.05 31.91 0.192 7.14 3.54 13.9
2/19/2021 2:15:00 AM -0.05 31.91 0.191 7.15 3.51 13.9
2/19/2021 2:30:00 AM -0.05 31.91 0.191 7.15 3.48 13.9
2/19/2021 2:45:00 AM -0.05 31.91 0.191 7.15 3.58 13.9
2/19/2021 3:00:00 AM -0.05 31.91 0.191 7.16 3.52 13.89
2/19/2021 3:15:00 AM -0.05 31.91 0.191 7.15 3.56 13.89
2/19/2021 3:30:00 AM -0.05 31.91 0.191 7.15 3.6 13.88
2/19/2021 3:45:00 AM -0.05 31.91 0.192 7.14 3.74 13.88
2/19/2021 4:00:00 AM -0.05 31.91 0.192 7.15 3.65 13.88
2/19/2021 4:15:00 AM -0.05 31.91 0.191 7.15 3.69 13.88
2/19/2021 4:30:00 AM -0.05 31.91 0.192 7.16 3.51 13.88
2/19/2021 4:45:00 AM -0.05 31.91 0.191 7.15 3.64 13.88
2/19/2021 5:00:00 AM -0.05 31.91 0.192 7.16 3.61 13.88
2/19/2021 5:15:00 AM -0.05 31.91 0.192 7.15 3.64 13.87
2/19/2021 5:30:00 AM -0.05 31.91 0.191 7.16 3.64 13.87
2/19/2021 5:45:00 AM -0.05 31.91 0.192 7.16 3.61 13.86
2/19/2021 6:00:00 AM -0.05 31.91 0.191 7.15 3.68 13.87
2/19/2021 6:15:00 AM -0.05 31.91 0.191 7.17 3.64 13.87
2/19/2021 6:30:00 AM -0.05 31.91 0.191 7.16 3.6 13.86
2/19/2021 6:45:00 AM -0.05 31.91 0.191 7.16 3.66 13.86
2/19/2021 7:00:00 AM -0.05 31.91 0.191 7.16 3.64 13.86
2/19/2021 7:15:00 AM -0.05 31.91 0.191 7.16 3.61 13.86
2/19/2021 7:30:00 AM -0.05 31.91 0.192 7.15 3.54 13.86
2/19/2021 7:45:00 AM -0.05 31.91 0.191 7.16 3.62 13.88
2/19/2021 8:00:00 AM -0.05 31.91 0.191 7.16 3.6 13.9
2/19/2021 8:15:00 AM -0.04 31.928 0.191 7.17 3.64 13.93
2/19/2021 8:30:00 AM -0.04 31.928 0.19 7.18 3.71 13.96
2/19/2021 8:45:00 AM -0.03 31.946 0.19 7.19 3.54 13.99
2/19/2021 9:00:00 AM -0.02 31.964 0.19 7.18 3.61 14.02
2/19/2021 9:15:00 AM -0.02 31.964 0.189 7.19 3.66 14.04
2/19/2021 9:30:00 AM -0.01 31.982 0.189 7.19 3.64 14.06
2/19/2021 9:45:00 AM 0 32 0.189 7.17 3.58 14.08
2/19/2021 10:00:00 AM 0.02 32.036 0.19 7.2 3.6 14.1
2/19/2021 10:15:00 AM 0.02 32.036 0.192 7.2 3.61 14.12
2/19/2021 10:30:00 AM 0.03 32.054 0.194 7.2 3.41 14.14
2/19/2021 10:45:00 AM 0.05 32.09 0.193 7.2 3.35 14.14
2/19/2021 11:00:00 AM 0.08 32.144 0.193 7.21 3.43 14.17
2/19/2021 11:15:00 AM 0.1 32.18 0.193 7.22 3.37 14.19
2/19/2021 11:30:00 AM 0.13 32.234 0.191 7.23 3.36 14.2
2/19/2021 11:45:00 AM 0.17 32.306 0.191 7.22 3.35 14.21
2/19/2021 12:00:00 PM 0.17 32.306 0.192 7.24 3.33 14.22
2/19/2021 12:15:00 PM 0.17 32.306 0.193 7.25 3.39 14.24
2/19/2021 12:30:00 PM 0.17 32.306 0.191 7.25 3.32 14.25
2/19/2021 12:45:00 PM 0.17 32.306 0.191 7.25 3.34 14.26
2/19/2021 1:00:00 PM 0.16 32.288 0.19 7.25 3.31 14.26
2/19/2021 1:15:00 PM 0.15 32.27 0.19 7.26 3.27 14.27
2/19/2021 1:30:00 PM 0.15 32.27 0.189 7.25 3.26 14.27
2/19/2021 1:45:00 PM 0.15 32.27 0.19 7.26 3.19 14.28
2/19/2021 2:00:00 PM 0.15 32.27 0.189 7.26 3.18 14.28
2/19/2021 2:15:00 PM 0.15 32.27 0.189 7.27 3.2 14.29
2/19/2021 2:30:00 PM 0.14 32.252 0.189 7.27 3.14 14.28
2/19/2021 2:45:00 PM 0.13 32.234 0.189 7.27 3.05 14.28
2/19/2021 3:00:00 PM 0.13 32.234 0.188 7.26 3.11 14.28
2/19/2021 3:15:00 PM 0.14 32.252 0.189 7.27 3.06 14.28
2/19/2021 3:30:00 PM 0.14 32.252 0.189 7.27 3.09 14.28
2/19/2021 3:45:00 PM 0.13 32.234 0.188 7.28 3.08 14.28
2/19/2021 4:00:00 PM 0.13 32.234 0.188 7.27 3.09 14.28
2/19/2021 4:15:00 PM 0.12 32.216 0.188 7.27 3.42 14.27
2/19/2021 4:30:00 PM 0.11 32.198 0.188 7.28 3.16 14.26
2/19/2021 4:45:00 PM 0.1 32.18 0.187 7.27 3.23 14.25
2/19/2021 5:00:00 PM 0.09 32.162 0.188 7.25 3.06 14.23
2/19/2021 5:15:00 PM 0.08 32.144 0.187 7.24 3.21 14.22
2/19/2021 5:30:00 PM 0.07 32.126 0.187 7.25 3.15 14.2
2/19/2021 5:45:00 PM 0.06 32.108 0.187 7.24 3.18 14.17
2/19/2021 6:00:00 PM 0.05 32.09 0.187 7.24 3.53 14.13
2/19/2021 6:15:00 PM 0.04 32.072 0.187 7.23 3.1 14.11
2/19/2021 6:30:00 PM 0.04 32.072 0.187 7.23 3.07 14.08
2/19/2021 6:45:00 PM 0.03 32.054 0.187 7.22 3.08 14.06
2/19/2021 7:00:00 PM 0.03 32.054 0.187 7.21 3.03 14.04
2/19/2021 7:15:00 PM 0.02 32.036 0.187 7.22 3.16 14.02
2/19/2021 7:30:00 PM 0.02 32.036 0.187 7.21 3.11 14
2/19/2021 7:45:00 PM 0.02 32.036 0.187 7.21 3.05 13.99
2/19/2021 8:00:00 PM 0.01 32.018 0.187 7.21 2.99 13.98
2/19/2021 8:15:00 PM 0.01 32.018 0.187 7.21 3.09 13.97
2/19/2021 8:30:00 PM 0.01 32.018 0.187 7.2 3.12 13.96
2/19/2021 8:45:00 PM 0 32 0.187 7.2 3.04 13.94
2/19/2021 9:00:00 PM 0 32 0.187 7.2 3.02 13.93
2/19/2021 9:15:00 PM -0.01 31.982 0.188 7.18 3.01 13.93
2/19/2021 9:30:00 PM -0.01 31.982 0.188 7.19 3.01 13.91
2/19/2021 9:45:00 PM -0.01 31.982 0.188 7.19 2.97 13.9
2/19/2021 10:00:00 PM -0.01 31.982 0.189 7.19 2.97 13.89
2/19/2021 10:15:00 PM -0.01 31.982 0.189 7.19 2.97 13.89
2/19/2021 10:30:00 PM -0.02 31.964 0.189 7.19 3.02 13.88
2/19/2021 10:45:00 PM -0.02 31.964 0.189 7.19 2.98 13.88
2/19/2021 11:00:00 PM -0.03 31.946 0.189 7.18 3.09 13.87
2/19/2021 11:15:00 PM -0.05 31.91 0.189 7.18 3.08 13.87
2/19/2021 11:30:00 PM -0.06 31.892 0.189 7.17 3.15 13.87
2/19/2021 11:45:00 PM -0.07 31.874 0.189 7.18 3.1 13.87
2/20/2021 12:00:00 AM -0.06 31.892 0.189 7.17 3.15 13.87
2/20/2021 12:15:00 AM -0.06 31.892 0.189 7.17 3.14 13.86
2/20/2021 12:30:00 AM -0.05 31.91 0.189 7.17 3.13 13.86
2/20/2021 12:45:00 AM -0.06 31.892 0.188 7.18 3.1 13.86
2/20/2021 1:00:00 AM -0.05 31.91 0.188 7.18 3.07 13.86
2/20/2021 1:15:00 AM -0.05 31.91 0.188 7.17 3.04 13.86
2/20/2021 1:30:00 AM -0.05 31.91 0.188 7.17 3.17 13.85
2/20/2021 1:45:00 AM -0.05 31.91 0.188 7.16 3.2 13.85
2/20/2021 2:00:00 AM -0.06 31.892 0.188 7.17 3.16 13.85
2/20/2021 2:15:00 AM -0.07 31.874 0.188 7.17 3.23 13.86
2/20/2021 2:30:00 AM -0.06 31.892 0.188 7.19 3.27 13.85
2/20/2021 2:45:00 AM -0.06 31.892 0.188 7.19 3.28 13.84
2/20/2021 3:00:00 AM -0.06 31.892 0.188 7.19 3.22 13.85
2/20/2021 3:15:00 AM -0.06 31.892 0.188 7.18 3.26 13.85
2/20/2021 3:30:00 AM -0.07 31.874 0.188 7.19 3.36 13.86
2/20/2021 3:45:00 AM -0.07 31.874 0.188 7.19 3.26 13.85
2/20/2021 4:00:00 AM -0.07 31.874 0.189 7.18 3.24 13.84
2/20/2021 4:15:00 AM -0.07 31.874 0.189 7.18 3.32 13.84
2/20/2021 4:30:00 AM -0.07 31.874 0.189 7.18 3.22 13.85
2/20/2021 4:45:00 AM -0.07 31.874 0.189 7.19 3.28 13.86
2/20/2021 5:00:00 AM -0.07 31.874 0.189 7.16 3.21 13.86
2/20/2021 5:15:00 AM -0.07 31.874 0.189 7.17 3.42 13.85
2/20/2021 5:30:00 AM -0.06 31.892 0.189 7.17 3.41 13.85
2/20/2021 5:45:00 AM -0.06 31.892 0.189 7.18 3.39 13.85
2/20/2021 6:00:00 AM -0.06 31.892 0.189 7.19 3.38 13.85
2/20/2021 6:15:00 AM -0.06 31.892 0.19 7.19 3.28 13.85
2/20/2021 6:30:00 AM -0.06 31.892 0.189 7.18 3.3 13.85
2/20/2021 6:45:00 AM -0.07 31.874 0.189 7.17 3.28 13.86
2/20/2021 7:00:00 AM -0.07 31.874 0.189 7.18 3.31 13.86
2/20/2021 7:15:00 AM -0.06 31.892 0.189 7.18 3.33 13.88
2/20/2021 7:30:00 AM -0.06 31.892 0.189 7.18 3.32 13.89
2/20/2021 7:45:00 AM -0.06 31.892 0.189 7.19 3.27 13.92
2/20/2021 8:00:00 AM -0.06 31.892 0.189 7.19 3.2 13.95
2/20/2021 8:15:00 AM -0.05 31.91 0.189 7.2 3.25 13.98
2/20/2021 8:30:00 AM -0.05 31.91 0.189 7.19 3.2 14.02
2/20/2021 8:45:00 AM -0.04 31.928 0.189 7.21 3.17 14.06
2/20/2021 9:00:00 AM -0.03 31.946 0.189 7.21 3.22 14.09
2/20/2021 9:15:00 AM -0.02 31.964 0.189 7.21 3.25 14.11
2/20/2021 9:30:00 AM 0 32 0.188 7.23 3.13 14.15
2/20/2021 9:45:00 AM 0 32 0.188 7.24 3.17 14.17
2/20/2021 10:00:00 AM 0.01 32.018 0.188 7.22 3.18 14.18
2/20/2021 10:15:00 AM 0.03 32.054 0.188 7.23 3.16 14.21
2/20/2021 10:30:00 AM 0.06 32.108 0.188 7.23 3.16 14.22
2/20/2021 10:45:00 AM 0.08 32.144 0.188 7.24 3.18 14.24
2/20/2021 11:00:00 AM 0.11 32.198 0.187 7.25 3.27 14.26
2/20/2021 11:15:00 AM 0.13 32.234 0.187 7.25 3.08 14.26
2/20/2021 11:30:00 AM 0.15 32.27 0.187 7.24 3.11 14.28
2/20/2021 11:45:00 AM 0.18 32.324 0.187 7.28 3.2 14.29
2/20/2021 12:00:00 PM 0.24 32.432 0.187 7.28 3.16 14.31
2/20/2021 12:15:00 PM 0.28 32.504 0.187 7.28 3.04 14.32
2/20/2021 12:30:00 PM 0.32 32.576 0.187 7.27 3.09 14.33
2/20/2021 12:45:00 PM 0.3 32.54 0.187 7.29 3.07 14.33
2/20/2021 1:00:00 PM 0.33 32.594 0.188 7.28 3 14.34
2/20/2021 1:15:00 PM 0.37 32.666 0.188 7.29 3 14.34
2/20/2021 1:30:00 PM 0.34 32.612 0.187 7.31 2.95 14.35
2/20/2021 1:45:00 PM 0.35 32.63 0.187 7.31 2.92 14.35
2/20/2021 2:00:00 PM 0.36 32.648 0.186 7.29 2.94 14.35
2/20/2021 2:15:00 PM 0.3 32.54 0.186 7.3 2.96 14.36
2/20/2021 2:30:00 PM 0.25 32.45 0.186 7.31 2.83 14.35
2/20/2021 2:45:00 PM 0.22 32.396 0.186 7.31 2.83 14.35
2/20/2021 3:00:00 PM 0.23 32.414 0.186 7.31 2.94 14.36
2/20/2021 3:15:00 PM 0.23 32.414 0.186 7.31 2.91 14.35
2/20/2021 3:30:00 PM 0.24 32.432 0.186 7.31 2.94 14.35
2/20/2021 3:45:00 PM 0.23 32.414 0.186 7.32 2.93 14.35
2/20/2021 4:00:00 PM 0.19 32.342 0.187 7.3 2.95 14.34
2/20/2021 4:15:00 PM 0.18 32.324 0.187 7.32 2.89 14.34
2/20/2021 4:30:00 PM 0.18 32.324 0.186 7.31 2.88 14.34
2/20/2021 4:45:00 PM 0.14 32.252 0.186 7.32 2.96 14.33
2/20/2021 5:00:00 PM 0.09 32.162 0.187 7.32 2.98 14.29
2/20/2021 5:15:00 PM 0.03 32.054 0.186 7.3 3.17 14.24
2/20/2021 5:30:00 PM 0.02 32.036 0.186 7.3 3.17 14.23
2/20/2021 5:45:00 PM 0.02 32.036 0.186 7.3 3.01 14.21
2/20/2021 6:00:00 PM 0 32 0.186 7.29 3.09 14.19
2/20/2021 6:15:00 PM -0.01 31.982 0.186 7.28 3.31 14.16
2/20/2021 6:30:00 PM -0.02 31.964 0.186 7.28 2.99 14.14
2/20/2021 6:45:00 PM -0.03 31.946 0.186 7.26 3.01 14.12
2/20/2021 7:00:00 PM -0.04 31.928 0.186 7.28 2.98 14.11
2/20/2021 7:15:00 PM -0.05 31.91 0.188 7.27 3.08 14.1
2/20/2021 7:30:00 PM -0.06 31.892 0.189 7.26 3.04 14.08
2/20/2021 7:45:00 PM -0.06 31.892 0.19 7.25 3.45 14.07
2/20/2021 8:00:00 PM -0.06 31.892 0.189 7.25 2.93 14.06
2/20/2021 8:15:00 PM -0.06 31.892 0.189 7.25 2.99 14.05
2/20/2021 8:30:00 PM -0.06 31.892 0.187 7.24 3.03 14.05
2/20/2021 8:45:00 PM -0.06 31.892 0.186 7.25 3.02 14.04
2/20/2021 9:00:00 PM -0.06 31.892 0.187 7.24 3.05 14.03
2/20/2021 9:15:00 PM -0.06 31.892 0.187 7.24 3.04 14.03
2/20/2021 9:30:00 PM -0.06 31.892 0.186 7.24 7.41 14.02
2/20/2021 9:45:00 PM -0.06 31.892 0.186 7.23 3 14.01
2/20/2021 10:00:00 PM -0.06 31.892 0.186 7.23 3.17 14
2/20/2021 10:15:00 PM -0.06 31.892 0.187 7.23 3.08 14
2/20/2021 10:30:00 PM -0.06 31.892 0.187 7.23 3.47 14
2/20/2021 10:45:00 PM -0.06 31.892 0.187 7.21 3.03 13.98
2/20/2021 11:00:00 PM -0.06 31.892 0.19 7.24 3.1 13.98
2/20/2021 11:15:00 PM -0.06 31.892 0.19 7.21 3.1 13.98
2/20/2021 11:30:00 PM -0.06 31.892 0.189 7.21 3.09 13.97
2/20/2021 11:45:00 PM -0.06 31.892 0.189 7.22 3.16 13.96
2/21/2021 12:00:00 AM -0.06 31.892 0.189 7.22 3.17 13.96
2/21/2021 12:15:00 AM -0.06 31.892 0.189 7.22 3.3 13.96
2/21/2021 12:30:00 AM -0.06 31.892 0.189 7.22 3.27 13.96
2/21/2021 12:45:00 AM -0.05 31.91 0.189 7.22 3.15 13.95
2/21/2021 1:00:00 AM -0.06 31.892 0.19 7.22 3.19 13.95
2/21/2021 1:15:00 AM -0.06 31.892 0.189 7.21 3.11 13.95
2/21/2021 1:30:00 AM -0.06 31.892 0.189 7.21 3.09 13.95
2/21/2021 1:45:00 AM -0.06 31.892 0.189 7.21 3.15 13.94
2/21/2021 2:00:00 AM -0.06 31.892 0.189 7.21 3.11 13.95
2/21/2021 2:15:00 AM -0.06 31.892 0.189 7.2 3.27 13.95
2/21/2021 2:30:00 AM -0.06 31.892 0.189 7.21 3.23 13.95
2/21/2021 2:45:00 AM -0.06 31.892 0.189 7.21 3.24 13.95
2/21/2021 3:00:00 AM -0.06 31.892 0.188 7.2 3.26 13.96
2/21/2021 3:15:00 AM -0.07 31.874 0.188 7.21 3.53 13.96
2/21/2021 3:30:00 AM -0.07 31.874 0.188 7.2 3.68 13.96
2/21/2021 3:45:00 AM -0.07 31.874 0.188 7.21 3.16 13.97
2/21/2021 4:00:00 AM -0.06 31.892 0.188 7.2 3.23 13.97
2/21/2021 4:15:00 AM -0.06 31.892 0.188 7.19 3.51 13.96
2/21/2021 4:30:00 AM -0.06 31.892 0.188 7.2 3.38 13.97
2/21/2021 4:45:00 AM -0.06 31.892 0.188 7.2 3.3 13.97
2/21/2021 5:00:00 AM -0.06 31.892 0.188 7.2 3.24 13.97
2/21/2021 5:15:00 AM -0.06 31.892 0.188 7.19 3.11 13.97
2/21/2021 5:30:00 AM -0.07 31.874 0.189 7.19 3.02 13.96
2/21/2021 5:45:00 AM -0.07 31.874 0.188 7.19 3.07 13.97
2/21/2021 6:00:00 AM -0.07 31.874 0.188 7.19 3.01 13.97
2/21/2021 6:15:00 AM -0.07 31.874 0.188 7.19 2.99 13.97
2/21/2021 6:30:00 AM -0.07 31.874 0.188 7.18 3.03 13.98
2/21/2021 6:45:00 AM -0.06 31.892 0.189 7.18 3.04 13.98
2/21/2021 7:00:00 AM -0.06 31.892 0.189 7.19 3.11 13.99
2/21/2021 7:15:00 AM -0.06 31.892 0.189 7.19 3.1 14
2/21/2021 7:30:00 AM -0.06 31.892 0.189 7.19 3.13 14.01
2/21/2021 7:45:00 AM -0.06 31.892 0.19 7.21 3.17 14.05
2/21/2021 8:00:00 AM -0.06 31.892 0.191 7.2 3.16 14.08
2/21/2021 8:15:00 AM -0.06 31.892 0.19 7.2 3.16 14.13
2/21/2021 8:30:00 AM -0.05 31.91 0.191 7.22 3.12 14.16
2/21/2021 8:45:00 AM -0.05 31.91 0.191 7.22 3.23 14.18
2/21/2021 9:00:00 AM -0.05 31.91 0.19 7.21 3.19 14.22
2/21/2021 9:15:00 AM -0.03 31.946 0.191 7.23 3.23 14.24
2/21/2021 9:30:00 AM -0.02 31.964 0.19 7.24 3.3 14.27
2/21/2021 9:45:00 AM 0 32 0.191 7.23 3.28 14.29
2/21/2021 10:00:00 AM 0.01 32.018 0.191 7.23 3.36 14.32
2/21/2021 10:15:00 AM 0.03 32.054 0.19 7.24 3.47 14.33
2/21/2021 10:30:00 AM 0.06 32.108 0.19 7.24 3.55 14.36
2/21/2021 10:45:00 AM 0.09 32.162 0.189 7.25 3.37 14.37
2/21/2021 11:00:00 AM 0.13 32.234 0.188 7.25 3.31 14.39
2/21/2021 11:15:00 AM 0.14 32.252 0.188 7.26 3.34 14.41
2/21/2021 11:30:00 AM 0.16 32.288 0.188 7.25 3.22 14.42
2/21/2021 11:45:00 AM 0.14 32.252 0.189 7.27 3.15 14.43
2/21/2021 12:00:00 PM 0.18 32.324 0.187 7.27 3.16 14.45
2/21/2021 12:15:00 PM 0.13 32.234 0.187 7.28 3.16 14.47
2/21/2021 12:30:00 PM 0.18 32.324 0.186 7.28 3.02 14.48
2/21/2021 12:45:00 PM 0.25 32.45 0.186 7.28 3.04 14.49
2/21/2021 1:00:00 PM 0.28 32.504 0.186 7.29 3.02 14.5
2/21/2021 1:15:00 PM 0.27 32.486 0.187 7.29 2.99 14.5
2/21/2021 1:30:00 PM 0.27 32.486 0.186 7.3 2.92 14.51
2/21/2021 1:45:00 PM 0.32 32.576 0.185 7.3 2.9 14.51
2/21/2021 2:00:00 PM 0.37 32.666 0.185 7.31 2.89 14.51
2/21/2021 2:15:00 PM 0.43 32.774 0.184 7.3 2.9 14.51
2/21/2021 2:30:00 PM 0.45 32.81 0.183 7.32 2.88 14.51
2/21/2021 2:45:00 PM 0.48 32.864 0.183 7.31 2.87 14.5
2/21/2021 3:00:00 PM 0.5 32.9 0.183 7.33 2.91 14.49
2/21/2021 3:15:00 PM 0.5 32.9 0.182 7.33 2.99 14.49
2/21/2021 3:30:00 PM 0.49 32.882 0.182 7.33 2.98 14.49
2/21/2021 3:45:00 PM 0.48 32.864 0.183 7.32 2.91 14.47
2/21/2021 4:00:00 PM 0.45 32.81 0.183 7.34 2.97 14.46
2/21/2021 4:15:00 PM 0.41 32.738 0.183 7.33 2.98 14.45
2/21/2021 4:30:00 PM 0.36 32.648 0.184 7.33 2.94 14.43
2/21/2021 4:45:00 PM 0.31 32.558 0.184 7.33 2.96 14.42
2/21/2021 5:00:00 PM 0.27 32.486 0.184 7.32 2.96 14.4
2/21/2021 5:15:00 PM 0.23 32.414 0.184 7.32 3.08 14.38
2/21/2021 5:30:00 PM 0.2 32.36 0.185 7.32 3.08 14.36
2/21/2021 5:45:00 PM 0.17 32.306 0.185 7.31 3.04 14.32
2/21/2021 6:00:00 PM 0.13 32.234 0.185 7.31 3.11 14.28
2/21/2021 6:15:00 PM 0.1 32.18 0.185 7.3 3.13 14.25
2/21/2021 6:30:00 PM 0.07 32.126 0.185 7.29 3.11 14.22
2/21/2021 6:45:00 PM 0.04 32.072 0.185 7.29 3.06 14.2
2/21/2021 7:00:00 PM 0.02 32.036 0.185 7.28 3.08 14.18
2/21/2021 7:15:00 PM -0.01 31.982 0.185 7.27 3.15 14.16
2/21/2021 7:30:00 PM -0.03 31.946 0.185 7.27 3.18 14.16
2/21/2021 7:45:00 PM -0.05 31.91 0.184 7.26 3.13 14.14
2/21/2021 8:00:00 PM -0.06 31.892 0.184 7.26 3.09 14.13
2/21/2021 8:15:00 PM -0.08 31.856 0.184 7.26 3.18 14.13
2/21/2021 8:30:00 PM -0.08 31.856 0.184 7.26 3.13 14.11
2/21/2021 8:45:00 PM -0.09 31.838 0.184 7.25 3.1 14.11
2/21/2021 9:00:00 PM -0.09 31.838 0.185 7.25 3.08 14.1
2/21/2021 9:15:00 PM -0.09 31.838 0.185 7.24 3.13 14.09
2/21/2021 9:30:00 PM -0.09 31.838 0.185 7.25 3.1 14.08
2/21/2021 9:45:00 PM -0.09 31.838 0.185 7.25 3.15 14.07
2/21/2021 10:00:00 PM -0.08 31.856 0.185 7.25 3.3 14.05
2/21/2021 10:15:00 PM -0.08 31.856 0.186 7.24 3.27 14.05
2/21/2021 10:30:00 PM -0.08 31.856 0.186 7.24 3.3 14.03
2/21/2021 10:45:00 PM -0.08 31.856 0.186 7.24 3.18 14.01
2/21/2021 11:00:00 PM -0.07 31.874 0.187 7.24 3.13 14.01
2/21/2021 11:15:00 PM -0.07 31.874 0.187 7.22 3.12 14
2/21/2021 11:30:00 PM -0.07 31.874 0.188 7.23 3.08 14
2/21/2021 11:45:00 PM -0.07 31.874 0.189 7.23 3.16 13.98
2/22/2021 12:00:00 AM -0.07 31.874 0.19 7.23 3.1 13.98
2/22/2021 12:15:00 AM -0.07 31.874 0.191 7.23 3.25 13.97
2/22/2021 12:30:00 AM -0.07 31.874 0.192 7.23 3.32 13.97
2/22/2021 12:45:00 AM -0.06 31.892 0.193 7.23 3.35 13.96
2/22/2021 1:00:00 AM -0.06 31.892 0.193 7.23 3.33 13.96
2/22/2021 1:15:00 AM -0.06 31.892 0.194 7.23 3.33 13.94
2/22/2021 1:30:00 AM -0.06 31.892 0.194 7.23 3.35 13.93
2/22/2021 1:45:00 AM -0.06 31.892 0.195 7.22 3.16 13.93
2/22/2021 2:00:00 AM -0.06 31.892 0.195 7.23 3.15 13.93
2/22/2021 2:15:00 AM -0.06 31.892 0.195 7.23 3.18 13.92
2/22/2021 2:30:00 AM -0.06 31.892 0.196 7.22 3.35 13.92
2/22/2021 2:45:00 AM -0.05 31.91 0.196 7.22 3.28 13.91
2/22/2021 3:00:00 AM -0.05 31.91 0.196 7.23 3.2 13.9
2/22/2021 3:15:00 AM -0.05 31.91 0.196 7.21 3.23 13.91
2/22/2021 3:30:00 AM -0.05 31.91 0.196 7.23 3.12 13.9
2/22/2021 3:45:00 AM -0.05 31.91 0.195 7.22 3.16 13.9
2/22/2021 4:00:00 AM -0.05 31.91 0.195 7.22 3.05 13.9
2/22/2021 4:15:00 AM -0.05 31.91 0.194 7.22 3.1 13.89
2/22/2021 4:30:00 AM -0.05 31.91 0.195 7.21 3.31 13.88
2/22/2021 4:45:00 AM -0.05 31.91 0.194 7.21 3.35 13.88
2/22/2021 5:00:00 AM -0.05 31.91 0.194 7.21 3.24 13.88
2/22/2021 5:15:00 AM -0.05 31.91 0.193 7.2 3.29 13.88
2/22/2021 5:30:00 AM -0.05 31.91 0.193 7.22 3.3 13.87
2/22/2021 5:45:00 AM -0.05 31.91 0.192 7.21 3.4 13.86
2/22/2021 6:00:00 AM -0.05 31.91 0.191 7.2 3.4 13.86
2/22/2021 6:15:00 AM -0.05 31.91 0.191 7.2 3.29 13.85
2/22/2021 6:30:00 AM -0.04 31.928 0.19 7.21 3.23 13.85
2/22/2021 6:45:00 AM -0.04 31.928 0.19 7.2 3.17 13.84
2/22/2021 7:00:00 AM -0.04 31.928 0.188 7.19 3.24 13.84
2/22/2021 7:15:00 AM -0.04 31.928 0.188 7.19 3.2 13.84
2/22/2021 7:30:00 AM -0.03 31.946 0.187 7.19 3.21 13.84
2/22/2021 7:45:00 AM -0.04 31.928 0.186 7.19 3.23 13.86
2/22/2021 8:00:00 AM -0.04 31.928 0.186 7.18 3.14 13.86
2/22/2021 8:15:00 AM -0.05 31.91 0.185 7.2 3.18 13.89
2/22/2021 8:30:00 AM -0.05 31.91 0.185 7.2 3.12 13.91
2/22/2021 8:45:00 AM -0.05 31.91 0.185 7.2 3.14 13.93
2/22/2021 9:00:00 AM -0.04 31.928 0.185 7.21 3.1 13.95
2/22/2021 9:15:00 AM -0.04 31.928 0.185 7.21 3.12 13.98
2/22/2021 9:30:00 AM -0.04 31.928 0.185 7.21 3.1 14
2/22/2021 9:45:00 AM -0.04 31.928 0.185 7.21 3.06 14.02
2/22/2021 10:00:00 AM -0.04 31.928 0.186 7.24 3.14 14.04
2/22/2021 10:15:00 AM -0.05 31.91 0.186 7.23 3.1 14.06
2/22/2021 10:30:00 AM -0.05 31.91 0.186 7.23 3.18 14.08
2/22/2021 10:45:00 AM -0.05 31.91 0.187 7.23 3.17 14.09
2/22/2021 11:00:00 AM -0.05 31.91 0.187 7.24 3.16 14.1
2/22/2021 11:15:00 AM -0.05 31.91 0.188 7.24 3.11 14.11
2/22/2021 11:30:00 AM -0.05 31.91 0.187 7.24 3.08 14.13
2/22/2021 11:45:00 AM -0.05 31.91 0.188 7.24 3.07 14.14
2/22/2021 12:00:00 PM -0.05 31.91 0.187 7.26 3.24 14.16
2/22/2021 12:15:00 PM -0.05 31.91 0.187 7.25 3.18 14.18
2/22/2021 12:30:00 PM -0.05 31.91 0.187 7.26 3.01 14.2
2/22/2021 12:45:00 PM -0.04 31.928 0.188 7.26 3.09 14.21
2/22/2021 1:00:00 PM -0.04 31.928 0.188 7.28 3 14.23
2/22/2021 1:15:00 PM -0.03 31.946 0.188 7.29 2.97 14.23
2/22/2021 1:30:00 PM -0.03 31.946 0.188 7.28 2.94 14.25
2/22/2021 1:45:00 PM -0.03 31.946 0.189 7.28 2.9 14.25
2/22/2021 2:00:00 PM -0.02 31.964 0.189 7.28 2.9 14.25
2/22/2021 2:15:00 PM -0.02 31.964 0.189 7.29 2.94 14.26
2/22/2021 2:30:00 PM -0.02 31.964 0.189 7.29 2.92 14.27
2/22/2021 2:45:00 PM -0.02 31.964 0.188 7.29 2.92 14.27
2/22/2021 3:00:00 PM -0.02 31.964 0.189 7.31 3.1 14.27
2/22/2021 3:15:00 PM -0.01 31.982 0.188 7.3 2.92 14.28
2/22/2021 3:30:00 PM -0.01 31.982 0.188 7.3 2.98 14.27
2/22/2021 3:45:00 PM 0 32 0.188 7.29 2.97 14.28
2/22/2021 4:00:00 PM -0.01 31.982 0.192 7.31 3 14.28
2/22/2021 4:15:00 PM -0.01 31.982 0.192 7.31 3.05 14.26
2/22/2021 4:30:00 PM -0.01 31.982 0.19 7.31 3.1 14.26
2/22/2021 4:45:00 PM -0.01 31.982 0.189 7.31 3.13 14.25
2/22/2021 5:00:00 PM -0.01 31.982 0.189 7.31 3.26 14.23
2/22/2021 5:15:00 PM -0.01 31.982 0.189 7.3 3.39 14.18
2/22/2021 5:30:00 PM -0.01 31.982 0.189 7.31 3.31 14.14
2/22/2021 5:45:00 PM -0.01 31.982 0.189 7.3 3.27 14.11
2/22/2021 6:00:00 PM -0.01 31.982 0.19 7.29 3.33 14.07
2/22/2021 6:15:00 PM -0.01 31.982 0.189 7.28 3.23 14.04
2/22/2021 6:30:00 PM -0.01 31.982 0.189 7.28 3.24 14.01
2/22/2021 6:45:00 PM -0.02 31.964 0.189 7.27 3.11 13.98
2/22/2021 7:00:00 PM -0.02 31.964 0.188 7.28 3.26 13.95
2/22/2021 7:15:00 PM -0.01 31.982 0.188 7.26 3.19 13.93
2/22/2021 7:30:00 PM -0.01 31.982 0.188 7.26 3.07 13.91
2/22/2021 7:45:00 PM -0.01 31.982 0.188 7.25 3.15 13.9
2/22/2021 8:00:00 PM -0.01 31.982 0.188 7.25 3.18 13.88
2/22/2021 8:15:00 PM -0.01 31.982 0.187 7.25 3.17 13.87
2/22/2021 8:30:00 PM -0.01 31.982 0.188 7.25 3.22 13.85
2/22/2021 8:45:00 PM -0.01 31.982 0.187 7.24 3.3 13.84
2/22/2021 9:00:00 PM -0.01 31.982 0.188 7.24 3.21 13.83
2/22/2021 9:15:00 PM -0.01 31.982 0.188 7.24 3.16 13.81
2/22/2021 9:30:00 PM 0 32 0.188 7.23 3.16 13.79
2/22/2021 9:45:00 PM 0 32 0.189 7.24 3.17 13.78
2/22/2021 10:00:00 PM 0 32 0.188 7.23 3.05 13.77
2/22/2021 10:15:00 PM 0 32 0.188 7.23 3.09 13.76
2/22/2021 10:30:00 PM 0 32 0.188 7.23 3.09 13.75
2/22/2021 10:45:00 PM 0 32 0.189 7.23 3.06 13.74
2/22/2021 11:00:00 PM 0.01 32.018 0.189 7.21 5.39 13.73
2/22/2021 11:15:00 PM 0.01 32.018 0.189 7.22 3.03 13.72
2/22/2021 11:30:00 PM 0.01 32.018 0.189 7.22 3.05 13.72
2/22/2021 11:45:00 PM 0.01 32.018 0.188 7.21 3.02 13.71
2/23/2021 12:00:00 AM 0.01 32.018 0.189 7.22 3.16 13.71
2/23/2021 12:15:00 AM 0.01 32.018 0.189 7.21 3.07 13.7
2/23/2021 12:30:00 AM 0.01 32.018 0.189 7.2 3.15 13.7
2/23/2021 12:45:00 AM 0.01 32.018 0.189 7.22 3.05 13.69
2/23/2021 1:00:00 AM 0.01 32.018 0.189 7.22 3.1 13.68
2/23/2021 1:15:00 AM 0.01 32.018 0.188 7.21 3.08 13.68
2/23/2021 1:30:00 AM 0.01 32.018 0.188 7.22 3.08 13.67
2/23/2021 1:45:00 AM 0.01 32.018 0.188 7.22 3.17 13.67
2/23/2021 2:00:00 AM 0.01 32.018 0.188 7.19 3.1 13.67
2/23/2021 2:15:00 AM 0.01 32.018 0.188 7.21 3.07 13.67
2/23/2021 2:30:00 AM 0 32 0.188 7.21 3.1 13.67
2/23/2021 2:45:00 AM 0 32 0.188 7.21 3.03 13.66
2/23/2021 3:00:00 AM -0.02 31.964 0.188 7.21 3.07 13.66
2/23/2021 3:15:00 AM -0.03 31.946 0.188 7.21 3.02 13.66
2/23/2021 3:30:00 AM -0.03 31.946 0.188 7.21 3.01 13.67
2/23/2021 3:45:00 AM -0.04 31.928 0.188 7.19 3.02 13.66
2/23/2021 4:00:00 AM -0.05 31.91 0.188 7.21 3.04 13.67
2/23/2021 4:15:00 AM -0.06 31.892 0.188 7.21 2.95 13.67
2/23/2021 4:30:00 AM -0.06 31.892 0.188 7.2 2.98 13.67
2/23/2021 4:45:00 AM -0.06 31.892 0.188 7.21 3.03 13.67
2/23/2021 5:00:00 AM -0.07 31.874 0.188 7.21 3.13 13.68
2/23/2021 5:15:00 AM -0.08 31.856 0.188 7.2 3.21 13.67
2/23/2021 5:30:00 AM -0.09 31.838 0.188 7.2 3.24 13.67
2/23/2021 5:45:00 AM -0.09 31.838 0.189 7.19 3.15 13.68
2/23/2021 6:00:00 AM -0.08 31.856 0.188 7.22 3.05 13.68
2/23/2021 6:15:00 AM -0.08 31.856 0.189 7.22 3.02 13.68
2/23/2021 6:30:00 AM -0.08 31.856 0.188 7.22 3.08 13.68
2/23/2021 6:45:00 AM -0.08 31.856 0.189 7.23 3.15 13.68
2/23/2021 7:00:00 AM -0.07 31.874 0.189 7.23 3.06 13.68
2/23/2021 7:15:00 AM -0.07 31.874 0.189 7.23 3.06 13.69
2/23/2021 7:30:00 AM -0.06 31.892 0.188 7.21 3.09 13.72
2/23/2021 7:45:00 AM -0.05 31.91 0.189 7.24 3 13.75
2/23/2021 8:00:00 AM -0.04 31.928 0.188 7.25 3.02 13.81
2/23/2021 8:15:00 AM -0.03 31.946 0.188 7.22 3.05 13.84
2/23/2021 8:30:00 AM -0.02 31.964 0.188 7.23 3.04 13.87
2/23/2021 8:45:00 AM -0.01 31.982 0.188 7.25 3.04 13.88
2/23/2021 9:00:00 AM -0.01 31.982 0.188 7.24 3.13 13.9
2/23/2021 9:15:00 AM -0.01 31.982 0.188 7.24 3.08 13.94
2/23/2021 9:30:00 AM -0.01 31.982 0.187 7.24 3.11 13.96
2/23/2021 9:45:00 AM -0.01 31.982 0.187 7.24 3.09 13.97
2/23/2021 10:00:00 AM -0.01 31.982 0.186 7.25 3 13.99
2/23/2021 10:15:00 AM -0.02 31.964 0.186 7.24 2.98 14.01
2/23/2021 10:30:00 AM -0.02 31.964 0.186 7.26 3.04 14.03
2/23/2021 10:45:00 AM -0.02 31.964 0.186 7.26 3.04 14.04
2/23/2021 11:00:00 AM -0.01 31.982 0.186 7.25 3.01 14.05
2/23/2021 11:15:00 AM 0.01 32.018 0.186 7.27 2.96 14.07
2/23/2021 11:30:00 AM 0.04 32.072 0.185 7.27 3.03 14.09
2/23/2021 11:45:00 AM 0.07 32.126 0.185 7.27 2.95 14.11
2/23/2021 12:00:00 PM 0.08 32.144 0.185 7.29 2.93 14.12
2/23/2021 12:15:00 PM 0.09 32.162 0.185 7.28 2.89 14.13
2/23/2021 12:30:00 PM 0.08 32.144 0.186 7.3 2.86 14.14
2/23/2021 12:45:00 PM 0.08 32.144 0.185 7.28 2.94 14.15
2/23/2021 1:00:00 PM 0.08 32.144 0.186 7.3 2.87 14.15
2/23/2021 1:15:00 PM 0.1 32.18 0.187 7.31 2.88 14.16
2/23/2021 1:30:00 PM 0.13 32.234 0.188 7.32 2.87 14.18
2/23/2021 1:45:00 PM 0.16 32.288 0.19 7.31 2.92 14.19
2/23/2021 2:00:00 PM 0.16 32.288 0.191 7.33 2.94 14.18
2/23/2021 2:15:00 PM 0.15 32.27 0.19 7.33 2.99 14.19
2/23/2021 2:30:00 PM 0.15 32.27 0.189 7.31 2.93 14.18
2/23/2021 2:45:00 PM 0.15 32.27 0.189 7.32 2.97 14.17
2/23/2021 3:00:00 PM 0.14 32.252 0.188 7.34 3.02 14.15
2/23/2021 3:15:00 PM 0.13 32.234 0.187 7.31 3.01 14.13
2/23/2021 3:30:00 PM 0.13 32.234 0.187 7.32 2.94 14.12
2/23/2021 3:45:00 PM 0.13 32.234 0.186 7.31 2.9 14.1
2/23/2021 4:00:00 PM 0.12 32.216 0.186 7.32 2.9 14.08
2/23/2021 4:15:00 PM 0.12 32.216 0.185 7.3 2.79 14.06
2/23/2021 4:30:00 PM 0.12 32.216 0.184 7.29 2.81 14.05
2/23/2021 4:45:00 PM 0.12 32.216 0.184 7.3 2.85 14.04
2/23/2021 5:00:00 PM 0.12 32.216 0.184 7.32 2.87 14.03
2/23/2021 5:15:00 PM 0.12 32.216 0.184 7.31 2.89 14.03
2/23/2021 5:30:00 PM 0.12 32.216 0.185 7.3 2.9 14.01
2/23/2021 5:45:00 PM 0.12 32.216 0.185 7.3 2.82 13.98
2/23/2021 6:00:00 PM 0.11 32.198 0.186 7.29 2.9 13.95
2/23/2021 6:15:00 PM 0.11 32.198 0.185 7.29 2.91 13.92
2/23/2021 6:30:00 PM 0.11 32.198 0.185 7.28 2.85 13.9
2/23/2021 6:45:00 PM 0.11 32.198 0.185 7.28 2.9 13.87
2/23/2021 7:00:00 PM 0.11 32.198 0.185 7.25 3.11 13.86
2/23/2021 7:15:00 PM 0.11 32.198 0.185 7.27 2.95 13.83
2/23/2021 7:30:00 PM 0.11 32.198 0.185 7.27 2.98 13.82
2/23/2021 7:45:00 PM 0.11 32.198 0.184 7.25 2.98 13.81
2/23/2021 8:00:00 PM 0.11 32.198 0.184 7.26 2.93 13.8
2/23/2021 8:15:00 PM 0.11 32.198 0.184 7.26 2.89 13.79
2/23/2021 8:30:00 PM 0.11 32.198 0.184 7.25 2.91 13.78
2/23/2021 8:45:00 PM 0.1 32.18 0.184 7.25 2.97 13.77
2/23/2021 9:00:00 PM 0.1 32.18 0.185 7.26 2.92 13.76
2/23/2021 9:15:00 PM 0.1 32.18 0.184 7.25 2.95 13.75
2/23/2021 9:30:00 PM 0.09 32.162 0.185 7.25 2.96 13.75
2/23/2021 9:45:00 PM 0.09 32.162 0.185 7.25 2.94 13.75
2/23/2021 10:00:00 PM 0.09 32.162 0.185 7.24 3.05 13.74
2/23/2021 10:15:00 PM 0.09 32.162 0.184 7.24 3.12 13.74
2/23/2021 10:30:00 PM 0.09 32.162 0.185 7.24 2.94 13.73
2/23/2021 10:45:00 PM 0.08 32.144 0.185 7.24 2.87 13.73
2/23/2021 11:00:00 PM 0.08 32.144 0.185 7.22 2.93 13.73
2/23/2021 11:15:00 PM 0.08 32.144 0.185 7.23 2.92 13.72
2/23/2021 11:30:00 PM 0.08 32.144 0.184 7.23 2.99 13.72
2/23/2021 11:45:00 PM 0.07 32.126 0.185 7.21 2.96 13.72
2/24/2021 12:00:00 AM 0.06 32.108 0.185 7.23 3.01 13.72
2/24/2021 12:15:00 AM 0.05 32.09 0.184 7.24 3.17 13.72
2/24/2021 12:30:00 AM 0.04 32.072 0.185 7.22 3.09 13.71
2/24/2021 12:45:00 AM 0.04 32.072 0.185 7.23 3.14 13.72
2/24/2021 1:00:00 AM 0.03 32.054 0.185 7.22 3.05 13.72
2/24/2021 1:15:00 AM 0.02 32.036 0.185 7.23 3.15 13.73
2/24/2021 1:30:00 AM 0.01 32.018 0.185 7.22 3.15 13.73
2/24/2021 1:45:00 AM 0 32 0.186 7.22 3.28 13.73
2/24/2021 2:00:00 AM 0 32 0.185 7.22 3.16 13.73
2/24/2021 2:15:00 AM -0.01 31.982 0.185 7.21 3.12 13.74
2/24/2021 2:30:00 AM -0.01 31.982 0.185 7.21 3.1 13.74
2/24/2021 2:45:00 AM -0.02 31.964 0.185 7.23 3.13 13.74
2/24/2021 3:00:00 AM -0.03 31.946 0.185 7.22 3.15 13.75
2/24/2021 3:15:00 AM -0.04 31.928 0.185 7.2 3.22 13.76
2/24/2021 3:30:00 AM -0.03 31.946 0.185 7.22 3.21 13.75
2/24/2021 3:45:00 AM -0.02 31.964 0.184 7.22 3.16 13.75
2/24/2021 4:00:00 AM -0.01 31.982 0.184 7.21 3.14 13.76
2/24/2021 4:15:00 AM 0 32 0.184 7.21 3.17 13.76
2/24/2021 4:30:00 AM -0.01 31.982 0.184 7.22 3.09 13.76
2/24/2021 4:45:00 AM -0.03 31.946 0.184 7.21 3.09 13.77
2/24/2021 5:00:00 AM -0.04 31.928 0.184 7.21 3.12 13.77
2/24/2021 5:15:00 AM -0.05 31.91 0.184 7.21 3.15 13.78
2/24/2021 5:30:00 AM -0.06 31.892 0.184 7.21 3.13 13.78
2/24/2021 5:45:00 AM -0.07 31.874 0.184 7.2 3.16 13.79
2/24/2021 6:00:00 AM -0.08 31.856 0.184 7.21 3.05 13.8
2/24/2021 6:15:00 AM -0.09 31.838 0.184 7.2 4.25 13.8
2/24/2021 6:30:00 AM -0.09 31.838 0.185 7.21 3.15 13.8
2/24/2021 6:45:00 AM -0.09 31.838 0.185 7.21 3.28 13.81
2/24/2021 7:00:00 AM -0.09 31.838 0.184 7.21 3.33 13.82
2/24/2021 7:15:00 AM -0.09 31.838 0.185 7.24 3.32 13.84
2/24/2021 7:30:00 AM -0.08 31.856 0.185 7.26 3.37 13.87
2/24/2021 7:45:00 AM -0.07 31.874 0.185 7.26 3.38 13.93
2/24/2021 8:00:00 AM -0.06 31.892 0.185 7.28 3.39 13.97
2/24/2021 8:15:00 AM -0.04 31.928 0.184 7.28 3.33 14.02
2/24/2021 8:30:00 AM -0.02 31.964 0.184 7.25 3.15 14.07
2/24/2021 8:45:00 AM 0.02 32.036 0.184 7.25 3.03 14.11
2/24/2021 9:00:00 AM 0.05 32.09 0.185 7.26 3.19 14.15
2/24/2021 9:15:00 AM 0.08 32.144 0.185 7.25 3.09 14.18
2/24/2021 9:30:00 AM 0.11 32.198 0.185 7.27 3.24 14.21
2/24/2021 9:45:00 AM 0.15 32.27 0.185 7.26 3.32 14.23
2/24/2021 10:00:00 AM 0.23 32.414 0.185 7.28 3.24 14.26
2/24/2021 10:15:00 AM 0.28 32.504 0.186 7.3 3.19 14.27
2/24/2021 10:30:00 AM 0.35 32.63 0.186 7.29 3.14 14.28
2/24/2021 10:45:00 AM 0.4 32.72 0.186 7.28 3.04 14.29
2/24/2021 11:00:00 AM 0.44 32.792 0.185 7.31 3.12 14.3
2/24/2021 11:15:00 AM 0.48 32.864 0.185 7.32 3.04 14.31
2/24/2021 11:30:00 AM 0.53 32.954 0.185 7.33 2.93 14.31
2/24/2021 11:45:00 AM 0.56 33.008 0.185 7.33 2.96 14.31
2/24/2021 12:00:00 PM 0.59 33.062 0.185 7.34 3.92 14.32
2/24/2021 12:15:00 PM 0.63 33.134 0.184 7.33 3.05 14.32
2/24/2021 12:30:00 PM 0.68 33.224 0.182 7.34 3.03 14.32
2/24/2021 12:45:00 PM 0.72 33.296 0.181 7.34 3.06 14.32
2/24/2021 1:00:00 PM 0.79 33.422 0.18 7.35 3.06 14.31
2/24/2021 1:15:00 PM 0.84 33.512 0.18 7.35 3.08 14.31
2/24/2021 1:30:00 PM 0.92 33.656 0.18 7.33 3.07 14.29
2/24/2021 1:45:00 PM 0.96 33.728 0.181 7.37 3.14 14.27
2/24/2021 2:00:00 PM 1.02 33.836 0.181 7.35 3.12 14.27
2/24/2021 2:15:00 PM 1.07 33.926 0.182 7.37 3.07 14.26
2/24/2021 2:30:00 PM 1.13 34.034 0.182 7.38 3.08 14.24
2/24/2021 2:45:00 PM 1.21 34.178 0.181 7.35 3.09 14.23
2/24/2021 3:00:00 PM 1.29 34.322 0.181 7.39 3.25 14.21
2/24/2021 3:15:00 PM 1.33 34.394 0.181 7.38 3.12 14.18
2/24/2021 3:30:00 PM 1.36 34.448 0.181 7.39 3.18 14.16
2/24/2021 3:45:00 PM 1.41 34.538 0.181 7.37 3.28 14.14
2/24/2021 4:00:00 PM 1.43 34.574 0.181 7.39 3.13 14.11
2/24/2021 4:15:00 PM 1.38 34.484 0.182 7.37 3.05 14.07
2/24/2021 4:30:00 PM 1.31 34.358 0.182 7.38 3.21 14.03
2/24/2021 4:45:00 PM 1.28 34.304 0.181 7.37 3.06 14
2/24/2021 5:00:00 PM 1.25 34.25 0.182 7.37 3.14 13.97
2/24/2021 5:15:00 PM 1.21 34.178 0.181 7.37 3.12 13.94
2/24/2021 5:30:00 PM 1.17 34.106 0.182 7.37 3.31 13.87
2/24/2021 5:45:00 PM 1.15 34.07 0.182 7.35 3.39 13.83
2/24/2021 6:00:00 PM 1.12 34.016 0.182 7.34 3.43 13.77
2/24/2021 6:15:00 PM 1.09 33.962 0.183 7.33 3.59 13.71
2/24/2021 6:30:00 PM 1.06 33.908 0.183 7.32 3.39 13.66
2/24/2021 6:45:00 PM 1.03 33.854 0.184 7.31 3.79 13.62
2/24/2021 7:00:00 PM 1.02 33.836 0.183 7.3 3.39 13.57
2/24/2021 7:15:00 PM 1.01 33.818 0.184 7.29 3.48 13.55
2/24/2021 7:30:00 PM 1 33.8 0.184 7.29 4.24 13.52
2/24/2021 7:45:00 PM 0.99 33.782 0.184 7.29 4.04 13.49
2/24/2021 8:00:00 PM 0.97 33.746 0.184 7.28 4.96 13.46
2/24/2021 8:15:00 PM 0.95 33.71 0.184 7.28 4.75 13.44
2/24/2021 8:30:00 PM 0.93 33.674 0.185 7.27 5.05 13.42
2/24/2021 8:45:00 PM 0.91 33.638 0.185 7.26 5.24 13.41
2/24/2021 9:00:00 PM 0.89 33.602 0.186 7.26 5.67 13.39
2/24/2021 9:15:00 PM 0.86 33.548 0.187 7.24 5.48 13.38
2/24/2021 9:30:00 PM 0.83 33.494 0.188 7.25 5.44 13.37
2/24/2021 9:45:00 PM 0.8 33.44 0.189 7.24 5.4 13.36
2/24/2021 10:00:00 PM 0.77 33.386 0.189 7.23 5.73 13.37
2/24/2021 10:15:00 PM 0.77 33.386 0.191 7.23 6.07 13.35
2/24/2021 10:30:00 PM 0.76 33.368 0.192 7.23 6.18 13.36
2/24/2021 10:45:00 PM 0.74 33.332 0.194 7.22 6.55 13.35
2/24/2021 11:00:00 PM 0.71 33.278 0.195 7.22 6.74 13.36
2/24/2021 11:15:00 PM 0.71 33.278 0.197 7.21 6.55 13.36
2/24/2021 11:30:00 PM 0.7 33.26 0.198 7.21 7.06 13.37
2/24/2021 11:45:00 PM 0.68 33.224 0.2 7.2 7.35 13.37
2/25/2021 12:00:00 AM 0.68 33.224 0.202 7.21 7.26 13.37
2/25/2021 12:15:00 AM 0.68 33.224 0.204 7.2 7.29 13.38
2/25/2021 12:30:00 AM 0.67 33.206 0.206 7.21 7.53 13.39
2/25/2021 12:45:00 AM 0.65 33.17 0.207 7.21 7.44 13.4
2/25/2021 1:00:00 AM 0.64 33.152 0.209 7.21 7.55 13.4
2/25/2021 1:15:00 AM 0.63 33.134 0.211 7.21 7.55 13.41
2/25/2021 1:30:00 AM 0.62 33.116 0.214 7.19 7.44 13.42
2/25/2021 1:45:00 AM 0.6 33.08 0.216 7.2 7.74 13.43
2/25/2021 2:00:00 AM 0.58 33.044 0.219 7.21 8.06 13.44
2/25/2021 2:15:00 AM 0.56 33.008 0.222 7.21 8.35 13.45
2/25/2021 2:30:00 AM 0.54 32.972 0.224 7.19 8.21 13.46
2/25/2021 2:45:00 AM 0.52 32.936 0.227 7.2 8.63 13.48
2/25/2021 3:00:00 AM 0.5 32.9 0.23 7.2 9.02 13.5
2/25/2021 3:15:00 AM 0.48 32.864 0.232 7.2 9.18 13.51
2/25/2021 3:30:00 AM 0.46 32.828 0.234 7.19 9.35 13.53
2/25/2021 3:45:00 AM 0.44 32.792 0.236 7.19 9.53 13.54
2/25/2021 4:00:00 AM 0.41 32.738 0.237 7.19 9.81 13.55
2/25/2021 4:15:00 AM 0.39 32.702 0.238 7.19 10.38 13.57
2/25/2021 4:30:00 AM 0.38 32.684 0.239 7.18 10.59 13.58
2/25/2021 4:45:00 AM 0.36 32.648 0.24 7.18 11.48 13.6
2/25/2021 5:00:00 AM 0.34 32.612 0.241 7.18 11.53 13.61
2/25/2021 5:15:00 AM 0.33 32.594 0.242 7.17 11.94 13.62
2/25/2021 5:30:00 AM 0.31 32.558 0.242 7.17 12.45 13.64
2/25/2021 5:45:00 AM 0.3 32.54 0.243 7.17 12.44 13.65
2/25/2021 6:00:00 AM 0.29 32.522 0.244 7.18 13.26 13.66
2/25/2021 6:15:00 AM 0.27 32.486 0.244 7.17 13.46 13.68
2/25/2021 6:30:00 AM 0.26 32.468 0.245 7.16 13.44 13.69
2/25/2021 6:45:00 AM 0.25 32.45 0.246 7.17 13.56 13.7
2/25/2021 7:00:00 AM 0.24 32.432 0.247 7.17 13.78 13.72
2/25/2021 7:15:00 AM 0.23 32.414 0.248 7.17 14.14 13.74
2/25/2021 7:30:00 AM 0.22 32.396 0.249 7.16 13.66 13.77
2/25/2021 7:45:00 AM 0.22 32.396 0.25 7.16 13.51 13.8
2/25/2021 8:00:00 AM 0.23 32.414 0.251 7.17 13.27 13.83
2/25/2021 8:15:00 AM 0.23 32.414 0.252 7.17 13.34 13.87
2/25/2021 8:30:00 AM 0.24 32.432 0.253 7.17 13.23 13.9
2/25/2021 8:45:00 AM 0.25 32.45 0.254 7.18 13.54 13.94
2/25/2021 9:00:00 AM 0.27 32.486 0.254 7.18 13.24 13.98
2/25/2021 9:15:00 AM 0.29 32.522 0.254 7.19 12.84 14.01
2/25/2021 9:30:00 AM 0.31 32.558 0.253 7.19 12.88 14.05
2/25/2021 9:45:00 AM 0.36 32.648 0.253 7.19 12.97 14.08
2/25/2021 10:00:00 AM 0.38 32.684 0.252 7.2 12.86 14.11
2/25/2021 10:15:00 AM 0.4 32.72 0.251 7.2 12.7 14.13
2/25/2021 10:30:00 AM 0.47 32.846 0.249 7.2 12.24 14.16
2/25/2021 10:45:00 AM 0.52 32.936 0.248 7.21 12.16 14.18
2/25/2021 11:00:00 AM 0.6 33.08 0.247 7.22 11.95 14.19
2/25/2021 11:15:00 AM 0.69 33.242 0.246 7.22 12.12 14.2
2/25/2021 11:30:00 AM 0.79 33.422 0.244 7.23 12.06 14.21
2/25/2021 11:45:00 AM 0.89 33.602 0.243 7.24 12.09 14.21
2/25/2021 12:00:00 PM 0.95 33.71 0.242 7.25 12.09 14.21
2/25/2021 12:15:00 PM 1.04 33.872 0.241 7.25 12.02 14.2
2/25/2021 12:30:00 PM 1.13 34.034 0.241 7.23 11.55 14.2
2/25/2021 12:45:00 PM 1.2 34.16 0.24 7.26 11.75 14.19
2/25/2021 1:00:00 PM 1.25 34.25 0.239 7.25 12.14 14.18
2/25/2021 1:15:00 PM 1.28 34.304 0.239 7.26 12.15 14.17
2/25/2021 1:30:00 PM 1.34 34.412 0.239 7.26 12.37 14.17
2/25/2021 1:45:00 PM 1.38 34.484 0.238 7.26 12.4 14.15
2/25/2021 2:00:00 PM 1.42 34.556 0.238 7.26 12.57 14.14
2/25/2021 2:15:00 PM 1.47 34.646 0.238 7.25 12.57 14.12
2/25/2021 2:30:00 PM 1.52 34.736 0.237 7.26 13.82 14.1
2/25/2021 2:45:00 PM 1.57 34.826 0.236 7.25 14.83 14.08
2/25/2021 3:00:00 PM 1.62 34.916 0.235 7.24 13.92 14.05
2/25/2021 3:15:00 PM 1.63 34.934 0.235 7.24 14.31 14.03
2/25/2021 3:30:00 PM 1.66 34.988 0.233 7.24 13.57 14
2/25/2021 3:45:00 PM 1.7 35.06 0.232 7.23 12.98 13.98
2/25/2021 4:00:00 PM 1.71 35.078 0.231 7.24 12.72 13.95
2/25/2021 4:15:00 PM 1.69 35.042 0.23 7.24 12.49 13.93
2/25/2021 4:30:00 PM 1.66 34.988 0.23 7.24 12.23 13.91
2/25/2021 4:45:00 PM 1.64 34.952 0.229 7.24 12.12 13.88
2/25/2021 5:00:00 PM 1.61 34.898 0.228 7.24 11.91 13.86
2/25/2021 5:15:00 PM 1.57 34.826 0.227 7.24 11.55 13.84
2/25/2021 5:30:00 PM 1.51 34.718 0.226 7.24 11.3 13.82
2/25/2021 5:45:00 PM 1.46 34.628 0.226 7.23 12.68 13.79
2/25/2021 6:00:00 PM 1.39 34.502 0.225 7.23 11.29 13.77
2/25/2021 6:15:00 PM 1.32 34.376 0.224 7.24 10.83 13.76
2/25/2021 6:30:00 PM 1.25 34.25 0.223 7.23 10.61 13.74
2/25/2021 6:45:00 PM 1.18 34.124 0.222 7.22 10.66 13.74
2/25/2021 7:00:00 PM 1.12 34.016 0.222 7.22 10.3 13.74
2/25/2021 7:15:00 PM 1.05 33.89 0.222 7.2 10.4 13.75
2/25/2021 7:30:00 PM 0.98 33.764 0.221 7.21 10.32 13.76
2/25/2021 7:45:00 PM 0.9 33.62 0.221 7.2 10.64 13.77
2/25/2021 8:00:00 PM 0.85 33.53 0.221 7.19 10.42 13.78
2/25/2021 8:15:00 PM 0.79 33.422 0.221 7.19 10.55 13.79
2/25/2021 8:30:00 PM 0.73 33.314 0.221 7.19 10.71 13.8
2/25/2021 8:45:00 PM 0.67 33.206 0.221 7.17 10.7 13.81
2/25/2021 9:00:00 PM 0.62 33.116 0.221 7.18 10.63 13.81
2/25/2021 9:15:00 PM 0.57 33.026 0.221 7.17 10.56 13.82
2/25/2021 9:30:00 PM 0.52 32.936 0.222 7.16 11.12 13.82
2/25/2021 9:45:00 PM 0.49 32.882 0.223 7.18 10.77 13.83
2/25/2021 10:00:00 PM 0.46 32.828 0.223 7.17 10.92 13.83
2/25/2021 10:15:00 PM 0.43 32.774 0.223 7.17 10.53 13.83
2/25/2021 10:30:00 PM 0.41 32.738 0.224 7.17 10.67 13.83
2/25/2021 10:45:00 PM 0.38 32.684 0.224 7.17 10.79 13.83
2/25/2021 11:00:00 PM 0.36 32.648 0.224 7.17 11.19 13.84
2/25/2021 11:15:00 PM 0.33 32.594 0.225 7.16 10.91 13.84
2/25/2021 11:30:00 PM 0.31 32.558 0.225 7.17 10.69 13.84
2/25/2021 11:45:00 PM 0.28 32.504 0.226 7.16 10.85 13.84
2/26/2021 12:00:00 AM 0.25 32.45 0.226 7.15 11.21 13.84
2/26/2021 12:15:00 AM 0.23 32.414 0.227 7.16 13.85 13.86
2/26/2021 12:30:00 AM 0.2 32.36 0.227 7.16 10.79 13.86
2/26/2021 12:45:00 AM 0.16 32.288 0.228 7.15 10.64 13.86
2/26/2021 1:00:00 AM 0.13 32.234 0.229 7.15 10.64 13.88
2/26/2021 1:15:00 AM 0.1 32.18 0.23 7.15 10.73 13.88
2/26/2021 1:30:00 AM 0.06 32.108 0.23 7.15 10.55 13.9
2/26/2021 1:45:00 AM 0.02 32.036 0.231 7.15 10.06 13.91
2/26/2021 2:00:00 AM -0.01 31.982 0.232 7.14 10.41 13.92
2/26/2021 2:15:00 AM -0.05 31.91 0.233 7.15 10.06 13.94
2/26/2021 2:30:00 AM -0.08 31.856 0.233 7.15 9.91 13.96
2/26/2021 2:45:00 AM -0.11 31.802 0.234 7.14 9.92 13.97
2/26/2021 3:00:00 AM -0.11 31.802 0.235 7.15 9.68 13.99
2/26/2021 3:15:00 AM -0.1 31.82 0.235 7.15 9.74 14
2/26/2021 3:30:00 AM -0.1 31.82 0.236 7.16 9.4 14.01
2/26/2021 3:45:00 AM -0.08 31.856 0.236 7.15 9.45 14.02
2/26/2021 4:00:00 AM -0.08 31.856 0.236 7.14 9.94 14.03
2/26/2021 4:15:00 AM -0.08 31.856 0.236 7.16 9.01 14.04
2/26/2021 4:30:00 AM -0.08 31.856 0.236 7.19 8.92 14.05
2/26/2021 4:45:00 AM -0.08 31.856 0.236 7.21 8.79 14.05
2/26/2021 5:00:00 AM -0.07 31.874 0.236 7.2 9.02 14.06
2/26/2021 5:15:00 AM -0.07 31.874 0.236 7.22 8.22 14.07
2/26/2021 5:30:00 AM -0.07 31.874 0.236 7.22 7.7 14.07
2/26/2021 5:45:00 AM -0.07 31.874 0.236 7.23 7.61 14.07
2/26/2021 6:00:00 AM -0.07 31.874 0.236 7.23 7.31 14.08
2/26/2021 6:15:00 AM -0.07 31.874 0.237 7.24 7.58 14.08
2/26/2021 6:30:00 AM -0.07 31.874 0.237 7.24 7.68 14.08
2/26/2021 6:45:00 AM -0.07 31.874 0.237 7.23 8.15 14.08
2/26/2021 7:00:00 AM -0.07 31.874 0.238 7.23 7.49 14.09
2/26/2021 7:15:00 AM -0.07 31.874 0.238 7.24 7.71 14.11
2/26/2021 7:30:00 AM -0.07 31.874 0.238 7.24 7.27 14.13
2/26/2021 7:45:00 AM -0.07 31.874 0.239 7.23 7.22 14.16
2/26/2021 8:00:00 AM -0.07 31.874 0.239 7.25 7.41 14.2
2/26/2021 8:15:00 AM -0.06 31.892 0.239 7.25 7.28 14.22
2/26/2021 8:30:00 AM -0.06 31.892 0.239 7.26 7.53 14.25
2/26/2021 8:45:00 AM -0.06 31.892 0.239 7.26 7.26 14.28
2/26/2021 9:00:00 AM -0.02 31.964 0.239 7.2 6.68 14.31
2/26/2021 9:15:00 AM 0.01 32.018 0.239 7.16 6.84 14.33
2/26/2021 9:30:00 AM 0.02 32.036 0.239 7.17 6.66 14.35
2/26/2021 9:45:00 AM 0.06 32.108 0.239 7.18 6.5 14.36
2/26/2021 10:00:00 AM 0.09 32.162 0.239 7.18 6.36 14.38
2/26/2021 10:15:00 AM 0.11 32.198 0.238 7.19 6.45 14.39
2/26/2021 10:30:00 AM 0.14 32.252 0.238 7.2 6.65 14.4
2/26/2021 10:45:00 AM 0.19 32.342 0.237 7.22 6.7 14.41
2/26/2021 11:00:00 AM 0.22 32.396 0.237 7.21 6.77 14.42
2/26/2021 11:15:00 AM 0.3 32.54 0.237 7.22 7 14.43
2/26/2021 11:30:00 AM 0.39 32.702 0.237 7.22 7.17 14.44
2/26/2021 11:45:00 AM 0.48 32.864 0.238 7.23 7.17 14.44
2/26/2021 12:00:00 PM 0.55 32.99 0.237 7.24 7.5 14.44
2/26/2021 12:15:00 PM 0.63 33.134 0.236 7.24 7.83 14.44
2/26/2021 12:30:00 PM 0.73 33.314 0.233 7.24 8.07 14.42
2/26/2021 12:45:00 PM 0.79 33.422 0.229 7.24 8.3 14.41
2/26/2021 1:00:00 PM 0.84 33.512 0.226 7.23 8.8 14.4
2/26/2021 1:15:00 PM 0.89 33.602 0.225 7.24 8.93 14.39
2/26/2021 1:30:00 PM 0.95 33.71 0.225 7.25 9.09 14.37
2/26/2021 1:45:00 PM 1.02 33.836 0.226 7.25 9.35 14.35
2/26/2021 2:00:00 PM 1.1 33.98 0.226 7.25 9.33 14.33
2/26/2021 2:15:00 PM 1.19 34.142 0.225 7.28 9.4 14.3
2/26/2021 2:30:00 PM 1.23 34.214 0.223 7.29 9.64 14.28
2/26/2021 2:45:00 PM 1.3 34.34 0.222 7.3 9.14 14.26
2/26/2021 3:00:00 PM 1.37 34.466 0.221 7.31 9.69 14.24
2/26/2021 3:15:00 PM 1.45 34.61 0.22 7.32 9.23 14.22
2/26/2021 3:30:00 PM 1.54 34.772 0.219 7.33 8.93 14.19
2/26/2021 3:45:00 PM 1.6 34.88 0.218 7.33 8.63 14.17
2/26/2021 4:00:00 PM 1.64 34.952 0.217 7.33 9.05 14.15
2/26/2021 4:15:00 PM 1.67 35.006 0.216 7.33 8.19 14.12
2/26/2021 4:30:00 PM 1.67 35.006 0.215 7.32 8.03 14.1
2/26/2021 4:45:00 PM 1.65 34.97 0.215 7.33 8 14.08
2/26/2021 5:00:00 PM 1.63 34.934 0.215 7.32 8.12 14.05
2/26/2021 5:15:00 PM 1.62 34.916 0.215 7.31 7.92 14.02
2/26/2021 5:30:00 PM 1.6 34.88 0.214 7.28 7.5 13.99
2/26/2021 5:45:00 PM 1.58 34.844 0.215 7.29 7.76 13.95
2/26/2021 6:00:00 PM 1.55 34.79 0.215 7.28 7.25 13.92
2/26/2021 6:15:00 PM 1.51 34.718 0.215 7.28 7.23 13.88
2/26/2021 6:30:00 PM 1.47 34.646 0.215 7.27 7.39 13.85
2/26/2021 6:45:00 PM 1.42 34.556 0.215 7.26 7.38 13.83
2/26/2021 7:00:00 PM 1.36 34.448 0.215 7.25 8.15 13.81
2/26/2021 7:15:00 PM 1.33 34.394 0.215 7.26 7.42 13.79
2/26/2021 7:30:00 PM 1.28 34.304 0.216 7.26 7.5 13.78
2/26/2021 7:45:00 PM 1.23 34.214 0.216 7.25 7.5 13.77
2/26/2021 8:00:00 PM 1.17 34.106 0.216 7.25 7.68 13.77
2/26/2021 8:15:00 PM 1.12 34.016 0.216 7.24 7.45 13.75
2/26/2021 8:30:00 PM 1.06 33.908 0.216 7.23 7.45 13.75
2/26/2021 8:45:00 PM 1 33.8 0.216 7.23 7.12 13.76
2/26/2021 9:00:00 PM 0.95 33.71 0.217 7.22 7.31 13.75
2/26/2021 9:15:00 PM 0.89 33.602 0.217 7.22 7.17 13.76
2/26/2021 9:30:00 PM 0.84 33.512 0.217 7.22 6.86 13.77
2/26/2021 9:45:00 PM 0.79 33.422 0.217 7.2 6.81 13.77
2/26/2021 10:00:00 PM 0.74 33.332 0.217 7.2 6.85 13.78
2/26/2021 10:15:00 PM 0.69 33.242 0.217 7.21 6.87 13.79
2/26/2021 10:30:00 PM 0.65 33.17 0.217 7.19 6.72 13.8
2/26/2021 10:45:00 PM 0.6 33.08 0.218 7.19 6.84 13.8
2/26/2021 11:00:00 PM 0.56 33.008 0.218 7.21 6.82 13.81
2/26/2021 11:15:00 PM 0.53 32.954 0.218 7.18 6.6 13.81
2/26/2021 11:30:00 PM 0.5 32.9 0.218 7.19 6.64 13.82
2/26/2021 11:45:00 PM 0.47 32.846 0.218 7.19 7.39 13.82
2/27/2021 12:00:00 AM 0.45 32.81 0.219 7.18 6.9 13.82
2/27/2021 12:15:00 AM 0.44 32.792 0.219 7.19 6.58 13.83
2/27/2021 12:30:00 AM 0.43 32.774 0.22 7.2 6.72 13.82
2/27/2021 12:45:00 AM 0.44 32.792 0.22 7.19 6.64 13.83
2/27/2021 1:00:00 AM 0.46 32.828 0.221 7.19 6.73 13.82
2/27/2021 1:15:00 AM 0.47 32.846 0.221 7.2 6.59 13.81
2/27/2021 1:30:00 AM 0.49 32.882 0.221 7.19 6.71 13.81
2/27/2021 1:45:00 AM 0.5 32.9 0.222 7.2 6.55 13.8
2/27/2021 2:00:00 AM 0.52 32.936 0.222 7.2 6.63 13.79
2/27/2021 2:15:00 AM 0.53 32.954 0.223 7.19 6.63 13.79
2/27/2021 2:30:00 AM 0.54 32.972 0.223 7.2 6.81 13.77
2/27/2021 2:45:00 AM 0.53 32.954 0.223 7.2 6.46 13.78
2/27/2021 3:00:00 AM 0.51 32.918 0.223 7.2 6.67 13.77
2/27/2021 3:15:00 AM 0.49 32.882 0.223 7.21 6.48 13.77
2/27/2021 3:30:00 AM 0.48 32.864 0.224 7.21 6.47 13.78
2/27/2021 3:45:00 AM 0.47 32.846 0.223 7.21 6.44 13.78
2/27/2021 4:00:00 AM 0.46 32.828 0.224 7.2 6.38 13.77
2/27/2021 4:15:00 AM 0.46 32.828 0.223 7.21 6.22 13.78
2/27/2021 4:30:00 AM 0.46 32.828 0.223 7.2 6.42 13.79
2/27/2021 4:45:00 AM 0.45 32.81 0.223 7.2 6.08 13.78
2/27/2021 5:00:00 AM 0.45 32.81 0.223 7.21 6.03 13.79
2/27/2021 5:15:00 AM 0.46 32.828 0.223 7.2 6.19 13.79
2/27/2021 5:30:00 AM 0.46 32.828 0.224 7.2 6.19 13.79
2/27/2021 5:45:00 AM 0.46 32.828 0.224 7.2 5.86 13.79
2/27/2021 6:00:00 AM 0.46 32.828 0.224 7.2 5.98 13.79
2/27/2021 6:15:00 AM 0.45 32.81 0.224 7.2 5.81 13.8
2/27/2021 6:30:00 AM 0.45 32.81 0.224 7.2 5.97 13.79
2/27/2021 6:45:00 AM 0.45 32.81 0.224 7.2 5.81 13.8
2/27/2021 7:00:00 AM 0.45 32.81 0.224 7.2 5.8 13.8
2/27/2021 7:15:00 AM 0.45 32.81 0.225 7.2 5.91 13.8
2/27/2021 7:30:00 AM 0.45 32.81 0.225 7.2 5.8 13.8
2/27/2021 7:45:00 AM 0.46 32.828 0.225 7.2 5.74 13.82
2/27/2021 8:00:00 AM 0.47 32.846 0.226 7.22 5.68 13.85
2/27/2021 8:15:00 AM 0.49 32.882 0.226 7.21 5.76 13.86
2/27/2021 8:30:00 AM 0.51 32.918 0.226 7.22 5.37 13.86
2/27/2021 8:45:00 AM 0.53 32.954 0.226 7.23 5.51 13.88
2/27/2021 9:00:00 AM 0.56 33.008 0.226 7.23 5.39 13.9
2/27/2021 9:15:00 AM 0.6 33.08 0.225 7.22 5.4 13.93
2/27/2021 9:30:00 AM 0.63 33.134 0.225 7.24 5.13 13.95
2/27/2021 9:45:00 AM 0.67 33.206 0.225 7.24 5.27 13.96
2/27/2021 10:00:00 AM 0.72 33.296 0.225 7.26 5.14 13.99
2/27/2021 10:15:00 AM 0.77 33.386 0.225 7.26 5.16 14
2/27/2021 10:30:00 AM 0.8 33.44 0.225 7.26 5 14.01
2/27/2021 10:45:00 AM 0.83 33.494 0.225 7.27 5.03 14.02
2/27/2021 11:00:00 AM 0.86 33.548 0.225 7.27 5.12 14.02
2/27/2021 11:15:00 AM 0.91 33.638 0.224 7.27 5 14.04
2/27/2021 11:30:00 AM 0.97 33.746 0.224 7.28 5.11 14.06
2/27/2021 11:45:00 AM 1.03 33.854 0.224 7.28 4.93 14.07
2/27/2021 12:00:00 PM 1.09 33.962 0.224 7.29 4.87 14.07
2/27/2021 12:15:00 PM 1.12 34.016 0.224 7.29 4.72 14.06
2/27/2021 12:30:00 PM 1.16 34.088 0.224 7.28 4.72 14.06
2/27/2021 12:45:00 PM 1.23 34.214 0.223 7.3 4.74 14.07
2/27/2021 1:00:00 PM 1.34 34.412 0.223 7.3 4.74 14.08
2/27/2021 1:15:00 PM 1.46 34.628 0.223 7.3 4.8 14.07
2/27/2021 1:30:00 PM 1.54 34.772 0.223 7.32 4.71 14.05
2/27/2021 1:45:00 PM 1.64 34.952 0.222 7.33 4.83 14.04
2/27/2021 2:00:00 PM 1.74 35.132 0.222 7.33 4.63 14.03
2/27/2021 2:15:00 PM 1.85 35.33 0.222 7.33 4.72 14.01
2/27/2021 2:30:00 PM 1.98 35.564 0.222 7.32 4.68 14
2/27/2021 2:45:00 PM 2.08 35.744 0.221 7.32 4.55 13.98
2/27/2021 3:00:00 PM 2.22 35.996 0.221 7.34 4.64 13.97
2/27/2021 3:15:00 PM 2.3 36.14 0.221 7.34 4.65 13.95
2/27/2021 3:30:00 PM 2.37 36.266 0.221 7.34 4.56 13.93
2/27/2021 3:45:00 PM 2.46 36.428 0.22 7.34 4.5 13.92
2/27/2021 4:00:00 PM 2.51 36.518 0.22 7.35 5.22 13.88
2/27/2021 4:15:00 PM 2.51 36.518 0.22 7.34 4.68 13.86
2/27/2021 4:30:00 PM 2.48 36.464 0.22 7.34 4.88 13.83
2/27/2021 4:45:00 PM 2.45 36.41 0.22 7.33 4.88 13.8
2/27/2021 5:00:00 PM 2.42 36.356 0.22 7.33 4.87 13.77
2/27/2021 5:15:00 PM 2.39 36.302 0.22 7.33 5.01 13.73
2/27/2021 5:30:00 PM 2.35 36.23 0.221 7.32 5.12 13.71
2/27/2021 5:45:00 PM 2.3 36.14 0.221 7.32 5.06 13.67
2/27/2021 6:00:00 PM 2.26 36.068 0.22 7.31 4.89 13.63
2/27/2021 6:15:00 PM 2.21 35.978 0.221 7.3 5.05 13.59
2/27/2021 6:30:00 PM 2.16 35.888 0.221 7.29 5.19 13.54
2/27/2021 6:45:00 PM 2.1 35.78 0.221 7.27 5.47 13.51
2/27/2021 7:00:00 PM 2.03 35.654 0.221 7.28 5.45 13.49
2/27/2021 7:15:00 PM 1.97 35.546 0.222 7.27 5.61 13.47
2/27/2021 7:30:00 PM 1.91 35.438 0.222 7.25 5.93 13.46
2/27/2021 7:45:00 PM 1.83 35.294 0.222 7.25 6 13.46
2/27/2021 8:00:00 PM 1.76 35.168 0.223 7.25 6.26 13.47
2/27/2021 8:15:00 PM 1.69 35.042 0.223 7.23 6.08 13.47
2/27/2021 8:30:00 PM 1.62 34.916 0.224 7.24 6.32 13.48
2/27/2021 8:45:00 PM 1.55 34.79 0.225 7.23 6.96 13.49
2/27/2021 9:00:00 PM 1.48 34.664 0.225 7.24 6.57 13.5
2/27/2021 9:15:00 PM 1.4 34.52 0.226 7.21 6.56 13.52
2/27/2021 9:30:00 PM 1.34 34.412 0.226 7.22 7.07 13.53
2/27/2021 9:45:00 PM 1.28 34.304 0.227 7.21 6.95 13.54
2/27/2021 10:00:00 PM 1.23 34.214 0.228 7.21 6.86 13.55
2/27/2021 10:15:00 PM 1.18 34.124 0.229 7.21 7.02 13.56
2/27/2021 10:30:00 PM 1.12 34.016 0.229 7.2 6.93 13.57
2/27/2021 10:45:00 PM 1.08 33.944 0.23 7.21 6.78 13.58
2/27/2021 11:00:00 PM 1.03 33.854 0.231 7.21 7.19 13.58
2/27/2021 11:15:00 PM 0.99 33.782 0.231 7.21 7.44 13.59
2/27/2021 11:30:00 PM 0.96 33.728 0.232 7.21 7.28 13.6
2/27/2021 11:45:00 PM 0.92 33.656 0.232 7.21 7.14 13.61
2/28/2021 12:00:00 AM 0.89 33.602 0.233 7.21 7.2 13.62
2/28/2021 12:15:00 AM 0.86 33.548 0.234 7.21 7.22 13.63
2/28/2021 12:30:00 AM 0.82 33.476 0.234 7.2 7.14 13.64
2/28/2021 12:45:00 AM 0.78 33.404 0.235 7.19 7.58 13.65
2/28/2021 1:00:00 AM 0.75 33.35 0.235 7.19 7.16 13.66
2/28/2021 1:15:00 AM 0.73 33.314 0.236 7.19 7.02 13.67
2/28/2021 1:30:00 AM 0.71 33.278 0.236 7.2 7.34 13.68
2/28/2021 1:45:00 AM 0.68 33.224 0.236 7.19 7.27 13.69
2/28/2021 2:00:00 AM 0.65 33.17 0.236 7.19 7.4 13.7
2/28/2021 2:15:00 AM 0.62 33.116 0.236 7.19 7.83 13.72
2/28/2021 2:30:00 AM 0.59 33.062 0.236 7.13 7.78 13.72
2/28/2021 2:45:00 AM 0.57 33.026 0.235 7.14 7.43 13.73
2/28/2021 3:00:00 AM 0.55 32.99 0.235 7.12 7.25 13.74
2/28/2021 3:15:00 AM 0.53 32.954 0.235 7.14 7.12 13.75
2/28/2021 3:30:00 AM 0.52 32.936 0.235 7.14 7.3 13.76
2/28/2021 3:45:00 AM 0.5 32.9 0.235 7.14 7.87 13.77
2/28/2021 4:00:00 AM 0.48 32.864 0.234 7.14 7.32 13.78
2/28/2021 4:15:00 AM 0.46 32.828 0.235 7.12 7.23 13.79
2/28/2021 4:30:00 AM 0.44 32.792 0.235 7.13 7.14 13.79
2/28/2021 4:45:00 AM 0.42 32.756 0.235 7.14 7.61 13.81
2/28/2021 5:00:00 AM 0.4 32.72 0.235 7.13 7.16 13.82
2/28/2021 5:15:00 AM 0.38 32.684 0.235 7.14 7.54 13.83
2/28/2021 5:30:00 AM 0.36 32.648 0.235 7.14 7.32 13.84
2/28/2021 5:45:00 AM 0.34 32.612 0.236 7.14 7.58 13.85
2/28/2021 6:00:00 AM 0.33 32.594 0.236 7.12 7.31 13.85
2/28/2021 6:15:00 AM 0.31 32.558 0.236 7.14 7.33 13.86
2/28/2021 6:30:00 AM 0.29 32.522 0.237 7.14 7.23 13.87
2/28/2021 6:45:00 AM 0.28 32.504 0.237 7.13 7.41 13.88
2/28/2021 7:00:00 AM 0.26 32.468 0.237 7.14 7.65 13.89
2/28/2021 7:15:00 AM 0.25 32.45 0.237 7.14 7.3 13.91
2/28/2021 7:30:00 AM 0.24 32.432 0.237 7.13 7.58 13.93
2/28/2021 7:45:00 AM 0.24 32.432 0.237 7.15 7.5 13.96
2/28/2021 8:00:00 AM 0.24 32.432 0.237 7.15 7.16 14
2/28/2021 8:15:00 AM 0.25 32.45 0.237 7.13 7.21 14.03
2/28/2021 8:30:00 AM 0.26 32.468 0.237 7.16 7.4 14.06
2/28/2021 8:45:00 AM 0.28 32.504 0.237 7.17 7.26 14.09
2/28/2021 9:00:00 AM 0.3 32.54 0.236 7.17 6.8 14.11
2/28/2021 9:15:00 AM 0.32 32.576 0.236 7.15 6.68 14.14
2/28/2021 9:30:00 AM 0.35 32.63 0.236 7.18 6.51 14.17
2/28/2021 9:45:00 AM 0.38 32.684 0.235 7.18 6.33 14.18
2/28/2021 10:00:00 AM 0.41 32.738 0.235 7.19 6.26 14.2
2/28/2021 10:15:00 AM 0.46 32.828 0.234 7.19 6.28 14.22